﻿<?xml version="1.0" encoding="UTF-8" standalone="no" ?>
<gpx xmlns="http://www.topografix.com/GPX/1/1" creator="CompeGPS" version="1.1" xmlns:xsi="http://www.w3.org/2001/XMLSchema-instance" xsi:schemaLocation="http://www.topografix.com/GPX/1/1 http://www.topografix.com/GPX/1/1/gpx.xsd http://www.garmin.com/xmlschemas/GpxExtensions/v3 http://www.garmin.com/xmlschemas/GpxExtensionsv3.xsd http://www.garmin.com/xmlschemas/TrackPointExtension/v1 http://www.garmin.com/xmlschemas/TrackPointExtensionv1.xsd" xmlns:gpxtpx="http://www.garmin.com/xmlschemas/TrackPointExtension/v1">
  <metadata>
    <link href="http://www.compegps.com">
      <text>CompeGPS TEAM, SL</text>
    </link>
    <time>2015-02-18T12:58:09Z</time>
    <bounds maxlat="42.575245" maxlon="0.080195" minlat="42.556752" minlon="0.050431"/>
  </metadata>
  <trk>
    <name>sestrales</name>
    <trkseg>
      <trkpt lat="42.558817" lon="0.050475">
        <ele>953.7</ele>
        <time>2014-05-04T06:51:25Z</time>
      </trkpt>
      <trkpt lat="42.558833" lon="0.050587">
        <ele>953.0</ele>
        <time>2014-05-04T06:51:36Z</time>
      </trkpt>
      <trkpt lat="42.558793" lon="0.050693">
        <ele>952.0</ele>
        <time>2014-05-04T06:51:46Z</time>
      </trkpt>
      <trkpt lat="42.558730" lon="0.050791">
        <ele>950.3</ele>
        <time>2014-05-04T06:51:57Z</time>
      </trkpt>
      <trkpt lat="42.558667" lon="0.050885">
        <ele>948.5</ele>
        <time>2014-05-04T06:52:07Z</time>
      </trkpt>
      <trkpt lat="42.558640" lon="0.051004">
        <ele>946.5</ele>
        <time>2014-05-04T06:52:17Z</time>
      </trkpt>
      <trkpt lat="42.558578" lon="0.051118">
        <ele>945.4</ele>
        <time>2014-05-04T06:52:28Z</time>
      </trkpt>
      <trkpt lat="42.558487" lon="0.051217">
        <ele>944.3</ele>
        <time>2014-05-04T06:52:39Z</time>
      </trkpt>
      <trkpt lat="42.558391" lon="0.051286">
        <ele>943.7</ele>
        <time>2014-05-04T06:52:51Z</time>
      </trkpt>
      <trkpt lat="42.558293" lon="0.051354">
        <ele>942.8</ele>
        <time>2014-05-04T06:53:01Z</time>
      </trkpt>
      <trkpt lat="42.558180" lon="0.051402">
        <ele>942.2</ele>
        <time>2014-05-04T06:53:12Z</time>
      </trkpt>
      <trkpt lat="42.558072" lon="0.051526">
        <ele>940.4</ele>
        <time>2014-05-04T06:53:25Z</time>
      </trkpt>
      <trkpt lat="42.558021" lon="0.051686">
        <ele>939.8</ele>
        <time>2014-05-04T06:53:39Z</time>
      </trkpt>
      <trkpt lat="42.557980" lon="0.051851">
        <ele>939.1</ele>
        <time>2014-05-04T06:53:52Z</time>
      </trkpt>
      <trkpt lat="42.558010" lon="0.051918">
        <ele>936.3</ele>
        <time>2014-05-04T06:54:10Z</time>
      </trkpt>
      <trkpt lat="42.558020" lon="0.052076">
        <ele>934.4</ele>
        <time>2014-05-04T06:54:20Z</time>
      </trkpt>
      <trkpt lat="42.558035" lon="0.052258">
        <ele>933.9</ele>
        <time>2014-05-04T06:54:30Z</time>
      </trkpt>
      <trkpt lat="42.558107" lon="0.052346">
        <ele>930.6</ele>
        <time>2014-05-04T06:54:48Z</time>
      </trkpt>
      <trkpt lat="42.558125" lon="0.052398">
        <ele>930.3</ele>
        <time>2014-05-04T06:55:19Z</time>
      </trkpt>
      <trkpt lat="42.558208" lon="0.052338">
        <ele>930.6</ele>
        <time>2014-05-04T06:55:33Z</time>
      </trkpt>
      <trkpt lat="42.558244" lon="0.052324">
        <ele>930.2</ele>
        <time>2014-05-04T06:56:28Z</time>
      </trkpt>
      <trkpt lat="42.558342" lon="0.052254">
        <ele>930.3</ele>
        <time>2014-05-04T06:56:43Z</time>
      </trkpt>
      <trkpt lat="42.558424" lon="0.052189">
        <ele>931.1</ele>
        <time>2014-05-04T06:56:59Z</time>
      </trkpt>
      <trkpt lat="42.558474" lon="0.052105">
        <ele>932.8</ele>
        <time>2014-05-04T06:57:21Z</time>
      </trkpt>
      <trkpt lat="42.558516" lon="0.051995">
        <ele>933.5</ele>
        <time>2014-05-04T06:57:34Z</time>
      </trkpt>
      <trkpt lat="42.558570" lon="0.051891">
        <ele>934.7</ele>
        <time>2014-05-04T06:57:49Z</time>
      </trkpt>
      <trkpt lat="42.558668" lon="0.051897">
        <ele>936.4</ele>
        <time>2014-05-04T06:58:04Z</time>
      </trkpt>
      <trkpt lat="42.558716" lon="0.051924">
        <ele>939.2</ele>
        <time>2014-05-04T06:58:20Z</time>
      </trkpt>
      <trkpt lat="42.558801" lon="0.051952">
        <ele>940.8</ele>
        <time>2014-05-04T06:58:32Z</time>
      </trkpt>
      <trkpt lat="42.558766" lon="0.052072">
        <ele>942.5</ele>
        <time>2014-05-04T06:58:44Z</time>
      </trkpt>
      <trkpt lat="42.558794" lon="0.052211">
        <ele>944.5</ele>
        <time>2014-05-04T06:58:57Z</time>
      </trkpt>
      <trkpt lat="42.558835" lon="0.052332">
        <ele>946.2</ele>
        <time>2014-05-04T06:59:09Z</time>
      </trkpt>
      <trkpt lat="42.558893" lon="0.052432">
        <ele>947.8</ele>
        <time>2014-05-04T06:59:21Z</time>
      </trkpt>
      <trkpt lat="42.558948" lon="0.052471">
        <ele>949.8</ele>
        <time>2014-05-04T06:59:34Z</time>
      </trkpt>
      <trkpt lat="42.558976" lon="0.052336">
        <ele>951.6</ele>
        <time>2014-05-04T06:59:46Z</time>
      </trkpt>
      <trkpt lat="42.559057" lon="0.052281">
        <ele>952.9</ele>
        <time>2014-05-04T06:59:58Z</time>
      </trkpt>
      <trkpt lat="42.559114" lon="0.052187">
        <ele>954.7</ele>
        <time>2014-05-04T07:00:09Z</time>
      </trkpt>
      <trkpt lat="42.559172" lon="0.052097">
        <ele>957.5</ele>
        <time>2014-05-04T07:00:23Z</time>
      </trkpt>
      <trkpt lat="42.559235" lon="0.052005">
        <ele>958.5</ele>
        <time>2014-05-04T07:00:34Z</time>
      </trkpt>
      <trkpt lat="42.559279" lon="0.051893">
        <ele>959.4</ele>
        <time>2014-05-04T07:00:44Z</time>
      </trkpt>
      <trkpt lat="42.559351" lon="0.051809">
        <ele>960.0</ele>
        <time>2014-05-04T07:00:55Z</time>
      </trkpt>
      <trkpt lat="42.559454" lon="0.051804">
        <ele>961.1</ele>
        <time>2014-05-04T07:01:08Z</time>
      </trkpt>
      <trkpt lat="42.559568" lon="0.051770">
        <ele>962.7</ele>
        <time>2014-05-04T07:01:22Z</time>
      </trkpt>
      <trkpt lat="42.559668" lon="0.051710">
        <ele>964.2</ele>
        <time>2014-05-04T07:01:36Z</time>
      </trkpt>
      <trkpt lat="42.559780" lon="0.051703">
        <ele>966.5</ele>
        <time>2014-05-04T07:01:53Z</time>
      </trkpt>
      <trkpt lat="42.559732" lon="0.051789">
        <ele>968.7</ele>
        <time>2014-05-04T07:02:08Z</time>
      </trkpt>
      <trkpt lat="42.559720" lon="0.051851">
        <ele>971.2</ele>
        <time>2014-05-04T07:02:23Z</time>
      </trkpt>
      <trkpt lat="42.559632" lon="0.051912">
        <ele>973.9</ele>
        <time>2014-05-04T07:02:38Z</time>
      </trkpt>
      <trkpt lat="42.559583" lon="0.052023">
        <ele>976.5</ele>
        <time>2014-05-04T07:02:53Z</time>
      </trkpt>
      <trkpt lat="42.559544" lon="0.052154">
        <ele>979.5</ele>
        <time>2014-05-04T07:03:10Z</time>
      </trkpt>
      <trkpt lat="42.559604" lon="0.052161">
        <ele>981.5</ele>
        <time>2014-05-04T07:03:24Z</time>
      </trkpt>
      <trkpt lat="42.559695" lon="0.052129">
        <ele>983.0</ele>
        <time>2014-05-04T07:03:34Z</time>
      </trkpt>
      <trkpt lat="42.559674" lon="0.052259">
        <ele>985.3</ele>
        <time>2014-05-04T07:03:46Z</time>
      </trkpt>
      <trkpt lat="42.559664" lon="0.052409">
        <ele>988.2</ele>
        <time>2014-05-04T07:04:03Z</time>
      </trkpt>
      <trkpt lat="42.559631" lon="0.052530">
        <ele>990.3</ele>
        <time>2014-05-04T07:04:19Z</time>
      </trkpt>
      <trkpt lat="42.559613" lon="0.052566">
        <ele>992.8</ele>
        <time>2014-05-04T07:05:35Z</time>
      </trkpt>
      <trkpt lat="42.559582" lon="0.052663">
        <ele>993.0</ele>
        <time>2014-05-04T07:07:48Z</time>
      </trkpt>
      <trkpt lat="42.559614" lon="0.052787">
        <ele>994.9</ele>
        <time>2014-05-04T07:08:02Z</time>
      </trkpt>
      <trkpt lat="42.559711" lon="0.052716">
        <ele>997.0</ele>
        <time>2014-05-04T07:08:14Z</time>
      </trkpt>
      <trkpt lat="42.559708" lon="0.052849">
        <ele>999.4</ele>
        <time>2014-05-04T07:08:28Z</time>
      </trkpt>
      <trkpt lat="42.559701" lon="0.053001">
        <ele>1000.9</ele>
        <time>2014-05-04T07:08:39Z</time>
      </trkpt>
      <trkpt lat="42.559695" lon="0.053161">
        <ele>1002.0</ele>
        <time>2014-05-04T07:08:49Z</time>
      </trkpt>
      <trkpt lat="42.559696" lon="0.053284">
        <ele>1003.3</ele>
        <time>2014-05-04T07:08:59Z</time>
      </trkpt>
      <trkpt lat="42.559734" lon="0.053400">
        <ele>1005.8</ele>
        <time>2014-05-04T07:09:12Z</time>
      </trkpt>
      <trkpt lat="42.559783" lon="0.053522">
        <ele>1008.3</ele>
        <time>2014-05-04T07:09:24Z</time>
      </trkpt>
      <trkpt lat="42.559823" lon="0.053640">
        <ele>1010.1</ele>
        <time>2014-05-04T07:09:34Z</time>
      </trkpt>
      <trkpt lat="42.559865" lon="0.053746">
        <ele>1012.5</ele>
        <time>2014-05-04T07:09:46Z</time>
      </trkpt>
      <trkpt lat="42.559879" lon="0.053882">
        <ele>1013.8</ele>
        <time>2014-05-04T07:09:56Z</time>
      </trkpt>
      <trkpt lat="42.559915" lon="0.054012">
        <ele>1015.0</ele>
        <time>2014-05-04T07:10:06Z</time>
      </trkpt>
      <trkpt lat="42.559965" lon="0.054136">
        <ele>1016.2</ele>
        <time>2014-05-04T07:10:17Z</time>
      </trkpt>
      <trkpt lat="42.560020" lon="0.054253">
        <ele>1017.3</ele>
        <time>2014-05-04T07:10:27Z</time>
      </trkpt>
      <trkpt lat="42.560103" lon="0.054380">
        <ele>1018.8</ele>
        <time>2014-05-04T07:10:41Z</time>
      </trkpt>
      <trkpt lat="42.560209" lon="0.054475">
        <ele>1020.2</ele>
        <time>2014-05-04T07:10:54Z</time>
      </trkpt>
      <trkpt lat="42.560299" lon="0.054557">
        <ele>1021.4</ele>
        <time>2014-05-04T07:11:08Z</time>
      </trkpt>
      <trkpt lat="42.560368" lon="0.054666">
        <ele>1023.3</ele>
        <time>2014-05-04T07:11:20Z</time>
      </trkpt>
      <trkpt lat="42.560458" lon="0.054705">
        <ele>1027.2</ele>
        <time>2014-05-04T07:11:39Z</time>
      </trkpt>
      <trkpt lat="42.560492" lon="0.054836">
        <ele>1028.9</ele>
        <time>2014-05-04T07:11:55Z</time>
      </trkpt>
      <trkpt lat="42.560508" lon="0.054971">
        <ele>1031.0</ele>
        <time>2014-05-04T07:12:09Z</time>
      </trkpt>
      <trkpt lat="42.560493" lon="0.055195">
        <ele>1033.2</ele>
        <time>2014-05-04T07:12:24Z</time>
      </trkpt>
      <trkpt lat="42.560464" lon="0.055354">
        <ele>1035.1</ele>
        <time>2014-05-04T07:12:35Z</time>
      </trkpt>
      <trkpt lat="42.560389" lon="0.055462">
        <ele>1036.2</ele>
        <time>2014-05-04T07:12:45Z</time>
      </trkpt>
      <trkpt lat="42.560352" lon="0.055605">
        <ele>1037.3</ele>
        <time>2014-05-04T07:12:55Z</time>
      </trkpt>
      <trkpt lat="42.560291" lon="0.055710">
        <ele>1039.7</ele>
        <time>2014-05-04T07:13:09Z</time>
      </trkpt>
      <trkpt lat="42.560257" lon="0.055859">
        <ele>1041.6</ele>
        <time>2014-05-04T07:13:22Z</time>
      </trkpt>
      <trkpt lat="42.560270" lon="0.056022">
        <ele>1044.1</ele>
        <time>2014-05-04T07:13:37Z</time>
      </trkpt>
      <trkpt lat="42.560338" lon="0.056126">
        <ele>1047.1</ele>
        <time>2014-05-04T07:13:51Z</time>
      </trkpt>
      <trkpt lat="42.560397" lon="0.056242">
        <ele>1050.4</ele>
        <time>2014-05-04T07:14:06Z</time>
      </trkpt>
      <trkpt lat="42.560488" lon="0.056322">
        <ele>1053.8</ele>
        <time>2014-05-04T07:14:21Z</time>
      </trkpt>
      <trkpt lat="42.560587" lon="0.056314">
        <ele>1056.8</ele>
        <time>2014-05-04T07:14:34Z</time>
      </trkpt>
      <trkpt lat="42.560668" lon="0.056392">
        <ele>1060.3</ele>
        <time>2014-05-04T07:14:51Z</time>
      </trkpt>
      <trkpt lat="42.560742" lon="0.056498">
        <ele>1063.6</ele>
        <time>2014-05-04T07:15:08Z</time>
      </trkpt>
      <trkpt lat="42.560829" lon="0.056510">
        <ele>1066.9</ele>
        <time>2014-05-04T07:15:24Z</time>
      </trkpt>
      <trkpt lat="42.560921" lon="0.056496">
        <ele>1070.6</ele>
        <time>2014-05-04T07:15:42Z</time>
      </trkpt>
      <trkpt lat="42.560963" lon="0.056632">
        <ele>1074.2</ele>
        <time>2014-05-04T07:15:58Z</time>
      </trkpt>
      <trkpt lat="42.561036" lon="0.056756">
        <ele>1077.6</ele>
        <time>2014-05-04T07:16:17Z</time>
      </trkpt>
      <trkpt lat="42.561096" lon="0.056864">
        <ele>1080.3</ele>
        <time>2014-05-04T07:16:31Z</time>
      </trkpt>
      <trkpt lat="42.561149" lon="0.056865">
        <ele>1084.1</ele>
        <time>2014-05-04T07:16:48Z</time>
      </trkpt>
      <trkpt lat="42.561217" lon="0.056805">
        <ele>1087.2</ele>
        <time>2014-05-04T07:17:03Z</time>
      </trkpt>
      <trkpt lat="42.561323" lon="0.056818">
        <ele>1091.3</ele>
        <time>2014-05-04T07:17:21Z</time>
      </trkpt>
      <trkpt lat="42.561392" lon="0.056883">
        <ele>1094.6</ele>
        <time>2014-05-04T07:17:36Z</time>
      </trkpt>
      <trkpt lat="42.561440" lon="0.056980">
        <ele>1099.2</ele>
        <time>2014-05-04T07:17:54Z</time>
      </trkpt>
      <trkpt lat="42.561485" lon="0.057069">
        <ele>1103.1</ele>
        <time>2014-05-04T07:18:11Z</time>
      </trkpt>
      <trkpt lat="42.561484" lon="0.057219">
        <ele>1105.8</ele>
        <time>2014-05-04T07:18:24Z</time>
      </trkpt>
      <trkpt lat="42.561472" lon="0.057379">
        <ele>1109.5</ele>
        <time>2014-05-04T07:18:36Z</time>
      </trkpt>
      <trkpt lat="42.561437" lon="0.057520">
        <ele>1111.9</ele>
        <time>2014-05-04T07:18:47Z</time>
      </trkpt>
      <trkpt lat="42.561400" lon="0.057648">
        <ele>1113.7</ele>
        <time>2014-05-04T07:19:00Z</time>
      </trkpt>
      <trkpt lat="42.561395" lon="0.057833">
        <ele>1115.0</ele>
        <time>2014-05-04T07:19:19Z</time>
      </trkpt>
      <trkpt lat="42.561386" lon="0.057990">
        <ele>1118.2</ele>
        <time>2014-05-04T07:19:36Z</time>
      </trkpt>
      <trkpt lat="42.561376" lon="0.058188">
        <ele>1120.6</ele>
        <time>2014-05-04T07:19:56Z</time>
      </trkpt>
      <trkpt lat="42.561380" lon="0.058304">
        <ele>1122.4</ele>
        <time>2014-05-04T07:20:08Z</time>
      </trkpt>
      <trkpt lat="42.561348" lon="0.058490">
        <ele>1124.5</ele>
        <time>2014-05-04T07:20:25Z</time>
      </trkpt>
      <trkpt lat="42.561303" lon="0.058676">
        <ele>1126.1</ele>
        <time>2014-05-04T07:20:44Z</time>
      </trkpt>
      <trkpt lat="42.561285" lon="0.058820">
        <ele>1129.7</ele>
        <time>2014-05-04T07:21:03Z</time>
      </trkpt>
      <trkpt lat="42.561294" lon="0.058904">
        <ele>1132.7</ele>
        <time>2014-05-04T07:22:44Z</time>
      </trkpt>
      <trkpt lat="42.561380" lon="0.059017">
        <ele>1136.2</ele>
        <time>2014-05-04T07:23:03Z</time>
      </trkpt>
      <trkpt lat="42.561442" lon="0.059175">
        <ele>1140.2</ele>
        <time>2014-05-04T07:23:23Z</time>
      </trkpt>
      <trkpt lat="42.561454" lon="0.059344">
        <ele>1142.9</ele>
        <time>2014-05-04T07:23:39Z</time>
      </trkpt>
      <trkpt lat="42.561532" lon="0.059467">
        <ele>1146.9</ele>
        <time>2014-05-04T07:23:59Z</time>
      </trkpt>
      <trkpt lat="42.561562" lon="0.059605">
        <ele>1151.1</ele>
        <time>2014-05-04T07:24:18Z</time>
      </trkpt>
      <trkpt lat="42.561636" lon="0.059568">
        <ele>1155.7</ele>
        <time>2014-05-04T07:24:42Z</time>
      </trkpt>
      <trkpt lat="42.561597" lon="0.059741">
        <ele>1158.6</ele>
        <time>2014-05-04T07:25:02Z</time>
      </trkpt>
      <trkpt lat="42.561594" lon="0.059848">
        <ele>1163.0</ele>
        <time>2014-05-04T07:25:29Z</time>
      </trkpt>
      <trkpt lat="42.561541" lon="0.059933">
        <ele>1165.8</ele>
        <time>2014-05-04T07:25:53Z</time>
      </trkpt>
      <trkpt lat="42.561602" lon="0.060026">
        <ele>1171.0</ele>
        <time>2014-05-04T07:26:21Z</time>
      </trkpt>
      <trkpt lat="42.561602" lon="0.060049">
        <ele>1174.3</ele>
        <time>2014-05-04T07:26:38Z</time>
      </trkpt>
      <trkpt lat="42.561613" lon="0.060134">
        <ele>1181.3</ele>
        <time>2014-05-04T07:27:21Z</time>
      </trkpt>
      <trkpt lat="42.561620" lon="0.060213">
        <ele>1183.7</ele>
        <time>2014-05-04T07:27:38Z</time>
      </trkpt>
      <trkpt lat="42.561578" lon="0.060308">
        <ele>1186.6</ele>
        <time>2014-05-04T07:27:58Z</time>
      </trkpt>
      <trkpt lat="42.561607" lon="0.060399">
        <ele>1189.7</ele>
        <time>2014-05-04T07:28:17Z</time>
      </trkpt>
      <trkpt lat="42.561589" lon="0.060497">
        <ele>1192.7</ele>
        <time>2014-05-04T07:28:33Z</time>
      </trkpt>
      <trkpt lat="42.561516" lon="0.060571">
        <ele>1196.6</ele>
        <time>2014-05-04T07:28:53Z</time>
      </trkpt>
      <trkpt lat="42.561543" lon="0.060708">
        <ele>1201.1</ele>
        <time>2014-05-04T07:29:16Z</time>
      </trkpt>
      <trkpt lat="42.561603" lon="0.060806">
        <ele>1205.7</ele>
        <time>2014-05-04T07:29:41Z</time>
      </trkpt>
      <trkpt lat="42.561634" lon="0.060897">
        <ele>1209.6</ele>
        <time>2014-05-04T07:30:04Z</time>
      </trkpt>
      <trkpt lat="42.561588" lon="0.060984">
        <ele>1212.1</ele>
        <time>2014-05-04T07:30:19Z</time>
      </trkpt>
      <trkpt lat="42.561621" lon="0.061076">
        <ele>1215.9</ele>
        <time>2014-05-04T07:30:38Z</time>
      </trkpt>
      <trkpt lat="42.561681" lon="0.061182">
        <ele>1220.0</ele>
        <time>2014-05-04T07:31:00Z</time>
      </trkpt>
      <trkpt lat="42.561763" lon="0.061252">
        <ele>1222.3</ele>
        <time>2014-05-04T07:31:15Z</time>
      </trkpt>
      <trkpt lat="42.561715" lon="0.061329">
        <ele>1227.4</ele>
        <time>2014-05-04T07:34:00Z</time>
      </trkpt>
      <trkpt lat="42.561703" lon="0.061399">
        <ele>1228.5</ele>
        <time>2014-05-04T07:34:21Z</time>
      </trkpt>
      <trkpt lat="42.561700" lon="0.061523">
        <ele>1231.5</ele>
        <time>2014-05-04T07:34:39Z</time>
      </trkpt>
      <trkpt lat="42.561746" lon="0.061603">
        <ele>1234.8</ele>
        <time>2014-05-04T07:34:57Z</time>
      </trkpt>
      <trkpt lat="42.561771" lon="0.061692">
        <ele>1237.6</ele>
        <time>2014-05-04T07:35:14Z</time>
      </trkpt>
      <trkpt lat="42.561748" lon="0.061794">
        <ele>1241.2</ele>
        <time>2014-05-04T07:35:32Z</time>
      </trkpt>
      <trkpt lat="42.561722" lon="0.061877">
        <ele>1244.9</ele>
        <time>2014-05-04T07:35:51Z</time>
      </trkpt>
      <trkpt lat="42.561692" lon="0.061994">
        <ele>1248.8</ele>
        <time>2014-05-04T07:36:10Z</time>
      </trkpt>
      <trkpt lat="42.561677" lon="0.062097">
        <ele>1253.3</ele>
        <time>2014-05-04T07:36:36Z</time>
      </trkpt>
      <trkpt lat="42.561608" lon="0.062163">
        <ele>1255.7</ele>
        <time>2014-05-04T07:36:56Z</time>
      </trkpt>
      <trkpt lat="42.561589" lon="0.062245">
        <ele>1259.3</ele>
        <time>2014-05-04T07:37:20Z</time>
      </trkpt>
      <trkpt lat="42.561510" lon="0.062197">
        <ele>1262.2</ele>
        <time>2014-05-04T07:37:39Z</time>
      </trkpt>
      <trkpt lat="42.561420" lon="0.062135">
        <ele>1265.3</ele>
        <time>2014-05-04T07:37:58Z</time>
      </trkpt>
      <trkpt lat="42.561324" lon="0.062061">
        <ele>1269.5</ele>
        <time>2014-05-04T07:38:20Z</time>
      </trkpt>
      <trkpt lat="42.561248" lon="0.061984">
        <ele>1273.2</ele>
        <time>2014-05-04T07:38:44Z</time>
      </trkpt>
      <trkpt lat="42.561107" lon="0.061857">
        <ele>1276.1</ele>
        <time>2014-05-04T07:39:01Z</time>
      </trkpt>
      <trkpt lat="42.561025" lon="0.061807">
        <ele>1279.1</ele>
        <time>2014-05-04T07:39:21Z</time>
      </trkpt>
      <trkpt lat="42.560981" lon="0.061730">
        <ele>1285.7</ele>
        <time>2014-05-04T07:39:58Z</time>
      </trkpt>
      <trkpt lat="42.560916" lon="0.061819">
        <ele>1289.0</ele>
        <time>2014-05-04T07:40:13Z</time>
      </trkpt>
      <trkpt lat="42.560896" lon="0.061937">
        <ele>1292.3</ele>
        <time>2014-05-04T07:40:33Z</time>
      </trkpt>
      <trkpt lat="42.560934" lon="0.062062">
        <ele>1296.1</ele>
        <time>2014-05-04T07:40:53Z</time>
      </trkpt>
      <trkpt lat="42.560933" lon="0.062074">
        <ele>1300.4</ele>
        <time>2014-05-04T07:41:19Z</time>
      </trkpt>
      <trkpt lat="42.560879" lon="0.062132">
        <ele>1303.5</ele>
        <time>2014-05-04T07:41:36Z</time>
      </trkpt>
      <trkpt lat="42.560817" lon="0.062182">
        <ele>1313.2</ele>
        <time>2014-05-04T07:42:33Z</time>
      </trkpt>
      <trkpt lat="42.560790" lon="0.062283">
        <ele>1316.9</ele>
        <time>2014-05-04T07:42:53Z</time>
      </trkpt>
      <trkpt lat="42.560777" lon="0.062428">
        <ele>1320.3</ele>
        <time>2014-05-04T07:43:13Z</time>
      </trkpt>
      <trkpt lat="42.560742" lon="0.062561">
        <ele>1324.4</ele>
        <time>2014-05-04T07:43:37Z</time>
      </trkpt>
      <trkpt lat="42.560800" lon="0.062681">
        <ele>1327.1</ele>
        <time>2014-05-04T07:43:53Z</time>
      </trkpt>
      <trkpt lat="42.560789" lon="0.062889">
        <ele>1329.5</ele>
        <time>2014-05-04T07:44:12Z</time>
      </trkpt>
      <trkpt lat="42.560824" lon="0.063025">
        <ele>1332.8</ele>
        <time>2014-05-04T07:44:32Z</time>
      </trkpt>
      <trkpt lat="42.560793" lon="0.063222">
        <ele>1335.0</ele>
        <time>2014-05-04T07:44:48Z</time>
      </trkpt>
      <trkpt lat="42.560811" lon="0.063381">
        <ele>1337.1</ele>
        <time>2014-05-04T07:45:05Z</time>
      </trkpt>
      <trkpt lat="42.560804" lon="0.063566">
        <ele>1339.4</ele>
        <time>2014-05-04T07:45:25Z</time>
      </trkpt>
      <trkpt lat="42.560771" lon="0.063716">
        <ele>1343.7</ele>
        <time>2014-05-04T07:45:45Z</time>
      </trkpt>
      <trkpt lat="42.560769" lon="0.063888">
        <ele>1346.8</ele>
        <time>2014-05-04T07:46:04Z</time>
      </trkpt>
      <trkpt lat="42.560719" lon="0.064042">
        <ele>1349.5</ele>
        <time>2014-05-04T07:46:20Z</time>
      </trkpt>
      <trkpt lat="42.560658" lon="0.064173">
        <ele>1351.5</ele>
        <time>2014-05-04T07:46:38Z</time>
      </trkpt>
      <trkpt lat="42.560543" lon="0.064353">
        <ele>1353.3</ele>
        <time>2014-05-04T07:46:56Z</time>
      </trkpt>
      <trkpt lat="42.560575" lon="0.064470">
        <ele>1354.5</ele>
        <time>2014-05-04T07:47:12Z</time>
      </trkpt>
      <trkpt lat="42.560549" lon="0.064631">
        <ele>1354.6</ele>
        <time>2014-05-04T07:47:29Z</time>
      </trkpt>
      <trkpt lat="42.560583" lon="0.064766">
        <ele>1354.8</ele>
        <time>2014-05-04T07:47:46Z</time>
      </trkpt>
      <trkpt lat="42.560612" lon="0.064930">
        <ele>1356.3</ele>
        <time>2014-05-04T07:48:02Z</time>
      </trkpt>
      <trkpt lat="42.560611" lon="0.065075">
        <ele>1359.4</ele>
        <time>2014-05-04T07:48:20Z</time>
      </trkpt>
      <trkpt lat="42.560676" lon="0.065094">
        <ele>1362.8</ele>
        <time>2014-05-04T07:48:39Z</time>
      </trkpt>
      <trkpt lat="42.560662" lon="0.065231">
        <ele>1365.8</ele>
        <time>2014-05-04T07:48:56Z</time>
      </trkpt>
      <trkpt lat="42.560666" lon="0.065391">
        <ele>1366.1</ele>
        <time>2014-05-04T07:49:16Z</time>
      </trkpt>
      <trkpt lat="42.560617" lon="0.065599">
        <ele>1367.2</ele>
        <time>2014-05-04T07:49:35Z</time>
      </trkpt>
      <trkpt lat="42.560554" lon="0.065738">
        <ele>1369.3</ele>
        <time>2014-05-04T07:49:53Z</time>
      </trkpt>
      <trkpt lat="42.560432" lon="0.065909">
        <ele>1370.5</ele>
        <time>2014-05-04T07:50:14Z</time>
      </trkpt>
      <trkpt lat="42.560342" lon="0.066058">
        <ele>1373.3</ele>
        <time>2014-05-04T07:50:37Z</time>
      </trkpt>
      <trkpt lat="42.560316" lon="0.066176">
        <ele>1376.8</ele>
        <time>2014-05-04T07:50:56Z</time>
      </trkpt>
      <trkpt lat="42.560296" lon="0.066324">
        <ele>1380.5</ele>
        <time>2014-05-04T07:51:14Z</time>
      </trkpt>
      <trkpt lat="42.560269" lon="0.066449">
        <ele>1384.3</ele>
        <time>2014-05-04T07:51:34Z</time>
      </trkpt>
      <trkpt lat="42.560283" lon="0.066563">
        <ele>1388.3</ele>
        <time>2014-05-04T07:51:56Z</time>
      </trkpt>
      <trkpt lat="42.560279" lon="0.066691">
        <ele>1391.7</ele>
        <time>2014-05-04T07:52:16Z</time>
      </trkpt>
      <trkpt lat="42.560333" lon="0.066787">
        <ele>1396.0</ele>
        <time>2014-05-04T07:52:38Z</time>
      </trkpt>
      <trkpt lat="42.560342" lon="0.066908">
        <ele>1399.8</ele>
        <time>2014-05-04T07:52:57Z</time>
      </trkpt>
      <trkpt lat="42.560428" lon="0.066955">
        <ele>1402.9</ele>
        <time>2014-05-04T07:53:15Z</time>
      </trkpt>
      <trkpt lat="42.560522" lon="0.067003">
        <ele>1405.2</ele>
        <time>2014-05-04T07:53:28Z</time>
      </trkpt>
      <trkpt lat="42.560552" lon="0.067132">
        <ele>1407.1</ele>
        <time>2014-05-04T07:53:46Z</time>
      </trkpt>
      <trkpt lat="42.560510" lon="0.067288">
        <ele>1409.8</ele>
        <time>2014-05-04T07:54:01Z</time>
      </trkpt>
      <trkpt lat="42.560462" lon="0.067407">
        <ele>1413.7</ele>
        <time>2014-05-04T07:55:22Z</time>
      </trkpt>
      <trkpt lat="42.560410" lon="0.067390">
        <ele>1418.0</ele>
        <time>2014-05-04T07:56:45Z</time>
      </trkpt>
      <trkpt lat="42.560335" lon="0.067588">
        <ele>1421.4</ele>
        <time>2014-05-04T07:57:03Z</time>
      </trkpt>
      <trkpt lat="42.560281" lon="0.067724">
        <ele>1424.1</ele>
        <time>2014-05-04T07:57:22Z</time>
      </trkpt>
      <trkpt lat="42.560286" lon="0.067903">
        <ele>1427.6</ele>
        <time>2014-05-04T07:57:42Z</time>
      </trkpt>
      <trkpt lat="42.560307" lon="0.068060">
        <ele>1431.1</ele>
        <time>2014-05-04T07:58:00Z</time>
      </trkpt>
      <trkpt lat="42.560339" lon="0.068225">
        <ele>1430.8</ele>
        <time>2014-05-04T07:58:16Z</time>
      </trkpt>
      <trkpt lat="42.560344" lon="0.068415">
        <ele>1431.3</ele>
        <time>2014-05-04T07:58:29Z</time>
      </trkpt>
      <trkpt lat="42.560321" lon="0.068618">
        <ele>1433.7</ele>
        <time>2014-05-04T07:58:45Z</time>
      </trkpt>
      <trkpt lat="42.560279" lon="0.068781">
        <ele>1436.4</ele>
        <time>2014-05-04T07:59:04Z</time>
      </trkpt>
      <trkpt lat="42.560136" lon="0.068860">
        <ele>1435.5</ele>
        <time>2014-05-04T07:59:21Z</time>
      </trkpt>
      <trkpt lat="42.560025" lon="0.068949">
        <ele>1435.2</ele>
        <time>2014-05-04T07:59:33Z</time>
      </trkpt>
      <trkpt lat="42.559877" lon="0.069021">
        <ele>1436.6</ele>
        <time>2014-05-04T07:59:45Z</time>
      </trkpt>
      <trkpt lat="42.559772" lon="0.069079">
        <ele>1437.5</ele>
        <time>2014-05-04T07:59:57Z</time>
      </trkpt>
      <trkpt lat="42.559665" lon="0.069154">
        <ele>1440.2</ele>
        <time>2014-05-04T08:00:12Z</time>
      </trkpt>
      <trkpt lat="42.559532" lon="0.069160">
        <ele>1442.1</ele>
        <time>2014-05-04T08:00:25Z</time>
      </trkpt>
      <trkpt lat="42.559460" lon="0.069228">
        <ele>1444.4</ele>
        <time>2014-05-04T08:00:40Z</time>
      </trkpt>
      <trkpt lat="42.559456" lon="0.069363">
        <ele>1447.0</ele>
        <time>2014-05-04T08:00:55Z</time>
      </trkpt>
      <trkpt lat="42.559470" lon="0.069495">
        <ele>1450.7</ele>
        <time>2014-05-04T08:01:12Z</time>
      </trkpt>
      <trkpt lat="42.559518" lon="0.069642">
        <ele>1454.9</ele>
        <time>2014-05-04T08:01:30Z</time>
      </trkpt>
      <trkpt lat="42.559595" lon="0.069761">
        <ele>1458.5</ele>
        <time>2014-05-04T08:01:48Z</time>
      </trkpt>
      <trkpt lat="42.559631" lon="0.069879">
        <ele>1462.3</ele>
        <time>2014-05-04T08:02:09Z</time>
      </trkpt>
      <trkpt lat="42.559624" lon="0.070037">
        <ele>1465.2</ele>
        <time>2014-05-04T08:02:26Z</time>
      </trkpt>
      <trkpt lat="42.559602" lon="0.070187">
        <ele>1467.3</ele>
        <time>2014-05-04T08:02:42Z</time>
      </trkpt>
      <trkpt lat="42.559577" lon="0.070366">
        <ele>1470.0</ele>
        <time>2014-05-04T08:03:02Z</time>
      </trkpt>
      <trkpt lat="42.559561" lon="0.070524">
        <ele>1472.8</ele>
        <time>2014-05-04T08:03:19Z</time>
      </trkpt>
      <trkpt lat="42.559551" lon="0.070683">
        <ele>1475.1</ele>
        <time>2014-05-04T08:03:33Z</time>
      </trkpt>
      <trkpt lat="42.559603" lon="0.070774">
        <ele>1477.3</ele>
        <time>2014-05-04T08:03:51Z</time>
      </trkpt>
      <trkpt lat="42.559678" lon="0.070862">
        <ele>1479.4</ele>
        <time>2014-05-04T08:04:06Z</time>
      </trkpt>
      <trkpt lat="42.559766" lon="0.070932">
        <ele>1481.9</ele>
        <time>2014-05-04T08:04:26Z</time>
      </trkpt>
      <trkpt lat="42.559872" lon="0.071039">
        <ele>1484.7</ele>
        <time>2014-05-04T08:04:43Z</time>
      </trkpt>
      <trkpt lat="42.559984" lon="0.071099">
        <ele>1486.8</ele>
        <time>2014-05-04T08:05:01Z</time>
      </trkpt>
      <trkpt lat="42.560047" lon="0.071199">
        <ele>1490.5</ele>
        <time>2014-05-04T08:05:16Z</time>
      </trkpt>
      <trkpt lat="42.560123" lon="0.071360">
        <ele>1492.8</ele>
        <time>2014-05-04T08:05:34Z</time>
      </trkpt>
      <trkpt lat="42.560222" lon="0.071471">
        <ele>1492.5</ele>
        <time>2014-05-04T08:05:50Z</time>
      </trkpt>
      <trkpt lat="42.560257" lon="0.071584">
        <ele>1494.8</ele>
        <time>2014-05-04T08:06:07Z</time>
      </trkpt>
      <trkpt lat="42.560286" lon="0.071744">
        <ele>1497.0</ele>
        <time>2014-05-04T08:06:25Z</time>
      </trkpt>
      <trkpt lat="42.560316" lon="0.071880">
        <ele>1499.3</ele>
        <time>2014-05-04T08:06:40Z</time>
      </trkpt>
      <trkpt lat="42.560336" lon="0.072030">
        <ele>1501.0</ele>
        <time>2014-05-04T08:06:55Z</time>
      </trkpt>
      <trkpt lat="42.560211" lon="0.072223">
        <ele>1502.0</ele>
        <time>2014-05-04T08:07:13Z</time>
      </trkpt>
      <trkpt lat="42.560096" lon="0.072281">
        <ele>1501.4</ele>
        <time>2014-05-04T08:07:27Z</time>
      </trkpt>
      <trkpt lat="42.559992" lon="0.072302">
        <ele>1501.0</ele>
        <time>2014-05-04T08:07:40Z</time>
      </trkpt>
      <trkpt lat="42.559884" lon="0.072287">
        <ele>1501.2</ele>
        <time>2014-05-04T08:08:00Z</time>
      </trkpt>
      <trkpt lat="42.559775" lon="0.072269">
        <ele>1500.8</ele>
        <time>2014-05-04T08:08:12Z</time>
      </trkpt>
      <trkpt lat="42.559693" lon="0.072387">
        <ele>1502.1</ele>
        <time>2014-05-04T08:08:29Z</time>
      </trkpt>
      <trkpt lat="42.559649" lon="0.072548">
        <ele>1502.7</ele>
        <time>2014-05-04T08:08:46Z</time>
      </trkpt>
      <trkpt lat="42.559625" lon="0.072710">
        <ele>1501.8</ele>
        <time>2014-05-04T08:09:00Z</time>
      </trkpt>
      <trkpt lat="42.559558" lon="0.072873">
        <ele>1501.8</ele>
        <time>2014-05-04T08:09:16Z</time>
      </trkpt>
      <trkpt lat="42.559463" lon="0.072990">
        <ele>1505.2</ele>
        <time>2014-05-04T08:09:34Z</time>
      </trkpt>
      <trkpt lat="42.559340" lon="0.073019">
        <ele>1505.9</ele>
        <time>2014-05-04T08:09:47Z</time>
      </trkpt>
      <trkpt lat="42.559246" lon="0.073069">
        <ele>1506.5</ele>
        <time>2014-05-04T08:10:00Z</time>
      </trkpt>
      <trkpt lat="42.559229" lon="0.073240">
        <ele>1508.1</ele>
        <time>2014-05-04T08:10:17Z</time>
      </trkpt>
      <trkpt lat="42.559256" lon="0.073413">
        <ele>1510.8</ele>
        <time>2014-05-04T08:10:34Z</time>
      </trkpt>
      <trkpt lat="42.559236" lon="0.073573">
        <ele>1514.3</ele>
        <time>2014-05-04T08:10:53Z</time>
      </trkpt>
      <trkpt lat="42.559136" lon="0.073711">
        <ele>1514.9</ele>
        <time>2014-05-04T08:11:03Z</time>
      </trkpt>
      <trkpt lat="42.559030" lon="0.073769">
        <ele>1515.7</ele>
        <time>2014-05-04T08:11:14Z</time>
      </trkpt>
      <trkpt lat="42.558924" lon="0.073808">
        <ele>1515.6</ele>
        <time>2014-05-04T08:11:24Z</time>
      </trkpt>
      <trkpt lat="42.558817" lon="0.073754">
        <ele>1516.2</ele>
        <time>2014-05-04T08:11:37Z</time>
      </trkpt>
      <trkpt lat="42.558716" lon="0.073664">
        <ele>1516.6</ele>
        <time>2014-05-04T08:11:46Z</time>
      </trkpt>
      <trkpt lat="42.558618" lon="0.073621">
        <ele>1517.1</ele>
        <time>2014-05-04T08:11:55Z</time>
      </trkpt>
      <trkpt lat="42.558528" lon="0.073561">
        <ele>1517.7</ele>
        <time>2014-05-04T08:12:04Z</time>
      </trkpt>
      <trkpt lat="42.558411" lon="0.073545">
        <ele>1518.7</ele>
        <time>2014-05-04T08:12:13Z</time>
      </trkpt>
      <trkpt lat="42.558351" lon="0.073630">
        <ele>1519.3</ele>
        <time>2014-05-04T08:12:22Z</time>
      </trkpt>
      <trkpt lat="42.558351" lon="0.073779">
        <ele>1519.5</ele>
        <time>2014-05-04T08:12:32Z</time>
      </trkpt>
      <trkpt lat="42.558376" lon="0.073898">
        <ele>1520.0</ele>
        <time>2014-05-04T08:12:41Z</time>
      </trkpt>
      <trkpt lat="42.558392" lon="0.074035">
        <ele>1520.6</ele>
        <time>2014-05-04T08:12:53Z</time>
      </trkpt>
      <trkpt lat="42.558412" lon="0.074170">
        <ele>1521.1</ele>
        <time>2014-05-04T08:13:03Z</time>
      </trkpt>
      <trkpt lat="42.558436" lon="0.074295">
        <ele>1522.0</ele>
        <time>2014-05-04T08:13:15Z</time>
      </trkpt>
      <trkpt lat="42.558454" lon="0.074443">
        <ele>1521.6</ele>
        <time>2014-05-04T08:13:29Z</time>
      </trkpt>
      <trkpt lat="42.558445" lon="0.074510">
        <ele>1521.9</ele>
        <time>2014-05-04T08:14:14Z</time>
      </trkpt>
      <trkpt lat="42.558429" lon="0.074504">
        <ele>1522.1</ele>
        <time>2014-05-04T08:16:21Z</time>
      </trkpt>
      <trkpt lat="42.558492" lon="0.074620">
        <ele>1521.0</ele>
        <time>2014-05-04T08:16:32Z</time>
      </trkpt>
      <trkpt lat="42.558532" lon="0.074750">
        <ele>1520.6</ele>
        <time>2014-05-04T08:16:44Z</time>
      </trkpt>
      <trkpt lat="42.558585" lon="0.074876">
        <ele>1520.0</ele>
        <time>2014-05-04T08:16:57Z</time>
      </trkpt>
      <trkpt lat="42.558595" lon="0.075028">
        <ele>1521.5</ele>
        <time>2014-05-04T08:17:09Z</time>
      </trkpt>
      <trkpt lat="42.558580" lon="0.075194">
        <ele>1521.0</ele>
        <time>2014-05-04T08:17:23Z</time>
      </trkpt>
      <trkpt lat="42.558591" lon="0.075358">
        <ele>1522.2</ele>
        <time>2014-05-04T08:17:36Z</time>
      </trkpt>
      <trkpt lat="42.558573" lon="0.075523">
        <ele>1522.3</ele>
        <time>2014-05-04T08:17:50Z</time>
      </trkpt>
      <trkpt lat="42.558449" lon="0.075684">
        <ele>1522.0</ele>
        <time>2014-05-04T08:18:03Z</time>
      </trkpt>
      <trkpt lat="42.558343" lon="0.075684">
        <ele>1521.5</ele>
        <time>2014-05-04T08:18:13Z</time>
      </trkpt>
      <trkpt lat="42.558243" lon="0.075755">
        <ele>1522.8</ele>
        <time>2014-05-04T08:18:23Z</time>
      </trkpt>
      <trkpt lat="42.558160" lon="0.075850">
        <ele>1522.5</ele>
        <time>2014-05-04T08:18:32Z</time>
      </trkpt>
      <trkpt lat="42.558107" lon="0.075964">
        <ele>1522.5</ele>
        <time>2014-05-04T08:18:42Z</time>
      </trkpt>
      <trkpt lat="42.558113" lon="0.076088">
        <ele>1522.2</ele>
        <time>2014-05-04T08:18:51Z</time>
      </trkpt>
      <trkpt lat="42.558141" lon="0.076228">
        <ele>1520.4</ele>
        <time>2014-05-04T08:19:00Z</time>
      </trkpt>
      <trkpt lat="42.558187" lon="0.076357">
        <ele>1519.5</ele>
        <time>2014-05-04T08:19:11Z</time>
      </trkpt>
      <trkpt lat="42.558216" lon="0.076512">
        <ele>1518.8</ele>
        <time>2014-05-04T08:19:24Z</time>
      </trkpt>
      <trkpt lat="42.558229" lon="0.076660">
        <ele>1519.4</ele>
        <time>2014-05-04T08:19:37Z</time>
      </trkpt>
      <trkpt lat="42.558165" lon="0.076808">
        <ele>1520.9</ele>
        <time>2014-05-04T08:19:48Z</time>
      </trkpt>
      <trkpt lat="42.558096" lon="0.076899">
        <ele>1522.2</ele>
        <time>2014-05-04T08:20:00Z</time>
      </trkpt>
      <trkpt lat="42.558026" lon="0.077051">
        <ele>1523.1</ele>
        <time>2014-05-04T08:20:14Z</time>
      </trkpt>
      <trkpt lat="42.557987" lon="0.077170">
        <ele>1522.5</ele>
        <time>2014-05-04T08:20:24Z</time>
      </trkpt>
      <trkpt lat="42.557903" lon="0.077295">
        <ele>1521.7</ele>
        <time>2014-05-04T08:20:35Z</time>
      </trkpt>
      <trkpt lat="42.557791" lon="0.077372">
        <ele>1522.6</ele>
        <time>2014-05-04T08:20:48Z</time>
      </trkpt>
      <trkpt lat="42.557696" lon="0.077428">
        <ele>1522.5</ele>
        <time>2014-05-04T08:20:59Z</time>
      </trkpt>
      <trkpt lat="42.557608" lon="0.077519">
        <ele>1522.1</ele>
        <time>2014-05-04T08:21:11Z</time>
      </trkpt>
      <trkpt lat="42.557523" lon="0.077623">
        <ele>1521.9</ele>
        <time>2014-05-04T08:21:22Z</time>
      </trkpt>
      <trkpt lat="42.557473" lon="0.077773">
        <ele>1521.1</ele>
        <time>2014-05-04T08:21:33Z</time>
      </trkpt>
      <trkpt lat="42.557432" lon="0.077909">
        <ele>1520.2</ele>
        <time>2014-05-04T08:21:44Z</time>
      </trkpt>
      <trkpt lat="42.557369" lon="0.078072">
        <ele>1520.6</ele>
        <time>2014-05-04T08:21:56Z</time>
      </trkpt>
      <trkpt lat="42.557276" lon="0.078168">
        <ele>1518.8</ele>
        <time>2014-05-04T08:22:06Z</time>
      </trkpt>
      <trkpt lat="42.557172" lon="0.078256">
        <ele>1517.2</ele>
        <time>2014-05-04T08:22:18Z</time>
      </trkpt>
      <trkpt lat="42.557055" lon="0.078297">
        <ele>1514.9</ele>
        <time>2014-05-04T08:22:27Z</time>
      </trkpt>
      <trkpt lat="42.556989" lon="0.078358">
        <ele>1510.2</ele>
        <time>2014-05-04T08:27:45Z</time>
      </trkpt>
      <trkpt lat="42.557010" lon="0.078478">
        <ele>1510.6</ele>
        <time>2014-05-04T08:28:10Z</time>
      </trkpt>
      <trkpt lat="42.557070" lon="0.078545">
        <ele>1513.5</ele>
        <time>2014-05-04T08:28:33Z</time>
      </trkpt>
      <trkpt lat="42.557105" lon="0.078664">
        <ele>1517.6</ele>
        <time>2014-05-04T08:28:58Z</time>
      </trkpt>
      <trkpt lat="42.557115" lon="0.078819">
        <ele>1521.2</ele>
        <time>2014-05-04T08:29:20Z</time>
      </trkpt>
      <trkpt lat="42.557062" lon="0.078954">
        <ele>1522.9</ele>
        <time>2014-05-04T08:29:39Z</time>
      </trkpt>
      <trkpt lat="42.557051" lon="0.079088">
        <ele>1524.1</ele>
        <time>2014-05-04T08:29:59Z</time>
      </trkpt>
      <trkpt lat="42.557099" lon="0.079156">
        <ele>1528.0</ele>
        <time>2014-05-04T08:30:22Z</time>
      </trkpt>
      <trkpt lat="42.557104" lon="0.079276">
        <ele>1532.1</ele>
        <time>2014-05-04T08:30:39Z</time>
      </trkpt>
      <trkpt lat="42.557029" lon="0.079375">
        <ele>1533.8</ele>
        <time>2014-05-04T08:30:56Z</time>
      </trkpt>
      <trkpt lat="42.556932" lon="0.079464">
        <ele>1534.8</ele>
        <time>2014-05-04T08:31:15Z</time>
      </trkpt>
      <trkpt lat="42.556882" lon="0.079546">
        <ele>1536.4</ele>
        <time>2014-05-04T08:31:34Z</time>
      </trkpt>
      <trkpt lat="42.556821" lon="0.079568">
        <ele>1539.8</ele>
        <time>2014-05-04T08:31:53Z</time>
      </trkpt>
      <trkpt lat="42.556830" lon="0.079645">
        <ele>1543.8</ele>
        <time>2014-05-04T08:32:13Z</time>
      </trkpt>
      <trkpt lat="42.556848" lon="0.079737">
        <ele>1548.1</ele>
        <time>2014-05-04T08:32:37Z</time>
      </trkpt>
      <trkpt lat="42.556752" lon="0.079773">
        <ele>1553.4</ele>
        <time>2014-05-04T08:33:00Z</time>
      </trkpt>
      <trkpt lat="42.556775" lon="0.079854">
        <ele>1558.5</ele>
        <time>2014-05-04T08:33:27Z</time>
      </trkpt>
      <trkpt lat="42.556825" lon="0.079890">
        <ele>1564.2</ele>
        <time>2014-05-04T08:33:57Z</time>
      </trkpt>
      <trkpt lat="42.556911" lon="0.079860">
        <ele>1571.2</ele>
        <time>2014-05-04T08:34:33Z</time>
      </trkpt>
      <trkpt lat="42.556980" lon="0.079907">
        <ele>1574.9</ele>
        <time>2014-05-04T08:34:55Z</time>
      </trkpt>
      <trkpt lat="42.556944" lon="0.079997">
        <ele>1578.7</ele>
        <time>2014-05-04T08:35:17Z</time>
      </trkpt>
      <trkpt lat="42.556861" lon="0.080073">
        <ele>1583.0</ele>
        <time>2014-05-04T08:35:40Z</time>
      </trkpt>
      <trkpt lat="42.556797" lon="0.080153">
        <ele>1587.2</ele>
        <time>2014-05-04T08:36:02Z</time>
      </trkpt>
      <trkpt lat="42.556842" lon="0.080195">
        <ele>1590.4</ele>
        <time>2014-05-04T08:37:55Z</time>
      </trkpt>
      <trkpt lat="42.556918" lon="0.080156">
        <ele>1590.5</ele>
        <time>2014-05-04T08:38:19Z</time>
      </trkpt>
      <trkpt lat="42.557000" lon="0.080106">
        <ele>1591.4</ele>
        <time>2014-05-04T08:38:42Z</time>
      </trkpt>
      <trkpt lat="42.557096" lon="0.080036">
        <ele>1593.5</ele>
        <time>2014-05-04T08:38:53Z</time>
      </trkpt>
      <trkpt lat="42.557155" lon="0.079934">
        <ele>1595.6</ele>
        <time>2014-05-04T08:39:04Z</time>
      </trkpt>
      <trkpt lat="42.557220" lon="0.079840">
        <ele>1597.5</ele>
        <time>2014-05-04T08:39:15Z</time>
      </trkpt>
      <trkpt lat="42.557264" lon="0.079717">
        <ele>1599.5</ele>
        <time>2014-05-04T08:39:27Z</time>
      </trkpt>
      <trkpt lat="42.557317" lon="0.079604">
        <ele>1601.3</ele>
        <time>2014-05-04T08:39:40Z</time>
      </trkpt>
      <trkpt lat="42.557382" lon="0.079509">
        <ele>1603.5</ele>
        <time>2014-05-04T08:39:53Z</time>
      </trkpt>
      <trkpt lat="42.557446" lon="0.079404">
        <ele>1606.2</ele>
        <time>2014-05-04T08:40:06Z</time>
      </trkpt>
      <trkpt lat="42.557520" lon="0.079317">
        <ele>1608.2</ele>
        <time>2014-05-04T08:40:19Z</time>
      </trkpt>
      <trkpt lat="42.557611" lon="0.079280">
        <ele>1610.3</ele>
        <time>2014-05-04T08:40:33Z</time>
      </trkpt>
      <trkpt lat="42.557715" lon="0.079259">
        <ele>1613.4</ele>
        <time>2014-05-04T08:40:49Z</time>
      </trkpt>
      <trkpt lat="42.557795" lon="0.079195">
        <ele>1615.3</ele>
        <time>2014-05-04T08:41:03Z</time>
      </trkpt>
      <trkpt lat="42.557893" lon="0.079138">
        <ele>1618.0</ele>
        <time>2014-05-04T08:41:19Z</time>
      </trkpt>
      <trkpt lat="42.557983" lon="0.079073">
        <ele>1620.8</ele>
        <time>2014-05-04T08:41:36Z</time>
      </trkpt>
      <trkpt lat="42.558063" lon="0.078997">
        <ele>1623.7</ele>
        <time>2014-05-04T08:41:52Z</time>
      </trkpt>
      <trkpt lat="42.558117" lon="0.078896">
        <ele>1625.7</ele>
        <time>2014-05-04T08:42:07Z</time>
      </trkpt>
      <trkpt lat="42.558168" lon="0.078784">
        <ele>1628.3</ele>
        <time>2014-05-04T08:42:24Z</time>
      </trkpt>
      <trkpt lat="42.558208" lon="0.078675">
        <ele>1630.9</ele>
        <time>2014-05-04T08:42:39Z</time>
      </trkpt>
      <trkpt lat="42.558222" lon="0.078546">
        <ele>1632.8</ele>
        <time>2014-05-04T08:42:51Z</time>
      </trkpt>
      <trkpt lat="42.558238" lon="0.078414">
        <ele>1634.7</ele>
        <time>2014-05-04T08:43:03Z</time>
      </trkpt>
      <trkpt lat="42.558256" lon="0.078282">
        <ele>1636.6</ele>
        <time>2014-05-04T08:43:16Z</time>
      </trkpt>
      <trkpt lat="42.558265" lon="0.078137">
        <ele>1638.3</ele>
        <time>2014-05-04T08:43:28Z</time>
      </trkpt>
      <trkpt lat="42.558311" lon="0.078023">
        <ele>1639.9</ele>
        <time>2014-05-04T08:43:40Z</time>
      </trkpt>
      <trkpt lat="42.558335" lon="0.077904">
        <ele>1640.7</ele>
        <time>2014-05-04T08:43:50Z</time>
      </trkpt>
      <trkpt lat="42.558374" lon="0.077782">
        <ele>1641.9</ele>
        <time>2014-05-04T08:44:02Z</time>
      </trkpt>
      <trkpt lat="42.558412" lon="0.077660">
        <ele>1643.6</ele>
        <time>2014-05-04T08:44:15Z</time>
      </trkpt>
      <trkpt lat="42.558463" lon="0.077549">
        <ele>1645.0</ele>
        <time>2014-05-04T08:44:28Z</time>
      </trkpt>
      <trkpt lat="42.558523" lon="0.077426">
        <ele>1645.7</ele>
        <time>2014-05-04T08:44:43Z</time>
      </trkpt>
      <trkpt lat="42.558572" lon="0.077312">
        <ele>1646.2</ele>
        <time>2014-05-04T08:44:55Z</time>
      </trkpt>
      <trkpt lat="42.558615" lon="0.077178">
        <ele>1646.4</ele>
        <time>2014-05-04T08:45:07Z</time>
      </trkpt>
      <trkpt lat="42.558652" lon="0.077038">
        <ele>1647.8</ele>
        <time>2014-05-04T08:45:20Z</time>
      </trkpt>
      <trkpt lat="42.558666" lon="0.076895">
        <ele>1648.2</ele>
        <time>2014-05-04T08:45:31Z</time>
      </trkpt>
      <trkpt lat="42.558685" lon="0.076776">
        <ele>1648.6</ele>
        <time>2014-05-04T08:45:42Z</time>
      </trkpt>
      <trkpt lat="42.558689" lon="0.076656">
        <ele>1649.4</ele>
        <time>2014-05-04T08:45:54Z</time>
      </trkpt>
      <trkpt lat="42.558684" lon="0.076496">
        <ele>1650.8</ele>
        <time>2014-05-04T08:46:07Z</time>
      </trkpt>
      <trkpt lat="42.558684" lon="0.076347">
        <ele>1651.2</ele>
        <time>2014-05-04T08:46:18Z</time>
      </trkpt>
      <trkpt lat="42.558692" lon="0.076211">
        <ele>1651.5</ele>
        <time>2014-05-04T08:46:28Z</time>
      </trkpt>
      <trkpt lat="42.558726" lon="0.076061">
        <ele>1651.5</ele>
        <time>2014-05-04T08:46:38Z</time>
      </trkpt>
      <trkpt lat="42.558771" lon="0.075950">
        <ele>1651.7</ele>
        <time>2014-05-04T08:46:48Z</time>
      </trkpt>
      <trkpt lat="42.558802" lon="0.075823">
        <ele>1651.3</ele>
        <time>2014-05-04T08:46:58Z</time>
      </trkpt>
      <trkpt lat="42.558818" lon="0.075700">
        <ele>1651.4</ele>
        <time>2014-05-04T08:47:08Z</time>
      </trkpt>
      <trkpt lat="42.558843" lon="0.075579">
        <ele>1651.4</ele>
        <time>2014-05-04T08:47:20Z</time>
      </trkpt>
      <trkpt lat="42.558891" lon="0.075449">
        <ele>1651.8</ele>
        <time>2014-05-04T08:47:32Z</time>
      </trkpt>
      <trkpt lat="42.558940" lon="0.075322">
        <ele>1651.1</ele>
        <time>2014-05-04T08:47:43Z</time>
      </trkpt>
      <trkpt lat="42.558981" lon="0.075204">
        <ele>1651.3</ele>
        <time>2014-05-04T08:47:53Z</time>
      </trkpt>
      <trkpt lat="42.559015" lon="0.075073">
        <ele>1653.1</ele>
        <time>2014-05-04T08:48:06Z</time>
      </trkpt>
      <trkpt lat="42.559060" lon="0.074955">
        <ele>1654.1</ele>
        <time>2014-05-04T08:48:17Z</time>
      </trkpt>
      <trkpt lat="42.559132" lon="0.074890">
        <ele>1654.2</ele>
        <time>2014-05-04T08:48:29Z</time>
      </trkpt>
      <trkpt lat="42.559240" lon="0.074877">
        <ele>1654.6</ele>
        <time>2014-05-04T08:48:43Z</time>
      </trkpt>
      <trkpt lat="42.559342" lon="0.074850">
        <ele>1655.5</ele>
        <time>2014-05-04T08:48:55Z</time>
      </trkpt>
      <trkpt lat="42.559442" lon="0.074815">
        <ele>1655.8</ele>
        <time>2014-05-04T08:49:07Z</time>
      </trkpt>
      <trkpt lat="42.559553" lon="0.074827">
        <ele>1656.4</ele>
        <time>2014-05-04T08:49:20Z</time>
      </trkpt>
      <trkpt lat="42.559664" lon="0.074812">
        <ele>1656.8</ele>
        <time>2014-05-04T08:49:36Z</time>
      </trkpt>
      <trkpt lat="42.559761" lon="0.074760">
        <ele>1657.4</ele>
        <time>2014-05-04T08:49:49Z</time>
      </trkpt>
      <trkpt lat="42.559826" lon="0.074634">
        <ele>1657.7</ele>
        <time>2014-05-04T08:50:01Z</time>
      </trkpt>
      <trkpt lat="42.559885" lon="0.074523">
        <ele>1657.6</ele>
        <time>2014-05-04T08:50:11Z</time>
      </trkpt>
      <trkpt lat="42.559963" lon="0.074416">
        <ele>1657.2</ele>
        <time>2014-05-04T08:50:23Z</time>
      </trkpt>
      <trkpt lat="42.560033" lon="0.074322">
        <ele>1656.7</ele>
        <time>2014-05-04T08:50:34Z</time>
      </trkpt>
      <trkpt lat="42.560125" lon="0.074231">
        <ele>1656.9</ele>
        <time>2014-05-04T08:50:47Z</time>
      </trkpt>
      <trkpt lat="42.560204" lon="0.074139">
        <ele>1656.9</ele>
        <time>2014-05-04T08:50:57Z</time>
      </trkpt>
      <trkpt lat="42.560272" lon="0.074048">
        <ele>1656.3</ele>
        <time>2014-05-04T08:51:09Z</time>
      </trkpt>
      <trkpt lat="42.560339" lon="0.073939">
        <ele>1656.9</ele>
        <time>2014-05-04T08:51:23Z</time>
      </trkpt>
      <trkpt lat="42.560410" lon="0.073834">
        <ele>1656.7</ele>
        <time>2014-05-04T08:51:34Z</time>
      </trkpt>
      <trkpt lat="42.560489" lon="0.073750">
        <ele>1657.0</ele>
        <time>2014-05-04T08:51:46Z</time>
      </trkpt>
      <trkpt lat="42.560563" lon="0.073651">
        <ele>1657.4</ele>
        <time>2014-05-04T08:51:59Z</time>
      </trkpt>
      <trkpt lat="42.560656" lon="0.073586">
        <ele>1658.3</ele>
        <time>2014-05-04T08:52:12Z</time>
      </trkpt>
      <trkpt lat="42.560761" lon="0.073578">
        <ele>1658.5</ele>
        <time>2014-05-04T08:52:27Z</time>
      </trkpt>
      <trkpt lat="42.560903" lon="0.073553">
        <ele>1658.4</ele>
        <time>2014-05-04T08:52:41Z</time>
      </trkpt>
      <trkpt lat="42.560999" lon="0.073497">
        <ele>1658.2</ele>
        <time>2014-05-04T08:52:53Z</time>
      </trkpt>
      <trkpt lat="42.561080" lon="0.073396">
        <ele>1658.9</ele>
        <time>2014-05-04T08:53:06Z</time>
      </trkpt>
      <trkpt lat="42.561159" lon="0.073326">
        <ele>1660.6</ele>
        <time>2014-05-04T08:53:21Z</time>
      </trkpt>
      <trkpt lat="42.561209" lon="0.073280">
        <ele>1661.1</ele>
        <time>2014-05-04T08:53:49Z</time>
      </trkpt>
      <trkpt lat="42.561259" lon="0.073177">
        <ele>1661.5</ele>
        <time>2014-05-04T08:54:03Z</time>
      </trkpt>
      <trkpt lat="42.561275" lon="0.073067">
        <ele>1661.2</ele>
        <time>2014-05-04T08:54:14Z</time>
      </trkpt>
      <trkpt lat="42.561282" lon="0.072935">
        <ele>1660.8</ele>
        <time>2014-05-04T08:54:26Z</time>
      </trkpt>
      <trkpt lat="42.561308" lon="0.072812">
        <ele>1660.6</ele>
        <time>2014-05-04T08:54:37Z</time>
      </trkpt>
      <trkpt lat="42.561334" lon="0.072688">
        <ele>1660.8</ele>
        <time>2014-05-04T08:54:51Z</time>
      </trkpt>
      <trkpt lat="42.561333" lon="0.072569">
        <ele>1661.2</ele>
        <time>2014-05-04T08:55:09Z</time>
      </trkpt>
      <trkpt lat="42.561368" lon="0.072453">
        <ele>1660.1</ele>
        <time>2014-05-04T08:55:21Z</time>
      </trkpt>
      <trkpt lat="42.561371" lon="0.072317">
        <ele>1659.7</ele>
        <time>2014-05-04T08:55:34Z</time>
      </trkpt>
      <trkpt lat="42.561385" lon="0.072185">
        <ele>1658.7</ele>
        <time>2014-05-04T08:55:46Z</time>
      </trkpt>
      <trkpt lat="42.561395" lon="0.072065">
        <ele>1658.2</ele>
        <time>2014-05-04T08:55:58Z</time>
      </trkpt>
      <trkpt lat="42.561372" lon="0.071923">
        <ele>1658.6</ele>
        <time>2014-05-04T08:56:12Z</time>
      </trkpt>
      <trkpt lat="42.561374" lon="0.071781">
        <ele>1656.8</ele>
        <time>2014-05-04T08:56:26Z</time>
      </trkpt>
      <trkpt lat="42.561375" lon="0.071641">
        <ele>1654.8</ele>
        <time>2014-05-04T08:56:40Z</time>
      </trkpt>
      <trkpt lat="42.561372" lon="0.071460">
        <ele>1653.1</ele>
        <time>2014-05-04T08:56:54Z</time>
      </trkpt>
      <trkpt lat="42.561393" lon="0.071307">
        <ele>1651.1</ele>
        <time>2014-05-04T08:57:05Z</time>
      </trkpt>
      <trkpt lat="42.561356" lon="0.071176">
        <ele>1649.8</ele>
        <time>2014-05-04T08:57:16Z</time>
      </trkpt>
      <trkpt lat="42.561337" lon="0.071046">
        <ele>1648.3</ele>
        <time>2014-05-04T08:57:26Z</time>
      </trkpt>
      <trkpt lat="42.561318" lon="0.070917">
        <ele>1646.9</ele>
        <time>2014-05-04T08:57:40Z</time>
      </trkpt>
      <trkpt lat="42.561344" lon="0.070802">
        <ele>1645.9</ele>
        <time>2014-05-04T08:57:51Z</time>
      </trkpt>
      <trkpt lat="42.561401" lon="0.070683">
        <ele>1644.5</ele>
        <time>2014-05-04T08:58:01Z</time>
      </trkpt>
      <trkpt lat="42.561452" lon="0.070573">
        <ele>1642.9</ele>
        <time>2014-05-04T08:58:10Z</time>
      </trkpt>
      <trkpt lat="42.561494" lon="0.070428">
        <ele>1642.1</ele>
        <time>2014-05-04T08:58:23Z</time>
      </trkpt>
      <trkpt lat="42.561544" lon="0.070293">
        <ele>1641.9</ele>
        <time>2014-05-04T08:58:33Z</time>
      </trkpt>
      <trkpt lat="42.561606" lon="0.070185">
        <ele>1641.3</ele>
        <time>2014-05-04T08:58:43Z</time>
      </trkpt>
      <trkpt lat="42.561668" lon="0.070054">
        <ele>1641.4</ele>
        <time>2014-05-04T08:58:53Z</time>
      </trkpt>
      <trkpt lat="42.561720" lon="0.069929">
        <ele>1640.9</ele>
        <time>2014-05-04T08:59:03Z</time>
      </trkpt>
      <trkpt lat="42.561787" lon="0.069809">
        <ele>1641.2</ele>
        <time>2014-05-04T08:59:15Z</time>
      </trkpt>
      <trkpt lat="42.561866" lon="0.069731">
        <ele>1641.6</ele>
        <time>2014-05-04T08:59:24Z</time>
      </trkpt>
      <trkpt lat="42.561957" lon="0.069682">
        <ele>1642.8</ele>
        <time>2014-05-04T08:59:35Z</time>
      </trkpt>
      <trkpt lat="42.562040" lon="0.069583">
        <ele>1643.2</ele>
        <time>2014-05-04T08:59:46Z</time>
      </trkpt>
      <trkpt lat="42.562118" lon="0.069505">
        <ele>1643.5</ele>
        <time>2014-05-04T08:59:56Z</time>
      </trkpt>
      <trkpt lat="42.562201" lon="0.069381">
        <ele>1643.9</ele>
        <time>2014-05-04T09:00:07Z</time>
      </trkpt>
      <trkpt lat="42.562263" lon="0.069271">
        <ele>1644.4</ele>
        <time>2014-05-04T09:00:18Z</time>
      </trkpt>
      <trkpt lat="42.562320" lon="0.069148">
        <ele>1645.3</ele>
        <time>2014-05-04T09:00:30Z</time>
      </trkpt>
      <trkpt lat="42.562377" lon="0.069042">
        <ele>1645.7</ele>
        <time>2014-05-04T09:00:41Z</time>
      </trkpt>
      <trkpt lat="42.562447" lon="0.068931">
        <ele>1646.1</ele>
        <time>2014-05-04T09:00:52Z</time>
      </trkpt>
      <trkpt lat="42.562489" lon="0.068801">
        <ele>1645.7</ele>
        <time>2014-05-04T09:01:02Z</time>
      </trkpt>
      <trkpt lat="42.562531" lon="0.068683">
        <ele>1644.8</ele>
        <time>2014-05-04T09:01:12Z</time>
      </trkpt>
      <trkpt lat="42.562612" lon="0.068584">
        <ele>1644.2</ele>
        <time>2014-05-04T09:01:24Z</time>
      </trkpt>
      <trkpt lat="42.562688" lon="0.068469">
        <ele>1644.0</ele>
        <time>2014-05-04T09:01:35Z</time>
      </trkpt>
      <trkpt lat="42.562770" lon="0.068385">
        <ele>1643.4</ele>
        <time>2014-05-04T09:01:45Z</time>
      </trkpt>
      <trkpt lat="42.562854" lon="0.068322">
        <ele>1643.5</ele>
        <time>2014-05-04T09:01:55Z</time>
      </trkpt>
      <trkpt lat="42.562957" lon="0.068234">
        <ele>1644.1</ele>
        <time>2014-05-04T09:02:08Z</time>
      </trkpt>
      <trkpt lat="42.563068" lon="0.068208">
        <ele>1644.2</ele>
        <time>2014-05-04T09:02:21Z</time>
      </trkpt>
      <trkpt lat="42.563179" lon="0.068171">
        <ele>1645.4</ele>
        <time>2014-05-04T09:02:32Z</time>
      </trkpt>
      <trkpt lat="42.563264" lon="0.068231">
        <ele>1647.0</ele>
        <time>2014-05-04T09:02:45Z</time>
      </trkpt>
      <trkpt lat="42.563367" lon="0.068320">
        <ele>1650.6</ele>
        <time>2014-05-04T09:03:03Z</time>
      </trkpt>
      <trkpt lat="42.563480" lon="0.068364">
        <ele>1653.7</ele>
        <time>2014-05-04T09:03:18Z</time>
      </trkpt>
      <trkpt lat="42.563574" lon="0.068428">
        <ele>1656.5</ele>
        <time>2014-05-04T09:03:38Z</time>
      </trkpt>
      <trkpt lat="42.563667" lon="0.068483">
        <ele>1659.2</ele>
        <time>2014-05-04T09:03:53Z</time>
      </trkpt>
      <trkpt lat="42.563747" lon="0.068584">
        <ele>1662.8</ele>
        <time>2014-05-04T09:04:12Z</time>
      </trkpt>
      <trkpt lat="42.563792" lon="0.068716">
        <ele>1665.7</ele>
        <time>2014-05-04T09:04:29Z</time>
      </trkpt>
      <trkpt lat="42.563843" lon="0.068828">
        <ele>1667.9</ele>
        <time>2014-05-04T09:04:44Z</time>
      </trkpt>
      <trkpt lat="42.563934" lon="0.068897">
        <ele>1672.7</ele>
        <time>2014-05-04T09:05:07Z</time>
      </trkpt>
      <trkpt lat="42.563998" lon="0.068982">
        <ele>1675.5</ele>
        <time>2014-05-04T09:05:38Z</time>
      </trkpt>
      <trkpt lat="42.564022" lon="0.069085">
        <ele>1678.6</ele>
        <time>2014-05-04T09:06:01Z</time>
      </trkpt>
      <trkpt lat="42.564058" lon="0.069142">
        <ele>1683.8</ele>
        <time>2014-05-04T09:06:29Z</time>
      </trkpt>
      <trkpt lat="42.564092" lon="0.069245">
        <ele>1688.3</ele>
        <time>2014-05-04T09:06:56Z</time>
      </trkpt>
      <trkpt lat="42.564101" lon="0.069347">
        <ele>1693.7</ele>
        <time>2014-05-04T09:07:25Z</time>
      </trkpt>
      <trkpt lat="42.564090" lon="0.069439">
        <ele>1698.5</ele>
        <time>2014-05-04T09:07:51Z</time>
      </trkpt>
      <trkpt lat="42.564097" lon="0.069549">
        <ele>1702.9</ele>
        <time>2014-05-04T09:08:16Z</time>
      </trkpt>
      <trkpt lat="42.564127" lon="0.069594">
        <ele>1706.7</ele>
        <time>2014-05-04T09:08:41Z</time>
      </trkpt>
      <trkpt lat="42.564175" lon="0.069732">
        <ele>1709.6</ele>
        <time>2014-05-04T09:09:00Z</time>
      </trkpt>
      <trkpt lat="42.564232" lon="0.069816">
        <ele>1714.2</ele>
        <time>2014-05-04T09:09:30Z</time>
      </trkpt>
      <trkpt lat="42.564239" lon="0.069883">
        <ele>1716.5</ele>
        <time>2014-05-04T09:09:51Z</time>
      </trkpt>
      <trkpt lat="42.564245" lon="0.069960">
        <ele>1721.2</ele>
        <time>2014-05-04T09:10:21Z</time>
      </trkpt>
      <trkpt lat="42.564249" lon="0.070045">
        <ele>1724.5</ele>
        <time>2014-05-04T09:10:45Z</time>
      </trkpt>
      <trkpt lat="42.564301" lon="0.070152">
        <ele>1730.0</ele>
        <time>2014-05-04T09:11:16Z</time>
      </trkpt>
      <trkpt lat="42.564260" lon="0.070263">
        <ele>1734.4</ele>
        <time>2014-05-04T09:11:38Z</time>
      </trkpt>
      <trkpt lat="42.564178" lon="0.070354">
        <ele>1736.9</ele>
        <time>2014-05-04T09:11:57Z</time>
      </trkpt>
      <trkpt lat="42.564154" lon="0.070446">
        <ele>1741.1</ele>
        <time>2014-05-04T09:12:34Z</time>
      </trkpt>
      <trkpt lat="42.564162" lon="0.070550">
        <ele>1746.1</ele>
        <time>2014-05-04T09:13:00Z</time>
      </trkpt>
      <trkpt lat="42.564188" lon="0.070594">
        <ele>1751.0</ele>
        <time>2014-05-04T09:13:37Z</time>
      </trkpt>
      <trkpt lat="42.564168" lon="0.070630">
        <ele>1750.7</ele>
        <time>2014-05-04T09:14:20Z</time>
      </trkpt>
      <trkpt lat="42.564148" lon="0.070669">
        <ele>1753.3</ele>
        <time>2014-05-04T09:15:08Z</time>
      </trkpt>
      <trkpt lat="42.564170" lon="0.070776">
        <ele>1758.4</ele>
        <time>2014-05-04T09:15:32Z</time>
      </trkpt>
      <trkpt lat="42.564211" lon="0.070872">
        <ele>1763.7</ele>
        <time>2014-05-04T09:15:59Z</time>
      </trkpt>
      <trkpt lat="42.564218" lon="0.070954">
        <ele>1768.1</ele>
        <time>2014-05-04T09:16:21Z</time>
      </trkpt>
      <trkpt lat="42.564156" lon="0.071000">
        <ele>1773.2</ele>
        <time>2014-05-04T09:16:49Z</time>
      </trkpt>
      <trkpt lat="42.564146" lon="0.071097">
        <ele>1777.4</ele>
        <time>2014-05-04T09:17:12Z</time>
      </trkpt>
      <trkpt lat="42.564043" lon="0.071041">
        <ele>1781.4</ele>
        <time>2014-05-04T09:17:34Z</time>
      </trkpt>
      <trkpt lat="42.564044" lon="0.071123">
        <ele>1785.2</ele>
        <time>2014-05-04T09:18:05Z</time>
      </trkpt>
      <trkpt lat="42.563982" lon="0.071043">
        <ele>1786.2</ele>
        <time>2014-05-04T09:19:42Z</time>
      </trkpt>
      <trkpt lat="42.563939" lon="0.071086">
        <ele>1788.1</ele>
        <time>2014-05-04T09:27:13Z</time>
      </trkpt>
      <trkpt lat="42.563863" lon="0.071133">
        <ele>1791.7</ele>
        <time>2014-05-04T09:27:31Z</time>
      </trkpt>
      <trkpt lat="42.563857" lon="0.071254">
        <ele>1795.3</ele>
        <time>2014-05-04T09:27:50Z</time>
      </trkpt>
      <trkpt lat="42.563912" lon="0.071379">
        <ele>1799.8</ele>
        <time>2014-05-04T09:28:11Z</time>
      </trkpt>
      <trkpt lat="42.563900" lon="0.071493">
        <ele>1804.3</ele>
        <time>2014-05-04T09:28:34Z</time>
      </trkpt>
      <trkpt lat="42.563948" lon="0.071558">
        <ele>1807.7</ele>
        <time>2014-05-04T09:28:54Z</time>
      </trkpt>
      <trkpt lat="42.564002" lon="0.071631">
        <ele>1811.8</ele>
        <time>2014-05-04T09:29:18Z</time>
      </trkpt>
      <trkpt lat="42.563994" lon="0.071739">
        <ele>1816.5</ele>
        <time>2014-05-04T09:29:44Z</time>
      </trkpt>
      <trkpt lat="42.563993" lon="0.071840">
        <ele>1820.8</ele>
        <time>2014-05-04T09:30:08Z</time>
      </trkpt>
      <trkpt lat="42.564046" lon="0.071906">
        <ele>1824.7</ele>
        <time>2014-05-04T09:30:31Z</time>
      </trkpt>
      <trkpt lat="42.564125" lon="0.071956">
        <ele>1828.8</ele>
        <time>2014-05-04T09:30:56Z</time>
      </trkpt>
      <trkpt lat="42.564109" lon="0.072052">
        <ele>1833.7</ele>
        <time>2014-05-04T09:31:23Z</time>
      </trkpt>
      <trkpt lat="42.564145" lon="0.072129">
        <ele>1837.7</ele>
        <time>2014-05-04T09:31:47Z</time>
      </trkpt>
      <trkpt lat="42.564189" lon="0.072225">
        <ele>1842.4</ele>
        <time>2014-05-04T09:32:10Z</time>
      </trkpt>
      <trkpt lat="42.564243" lon="0.072285">
        <ele>1846.6</ele>
        <time>2014-05-04T09:32:32Z</time>
      </trkpt>
      <trkpt lat="42.564251" lon="0.072421">
        <ele>1850.4</ele>
        <time>2014-05-04T09:32:55Z</time>
      </trkpt>
      <trkpt lat="42.564276" lon="0.072529">
        <ele>1854.5</ele>
        <time>2014-05-04T09:33:19Z</time>
      </trkpt>
      <trkpt lat="42.564352" lon="0.072589">
        <ele>1859.2</ele>
        <time>2014-05-04T09:33:44Z</time>
      </trkpt>
      <trkpt lat="42.564386" lon="0.072640">
        <ele>1863.4</ele>
        <time>2014-05-04T09:34:10Z</time>
      </trkpt>
      <trkpt lat="42.564425" lon="0.072670">
        <ele>1868.3</ele>
        <time>2014-05-04T09:34:37Z</time>
      </trkpt>
      <trkpt lat="42.564416" lon="0.072756">
        <ele>1871.3</ele>
        <time>2014-05-04T09:34:56Z</time>
      </trkpt>
      <trkpt lat="42.564440" lon="0.072810">
        <ele>1876.0</ele>
        <time>2014-05-04T09:35:24Z</time>
      </trkpt>
      <trkpt lat="42.564434" lon="0.072899">
        <ele>1879.8</ele>
        <time>2014-05-04T09:35:48Z</time>
      </trkpt>
      <trkpt lat="42.564404" lon="0.072894">
        <ele>1880.8</ele>
        <time>2014-05-04T09:36:40Z</time>
      </trkpt>
      <trkpt lat="42.564374" lon="0.072981">
        <ele>1883.9</ele>
        <time>2014-05-04T09:37:14Z</time>
      </trkpt>
      <trkpt lat="42.564384" lon="0.073075">
        <ele>1889.4</ele>
        <time>2014-05-04T09:37:43Z</time>
      </trkpt>
      <trkpt lat="42.564380" lon="0.073163">
        <ele>1894.6</ele>
        <time>2014-05-04T09:38:10Z</time>
      </trkpt>
      <trkpt lat="42.564390" lon="0.073241">
        <ele>1899.8</ele>
        <time>2014-05-04T09:38:37Z</time>
      </trkpt>
      <trkpt lat="42.564402" lon="0.073297">
        <ele>1903.5</ele>
        <time>2014-05-04T09:39:05Z</time>
      </trkpt>
      <trkpt lat="42.564419" lon="0.073275">
        <ele>1905.7</ele>
        <time>2014-05-04T09:40:10Z</time>
      </trkpt>
      <trkpt lat="42.564425" lon="0.073275">
        <ele>1906.1</ele>
        <time>2014-05-04T09:41:40Z</time>
      </trkpt>
      <trkpt lat="42.564429" lon="0.073389">
        <ele>1910.8</ele>
        <time>2014-05-04T09:42:07Z</time>
      </trkpt>
      <trkpt lat="42.564413" lon="0.073462">
        <ele>1915.1</ele>
        <time>2014-05-04T09:42:31Z</time>
      </trkpt>
      <trkpt lat="42.564473" lon="0.073504">
        <ele>1921.8</ele>
        <time>2014-05-04T09:49:53Z</time>
      </trkpt>
      <trkpt lat="42.564536" lon="0.073556">
        <ele>1925.9</ele>
        <time>2014-05-04T09:50:33Z</time>
      </trkpt>
      <trkpt lat="42.564595" lon="0.073581">
        <ele>1930.7</ele>
        <time>2014-05-04T09:51:00Z</time>
      </trkpt>
      <trkpt lat="42.564671" lon="0.073549">
        <ele>1933.8</ele>
        <time>2014-05-04T09:51:15Z</time>
      </trkpt>
      <trkpt lat="42.564750" lon="0.073526">
        <ele>1936.1</ele>
        <time>2014-05-04T09:51:40Z</time>
      </trkpt>
      <trkpt lat="42.564818" lon="0.073459">
        <ele>1938.5</ele>
        <time>2014-05-04T09:51:58Z</time>
      </trkpt>
      <trkpt lat="42.564862" lon="0.073364">
        <ele>1938.3</ele>
        <time>2014-05-04T09:52:19Z</time>
      </trkpt>
      <trkpt lat="42.564905" lon="0.073256">
        <ele>1939.4</ele>
        <time>2014-05-04T09:52:31Z</time>
      </trkpt>
      <trkpt lat="42.564986" lon="0.073225">
        <ele>1941.1</ele>
        <time>2014-05-04T09:52:48Z</time>
      </trkpt>
      <trkpt lat="42.565020" lon="0.073313">
        <ele>1946.2</ele>
        <time>2014-05-04T09:53:23Z</time>
      </trkpt>
      <trkpt lat="42.565026" lon="0.073415">
        <ele>1951.5</ele>
        <time>2014-05-04T09:53:47Z</time>
      </trkpt>
      <trkpt lat="42.565030" lon="0.073542">
        <ele>1955.2</ele>
        <time>2014-05-04T09:54:09Z</time>
      </trkpt>
      <trkpt lat="42.565040" lon="0.073576">
        <ele>1957.8</ele>
        <time>2014-05-04T09:55:26Z</time>
      </trkpt>
      <trkpt lat="42.565087" lon="0.073646">
        <ele>1957.0</ele>
        <time>2014-05-04T09:57:23Z</time>
      </trkpt>
      <trkpt lat="42.565169" lon="0.073661">
        <ele>1956.4</ele>
        <time>2014-05-04T09:57:35Z</time>
      </trkpt>
      <trkpt lat="42.565263" lon="0.073650">
        <ele>1958.0</ele>
        <time>2014-05-04T09:57:51Z</time>
      </trkpt>
      <trkpt lat="42.565360" lon="0.073642">
        <ele>1959.0</ele>
        <time>2014-05-04T09:58:06Z</time>
      </trkpt>
      <trkpt lat="42.565453" lon="0.073658">
        <ele>1960.3</ele>
        <time>2014-05-04T09:58:32Z</time>
      </trkpt>
      <trkpt lat="42.565559" lon="0.073604">
        <ele>1960.6</ele>
        <time>2014-05-04T09:58:47Z</time>
      </trkpt>
      <trkpt lat="42.565654" lon="0.073563">
        <ele>1960.7</ele>
        <time>2014-05-04T09:59:02Z</time>
      </trkpt>
      <trkpt lat="42.565756" lon="0.073559">
        <ele>1960.7</ele>
        <time>2014-05-04T09:59:25Z</time>
      </trkpt>
      <trkpt lat="42.565866" lon="0.073596">
        <ele>1961.1</ele>
        <time>2014-05-04T09:59:42Z</time>
      </trkpt>
      <trkpt lat="42.565951" lon="0.073656">
        <ele>1960.4</ele>
        <time>2014-05-04T09:59:57Z</time>
      </trkpt>
      <trkpt lat="42.566024" lon="0.073720">
        <ele>1960.7</ele>
        <time>2014-05-04T10:00:18Z</time>
      </trkpt>
      <trkpt lat="42.566114" lon="0.073784">
        <ele>1960.4</ele>
        <time>2014-05-04T10:00:35Z</time>
      </trkpt>
      <trkpt lat="42.566204" lon="0.073827">
        <ele>1960.5</ele>
        <time>2014-05-04T10:00:52Z</time>
      </trkpt>
      <trkpt lat="42.566261" lon="0.073940">
        <ele>1960.1</ele>
        <time>2014-05-04T10:01:07Z</time>
      </trkpt>
      <trkpt lat="42.566310" lon="0.074066">
        <ele>1959.2</ele>
        <time>2014-05-04T10:01:24Z</time>
      </trkpt>
      <trkpt lat="42.566389" lon="0.074133">
        <ele>1958.5</ele>
        <time>2014-05-04T10:01:42Z</time>
      </trkpt>
      <trkpt lat="42.566464" lon="0.074208">
        <ele>1959.1</ele>
        <time>2014-05-04T10:01:56Z</time>
      </trkpt>
      <trkpt lat="42.566483" lon="0.074311">
        <ele>1959.8</ele>
        <time>2014-05-04T10:02:24Z</time>
      </trkpt>
      <trkpt lat="42.566525" lon="0.074384">
        <ele>1959.6</ele>
        <time>2014-05-04T10:02:53Z</time>
      </trkpt>
      <trkpt lat="42.566574" lon="0.074527">
        <ele>1959.0</ele>
        <time>2014-05-04T10:03:05Z</time>
      </trkpt>
      <trkpt lat="42.566618" lon="0.074663">
        <ele>1958.3</ele>
        <time>2014-05-04T10:03:20Z</time>
      </trkpt>
      <trkpt lat="42.566683" lon="0.074762">
        <ele>1956.9</ele>
        <time>2014-05-04T10:03:42Z</time>
      </trkpt>
      <trkpt lat="42.566721" lon="0.074885">
        <ele>1956.0</ele>
        <time>2014-05-04T10:03:58Z</time>
      </trkpt>
      <trkpt lat="42.566782" lon="0.074983">
        <ele>1954.6</ele>
        <time>2014-05-04T10:04:11Z</time>
      </trkpt>
      <trkpt lat="42.566814" lon="0.075095">
        <ele>1953.0</ele>
        <time>2014-05-04T10:04:24Z</time>
      </trkpt>
      <trkpt lat="42.566890" lon="0.075173">
        <ele>1951.8</ele>
        <time>2014-05-04T10:04:39Z</time>
      </trkpt>
      <trkpt lat="42.566965" lon="0.075228">
        <ele>1952.4</ele>
        <time>2014-05-04T10:04:54Z</time>
      </trkpt>
      <trkpt lat="42.567028" lon="0.075195">
        <ele>1958.2</ele>
        <time>2014-05-04T10:05:22Z</time>
      </trkpt>
      <trkpt lat="42.567089" lon="0.075128">
        <ele>1962.6</ele>
        <time>2014-05-04T10:05:45Z</time>
      </trkpt>
      <trkpt lat="42.567129" lon="0.075057">
        <ele>1965.8</ele>
        <time>2014-05-04T10:06:04Z</time>
      </trkpt>
      <trkpt lat="42.567159" lon="0.075122">
        <ele>1968.7</ele>
        <time>2014-05-04T10:06:31Z</time>
      </trkpt>
      <trkpt lat="42.567214" lon="0.075055">
        <ele>1983.1</ele>
        <time>2014-05-04T10:12:05Z</time>
      </trkpt>
      <trkpt lat="42.567209" lon="0.074931">
        <ele>1986.2</ele>
        <time>2014-05-04T10:12:45Z</time>
      </trkpt>
      <trkpt lat="42.567233" lon="0.074910">
        <ele>1991.9</ele>
        <time>2014-05-04T10:13:25Z</time>
      </trkpt>
      <trkpt lat="42.567313" lon="0.074869">
        <ele>1994.2</ele>
        <time>2014-05-04T10:13:45Z</time>
      </trkpt>
      <trkpt lat="42.567353" lon="0.074766">
        <ele>1999.8</ele>
        <time>2014-05-04T10:14:09Z</time>
      </trkpt>
      <trkpt lat="42.567417" lon="0.074710">
        <ele>2002.3</ele>
        <time>2014-05-04T10:14:28Z</time>
      </trkpt>
      <trkpt lat="42.567454" lon="0.074596">
        <ele>2005.3</ele>
        <time>2014-05-04T10:14:57Z</time>
      </trkpt>
      <trkpt lat="42.567413" lon="0.074473">
        <ele>2006.1</ele>
        <time>2014-05-04T10:15:11Z</time>
      </trkpt>
      <trkpt lat="42.567367" lon="0.074339">
        <ele>2007.7</ele>
        <time>2014-05-04T10:15:25Z</time>
      </trkpt>
      <trkpt lat="42.567351" lon="0.074210">
        <ele>2009.0</ele>
        <time>2014-05-04T10:15:40Z</time>
      </trkpt>
      <trkpt lat="42.567334" lon="0.074079">
        <ele>2010.8</ele>
        <time>2014-05-04T10:16:32Z</time>
      </trkpt>
      <trkpt lat="42.567320" lon="0.073943">
        <ele>2011.5</ele>
        <time>2014-05-04T10:16:42Z</time>
      </trkpt>
      <trkpt lat="42.567306" lon="0.073812">
        <ele>2012.9</ele>
        <time>2014-05-04T10:16:55Z</time>
      </trkpt>
      <trkpt lat="42.567301" lon="0.073685">
        <ele>2015.2</ele>
        <time>2014-05-04T10:17:09Z</time>
      </trkpt>
      <trkpt lat="42.567311" lon="0.073552">
        <ele>2017.6</ele>
        <time>2014-05-04T10:17:24Z</time>
      </trkpt>
      <trkpt lat="42.567295" lon="0.073408">
        <ele>2020.1</ele>
        <time>2014-05-04T10:17:37Z</time>
      </trkpt>
      <trkpt lat="42.567303" lon="0.073284">
        <ele>2021.7</ele>
        <time>2014-05-04T10:17:48Z</time>
      </trkpt>
      <trkpt lat="42.567316" lon="0.073128">
        <ele>2024.1</ele>
        <time>2014-05-04T10:18:03Z</time>
      </trkpt>
      <trkpt lat="42.567324" lon="0.073009">
        <ele>2027.3</ele>
        <time>2014-05-04T10:18:19Z</time>
      </trkpt>
      <trkpt lat="42.567372" lon="0.072886">
        <ele>2029.2</ele>
        <time>2014-05-04T10:18:34Z</time>
      </trkpt>
      <trkpt lat="42.567440" lon="0.072785">
        <ele>2030.5</ele>
        <time>2014-05-04T10:18:52Z</time>
      </trkpt>
      <trkpt lat="42.567455" lon="0.072704">
        <ele>2032.1</ele>
        <time>2014-05-04T10:19:09Z</time>
      </trkpt>
      <trkpt lat="42.567414" lon="0.072599">
        <ele>2032.5</ele>
        <time>2014-05-04T10:19:18Z</time>
      </trkpt>
      <trkpt lat="42.567368" lon="0.072494">
        <ele>2033.6</ele>
        <time>2014-05-04T10:19:28Z</time>
      </trkpt>
      <trkpt lat="42.567340" lon="0.072367">
        <ele>2034.7</ele>
        <time>2014-05-04T10:19:39Z</time>
      </trkpt>
      <trkpt lat="42.567290" lon="0.072264">
        <ele>2035.5</ele>
        <time>2014-05-04T10:19:50Z</time>
      </trkpt>
      <trkpt lat="42.567247" lon="0.072161">
        <ele>2037.3</ele>
        <time>2014-05-04T10:20:04Z</time>
      </trkpt>
      <trkpt lat="42.567183" lon="0.072091">
        <ele>2037.4</ele>
        <time>2014-05-04T10:20:16Z</time>
      </trkpt>
      <trkpt lat="42.567163" lon="0.071987">
        <ele>2036.7</ele>
        <time>2014-05-04T10:21:36Z</time>
      </trkpt>
      <trkpt lat="42.567158" lon="0.071851">
        <ele>2036.8</ele>
        <time>2014-05-04T10:21:47Z</time>
      </trkpt>
      <trkpt lat="42.567127" lon="0.071733">
        <ele>2036.9</ele>
        <time>2014-05-04T10:21:57Z</time>
      </trkpt>
      <trkpt lat="42.567128" lon="0.071620">
        <ele>2037.2</ele>
        <time>2014-05-04T10:22:23Z</time>
      </trkpt>
      <trkpt lat="42.567094" lon="0.071503">
        <ele>2036.9</ele>
        <time>2014-05-04T10:22:32Z</time>
      </trkpt>
      <trkpt lat="42.567068" lon="0.071393">
        <ele>2037.9</ele>
        <time>2014-05-04T10:22:48Z</time>
      </trkpt>
      <trkpt lat="42.567152" lon="0.071350">
        <ele>2038.6</ele>
        <time>2014-05-04T10:23:45Z</time>
      </trkpt>
      <trkpt lat="42.567242" lon="0.071395">
        <ele>2039.0</ele>
        <time>2014-05-04T10:24:00Z</time>
      </trkpt>
      <trkpt lat="42.567323" lon="0.071465">
        <ele>2040.0</ele>
        <time>2014-05-04T10:24:13Z</time>
      </trkpt>
      <trkpt lat="42.567410" lon="0.071427">
        <ele>2041.3</ele>
        <time>2014-05-04T10:24:29Z</time>
      </trkpt>
      <trkpt lat="42.567499" lon="0.071387">
        <ele>2042.1</ele>
        <time>2014-05-04T10:24:41Z</time>
      </trkpt>
      <trkpt lat="42.567593" lon="0.071383">
        <ele>2043.5</ele>
        <time>2014-05-04T10:24:52Z</time>
      </trkpt>
      <trkpt lat="42.567688" lon="0.071382">
        <ele>2044.4</ele>
        <time>2014-05-04T10:25:01Z</time>
      </trkpt>
      <trkpt lat="42.567787" lon="0.071364">
        <ele>2045.6</ele>
        <time>2014-05-04T10:25:10Z</time>
      </trkpt>
      <trkpt lat="42.567871" lon="0.071319">
        <ele>2047.3</ele>
        <time>2014-05-04T10:25:25Z</time>
      </trkpt>
      <trkpt lat="42.567953" lon="0.071241">
        <ele>2048.1</ele>
        <time>2014-05-04T10:25:46Z</time>
      </trkpt>
      <trkpt lat="42.568034" lon="0.071179">
        <ele>2048.7</ele>
        <time>2014-05-04T10:25:55Z</time>
      </trkpt>
      <trkpt lat="42.568109" lon="0.071105">
        <ele>2049.5</ele>
        <time>2014-05-04T10:26:05Z</time>
      </trkpt>
      <trkpt lat="42.568178" lon="0.071007">
        <ele>2050.5</ele>
        <time>2014-05-04T10:26:17Z</time>
      </trkpt>
      <trkpt lat="42.568227" lon="0.070899">
        <ele>2050.9</ele>
        <time>2014-05-04T10:26:27Z</time>
      </trkpt>
      <trkpt lat="42.568287" lon="0.070786">
        <ele>2050.9</ele>
        <time>2014-05-04T10:26:37Z</time>
      </trkpt>
      <trkpt lat="42.568353" lon="0.070687">
        <ele>2051.4</ele>
        <time>2014-05-04T10:26:47Z</time>
      </trkpt>
      <trkpt lat="42.568400" lon="0.070632">
        <ele>2052.0</ele>
        <time>2014-05-04T10:28:51Z</time>
      </trkpt>
      <trkpt lat="42.568426" lon="0.070755">
        <ele>2052.4</ele>
        <time>2014-05-04T10:29:02Z</time>
      </trkpt>
      <trkpt lat="42.568479" lon="0.070859">
        <ele>2052.8</ele>
        <time>2014-05-04T10:29:15Z</time>
      </trkpt>
      <trkpt lat="42.568501" lon="0.070980">
        <ele>2052.8</ele>
        <time>2014-05-04T10:29:24Z</time>
      </trkpt>
      <trkpt lat="42.568529" lon="0.071098">
        <ele>2053.8</ele>
        <time>2014-05-04T10:29:34Z</time>
      </trkpt>
      <trkpt lat="42.568562" lon="0.071214">
        <ele>2053.9</ele>
        <time>2014-05-04T10:29:44Z</time>
      </trkpt>
      <trkpt lat="42.568578" lon="0.071335">
        <ele>2053.9</ele>
        <time>2014-05-04T10:29:53Z</time>
      </trkpt>
      <trkpt lat="42.568625" lon="0.071445">
        <ele>2054.8</ele>
        <time>2014-05-04T10:30:03Z</time>
      </trkpt>
      <trkpt lat="42.568664" lon="0.071530">
        <ele>2054.7</ele>
        <time>2014-05-04T10:30:23Z</time>
      </trkpt>
      <trkpt lat="42.568740" lon="0.071556">
        <ele>2054.5</ele>
        <time>2014-05-04T10:30:57Z</time>
      </trkpt>
      <trkpt lat="42.568838" lon="0.071572">
        <ele>2054.1</ele>
        <time>2014-05-04T10:31:09Z</time>
      </trkpt>
      <trkpt lat="42.568931" lon="0.071578">
        <ele>2054.3</ele>
        <time>2014-05-04T10:31:22Z</time>
      </trkpt>
      <trkpt lat="42.569013" lon="0.071608">
        <ele>2054.4</ele>
        <time>2014-05-04T10:31:31Z</time>
      </trkpt>
      <trkpt lat="42.569086" lon="0.071680">
        <ele>2053.9</ele>
        <time>2014-05-04T10:31:42Z</time>
      </trkpt>
      <trkpt lat="42.569176" lon="0.071719">
        <ele>2053.3</ele>
        <time>2014-05-04T10:31:54Z</time>
      </trkpt>
      <trkpt lat="42.569266" lon="0.071764">
        <ele>2052.6</ele>
        <time>2014-05-04T10:32:05Z</time>
      </trkpt>
      <trkpt lat="42.569359" lon="0.071818">
        <ele>2052.0</ele>
        <time>2014-05-04T10:32:15Z</time>
      </trkpt>
      <trkpt lat="42.569453" lon="0.071828">
        <ele>2051.8</ele>
        <time>2014-05-04T10:32:25Z</time>
      </trkpt>
      <trkpt lat="42.569523" lon="0.071905">
        <ele>2050.9</ele>
        <time>2014-05-04T10:32:35Z</time>
      </trkpt>
      <trkpt lat="42.569595" lon="0.071967">
        <ele>2050.1</ele>
        <time>2014-05-04T10:33:16Z</time>
      </trkpt>
      <trkpt lat="42.569644" lon="0.072071">
        <ele>2048.7</ele>
        <time>2014-05-04T10:33:28Z</time>
      </trkpt>
      <trkpt lat="42.569705" lon="0.072167">
        <ele>2045.9</ele>
        <time>2014-05-04T10:33:40Z</time>
      </trkpt>
      <trkpt lat="42.569777" lon="0.072229">
        <ele>2043.6</ele>
        <time>2014-05-04T10:33:53Z</time>
      </trkpt>
      <trkpt lat="42.569849" lon="0.072301">
        <ele>2041.1</ele>
        <time>2014-05-04T10:34:08Z</time>
      </trkpt>
      <trkpt lat="42.569866" lon="0.072420">
        <ele>2038.1</ele>
        <time>2014-05-04T10:34:24Z</time>
      </trkpt>
      <trkpt lat="42.569856" lon="0.072551">
        <ele>2035.7</ele>
        <time>2014-05-04T10:34:40Z</time>
      </trkpt>
      <trkpt lat="42.569869" lon="0.072654">
        <ele>2033.5</ele>
        <time>2014-05-04T10:34:54Z</time>
      </trkpt>
      <trkpt lat="42.569920" lon="0.072729">
        <ele>2029.8</ele>
        <time>2014-05-04T10:35:23Z</time>
      </trkpt>
      <trkpt lat="42.569986" lon="0.072826">
        <ele>2027.1</ele>
        <time>2014-05-04T10:35:35Z</time>
      </trkpt>
      <trkpt lat="42.570012" lon="0.072960">
        <ele>2024.8</ele>
        <time>2014-05-04T10:35:47Z</time>
      </trkpt>
      <trkpt lat="42.570091" lon="0.073008">
        <ele>2022.7</ele>
        <time>2014-05-04T10:35:59Z</time>
      </trkpt>
      <trkpt lat="42.570156" lon="0.073088">
        <ele>2019.9</ele>
        <time>2014-05-04T10:36:11Z</time>
      </trkpt>
      <trkpt lat="42.570224" lon="0.073145">
        <ele>2017.8</ele>
        <time>2014-05-04T10:36:23Z</time>
      </trkpt>
      <trkpt lat="42.570312" lon="0.073135">
        <ele>2015.6</ele>
        <time>2014-05-04T10:36:34Z</time>
      </trkpt>
      <trkpt lat="42.570386" lon="0.073069">
        <ele>2014.2</ele>
        <time>2014-05-04T10:36:44Z</time>
      </trkpt>
      <trkpt lat="42.570466" lon="0.072997">
        <ele>2013.2</ele>
        <time>2014-05-04T10:36:54Z</time>
      </trkpt>
      <trkpt lat="42.570553" lon="0.072935">
        <ele>2013.1</ele>
        <time>2014-05-04T10:37:07Z</time>
      </trkpt>
      <trkpt lat="42.570636" lon="0.072995">
        <ele>2014.7</ele>
        <time>2014-05-04T10:37:26Z</time>
      </trkpt>
      <trkpt lat="42.570734" lon="0.073009">
        <ele>2014.8</ele>
        <time>2014-05-04T10:37:35Z</time>
      </trkpt>
      <trkpt lat="42.570813" lon="0.072938">
        <ele>2014.9</ele>
        <time>2014-05-04T10:37:46Z</time>
      </trkpt>
      <trkpt lat="42.570911" lon="0.072934">
        <ele>2014.9</ele>
        <time>2014-05-04T10:37:56Z</time>
      </trkpt>
      <trkpt lat="42.571008" lon="0.072901">
        <ele>2014.3</ele>
        <time>2014-05-04T10:38:07Z</time>
      </trkpt>
      <trkpt lat="42.571093" lon="0.072840">
        <ele>2012.9</ele>
        <time>2014-05-04T10:38:16Z</time>
      </trkpt>
      <trkpt lat="42.571189" lon="0.072806">
        <ele>2012.0</ele>
        <time>2014-05-04T10:38:25Z</time>
      </trkpt>
      <trkpt lat="42.571283" lon="0.072767">
        <ele>2011.4</ele>
        <time>2014-05-04T10:38:36Z</time>
      </trkpt>
      <trkpt lat="42.571382" lon="0.072723">
        <ele>2012.3</ele>
        <time>2014-05-04T10:38:47Z</time>
      </trkpt>
      <trkpt lat="42.571431" lon="0.072628">
        <ele>2012.8</ele>
        <time>2014-05-04T10:39:05Z</time>
      </trkpt>
      <trkpt lat="42.571466" lon="0.072507">
        <ele>2013.0</ele>
        <time>2014-05-04T10:39:16Z</time>
      </trkpt>
      <trkpt lat="42.571466" lon="0.072422">
        <ele>2013.4</ele>
        <time>2014-05-04T10:40:07Z</time>
      </trkpt>
      <trkpt lat="42.571475" lon="0.072395">
        <ele>2013.6</ele>
        <time>2014-05-04T10:42:52Z</time>
      </trkpt>
      <trkpt lat="42.571511" lon="0.072288">
        <ele>2012.5</ele>
        <time>2014-05-04T10:43:00Z</time>
      </trkpt>
      <trkpt lat="42.571567" lon="0.072164">
        <ele>2012.1</ele>
        <time>2014-05-04T10:43:10Z</time>
      </trkpt>
      <trkpt lat="42.571665" lon="0.072122">
        <ele>2011.8</ele>
        <time>2014-05-04T10:43:19Z</time>
      </trkpt>
      <trkpt lat="42.571759" lon="0.072122">
        <ele>2011.5</ele>
        <time>2014-05-04T10:43:27Z</time>
      </trkpt>
      <trkpt lat="42.571858" lon="0.072113">
        <ele>2011.4</ele>
        <time>2014-05-04T10:43:36Z</time>
      </trkpt>
      <trkpt lat="42.571957" lon="0.072127">
        <ele>2011.8</ele>
        <time>2014-05-04T10:43:46Z</time>
      </trkpt>
      <trkpt lat="42.572048" lon="0.072181">
        <ele>2012.3</ele>
        <time>2014-05-04T10:43:58Z</time>
      </trkpt>
      <trkpt lat="42.572131" lon="0.072148">
        <ele>2016.0</ele>
        <time>2014-05-04T10:44:15Z</time>
      </trkpt>
      <trkpt lat="42.572233" lon="0.072118">
        <ele>2018.2</ele>
        <time>2014-05-04T10:44:27Z</time>
      </trkpt>
      <trkpt lat="42.572330" lon="0.072092">
        <ele>2018.2</ele>
        <time>2014-05-04T10:44:35Z</time>
      </trkpt>
      <trkpt lat="42.572407" lon="0.072019">
        <ele>2017.6</ele>
        <time>2014-05-04T10:44:44Z</time>
      </trkpt>
      <trkpt lat="42.572492" lon="0.071947">
        <ele>2017.7</ele>
        <time>2014-05-04T10:44:53Z</time>
      </trkpt>
      <trkpt lat="42.572585" lon="0.071909">
        <ele>2017.5</ele>
        <time>2014-05-04T10:45:02Z</time>
      </trkpt>
      <trkpt lat="42.572681" lon="0.071883">
        <ele>2017.3</ele>
        <time>2014-05-04T10:45:13Z</time>
      </trkpt>
      <trkpt lat="42.572767" lon="0.071866">
        <ele>2017.2</ele>
        <time>2014-05-04T10:45:23Z</time>
      </trkpt>
      <trkpt lat="42.572860" lon="0.071842">
        <ele>2016.9</ele>
        <time>2014-05-04T10:45:37Z</time>
      </trkpt>
      <trkpt lat="42.572952" lon="0.071807">
        <ele>2017.3</ele>
        <time>2014-05-04T10:45:49Z</time>
      </trkpt>
      <trkpt lat="42.573038" lon="0.071738">
        <ele>2017.4</ele>
        <time>2014-05-04T10:45:59Z</time>
      </trkpt>
      <trkpt lat="42.573112" lon="0.071661">
        <ele>2017.9</ele>
        <time>2014-05-04T10:46:07Z</time>
      </trkpt>
      <trkpt lat="42.573194" lon="0.071595">
        <ele>2018.4</ele>
        <time>2014-05-04T10:46:15Z</time>
      </trkpt>
      <trkpt lat="42.573272" lon="0.071554">
        <ele>2018.8</ele>
        <time>2014-05-04T10:46:23Z</time>
      </trkpt>
      <trkpt lat="42.573348" lon="0.071471">
        <ele>2018.9</ele>
        <time>2014-05-04T10:46:32Z</time>
      </trkpt>
      <trkpt lat="42.573434" lon="0.071423">
        <ele>2019.1</ele>
        <time>2014-05-04T10:46:41Z</time>
      </trkpt>
      <trkpt lat="42.573526" lon="0.071370">
        <ele>2019.7</ele>
        <time>2014-05-04T10:46:51Z</time>
      </trkpt>
      <trkpt lat="42.573616" lon="0.071314">
        <ele>2020.4</ele>
        <time>2014-05-04T10:47:00Z</time>
      </trkpt>
      <trkpt lat="42.573702" lon="0.071258">
        <ele>2020.6</ele>
        <time>2014-05-04T10:47:09Z</time>
      </trkpt>
      <trkpt lat="42.573789" lon="0.071201">
        <ele>2020.8</ele>
        <time>2014-05-04T10:47:18Z</time>
      </trkpt>
      <trkpt lat="42.573879" lon="0.071142">
        <ele>2021.1</ele>
        <time>2014-05-04T10:47:27Z</time>
      </trkpt>
      <trkpt lat="42.573967" lon="0.071099">
        <ele>2022.0</ele>
        <time>2014-05-04T10:47:36Z</time>
      </trkpt>
      <trkpt lat="42.574023" lon="0.070998">
        <ele>2024.1</ele>
        <time>2014-05-04T10:47:48Z</time>
      </trkpt>
      <trkpt lat="42.574043" lon="0.070885">
        <ele>2027.1</ele>
        <time>2014-05-04T10:47:59Z</time>
      </trkpt>
      <trkpt lat="42.574089" lon="0.070774">
        <ele>2029.0</ele>
        <time>2014-05-04T10:48:10Z</time>
      </trkpt>
      <trkpt lat="42.574138" lon="0.070667">
        <ele>2030.1</ele>
        <time>2014-05-04T10:48:20Z</time>
      </trkpt>
      <trkpt lat="42.574219" lon="0.070616">
        <ele>2030.6</ele>
        <time>2014-05-04T10:48:29Z</time>
      </trkpt>
      <trkpt lat="42.574311" lon="0.070552">
        <ele>2031.3</ele>
        <time>2014-05-04T10:48:41Z</time>
      </trkpt>
      <trkpt lat="42.574400" lon="0.070490">
        <ele>2032.3</ele>
        <time>2014-05-04T10:48:52Z</time>
      </trkpt>
      <trkpt lat="42.574497" lon="0.070469">
        <ele>2035.4</ele>
        <time>2014-05-04T10:49:07Z</time>
      </trkpt>
      <trkpt lat="42.574540" lon="0.070380">
        <ele>2040.4</ele>
        <time>2014-05-04T10:49:26Z</time>
      </trkpt>
      <trkpt lat="42.574603" lon="0.070290">
        <ele>2044.6</ele>
        <time>2014-05-04T10:49:45Z</time>
      </trkpt>
      <trkpt lat="42.574660" lon="0.070187">
        <ele>2047.3</ele>
        <time>2014-05-04T10:50:00Z</time>
      </trkpt>
      <trkpt lat="42.574742" lon="0.070119">
        <ele>2050.4</ele>
        <time>2014-05-04T10:50:17Z</time>
      </trkpt>
      <trkpt lat="42.574802" lon="0.069964">
        <ele>2053.7</ele>
        <time>2014-05-04T10:50:32Z</time>
      </trkpt>
      <trkpt lat="42.574827" lon="0.069832">
        <ele>2054.8</ele>
        <time>2014-05-04T10:50:44Z</time>
      </trkpt>
      <trkpt lat="42.574884" lon="0.069722">
        <ele>2055.9</ele>
        <time>2014-05-04T10:50:55Z</time>
      </trkpt>
      <trkpt lat="42.574943" lon="0.069624">
        <ele>2056.6</ele>
        <time>2014-05-04T10:51:05Z</time>
      </trkpt>
      <trkpt lat="42.574978" lon="0.069494">
        <ele>2057.8</ele>
        <time>2014-05-04T10:51:15Z</time>
      </trkpt>
      <trkpt lat="42.574977" lon="0.069368">
        <ele>2059.3</ele>
        <time>2014-05-04T10:51:25Z</time>
      </trkpt>
      <trkpt lat="42.574984" lon="0.069246">
        <ele>2061.4</ele>
        <time>2014-05-04T10:51:35Z</time>
      </trkpt>
      <trkpt lat="42.575036" lon="0.069122">
        <ele>2064.9</ele>
        <time>2014-05-04T10:51:47Z</time>
      </trkpt>
      <trkpt lat="42.575035" lon="0.069008">
        <ele>2067.5</ele>
        <time>2014-05-04T10:51:59Z</time>
      </trkpt>
      <trkpt lat="42.575032" lon="0.068897">
        <ele>2069.9</ele>
        <time>2014-05-04T10:52:11Z</time>
      </trkpt>
      <trkpt lat="42.575047" lon="0.068766">
        <ele>2071.8</ele>
        <time>2014-05-04T10:52:22Z</time>
      </trkpt>
      <trkpt lat="42.575093" lon="0.068651">
        <ele>2073.3</ele>
        <time>2014-05-04T10:52:32Z</time>
      </trkpt>
      <trkpt lat="42.575090" lon="0.068506">
        <ele>2074.7</ele>
        <time>2014-05-04T10:52:43Z</time>
      </trkpt>
      <trkpt lat="42.575073" lon="0.068381">
        <ele>2076.3</ele>
        <time>2014-05-04T10:52:52Z</time>
      </trkpt>
      <trkpt lat="42.575076" lon="0.068257">
        <ele>2077.9</ele>
        <time>2014-05-04T10:53:01Z</time>
      </trkpt>
      <trkpt lat="42.575075" lon="0.068125">
        <ele>2079.4</ele>
        <time>2014-05-04T10:53:10Z</time>
      </trkpt>
      <trkpt lat="42.575109" lon="0.067999">
        <ele>2080.7</ele>
        <time>2014-05-04T10:53:21Z</time>
      </trkpt>
      <trkpt lat="42.575181" lon="0.067901">
        <ele>2080.9</ele>
        <time>2014-05-04T10:53:34Z</time>
      </trkpt>
      <trkpt lat="42.575166" lon="0.067896">
        <ele>2080.9</ele>
        <time>2014-05-04T10:54:08Z</time>
      </trkpt>
      <trkpt lat="42.575182" lon="0.067899">
        <ele>2080.5</ele>
        <time>2014-05-04T10:55:09Z</time>
      </trkpt>
      <trkpt lat="42.575187" lon="0.067874">
        <ele>2079.2</ele>
        <time>2014-05-04T10:56:55Z</time>
      </trkpt>
      <trkpt lat="42.575204" lon="0.067866">
        <ele>2080.1</ele>
        <time>2014-05-04T11:59:02Z</time>
      </trkpt>
      <trkpt lat="42.575245" lon="0.067891">
        <ele>2080.8</ele>
        <time>2014-05-04T12:00:07Z</time>
      </trkpt>
      <trkpt lat="42.575226" lon="0.067987">
        <ele>2080.5</ele>
        <time>2014-05-04T12:01:15Z</time>
      </trkpt>
      <trkpt lat="42.575161" lon="0.068078">
        <ele>2080.7</ele>
        <time>2014-05-04T12:01:33Z</time>
      </trkpt>
      <trkpt lat="42.575120" lon="0.068183">
        <ele>2080.1</ele>
        <time>2014-05-04T12:01:52Z</time>
      </trkpt>
      <trkpt lat="42.575074" lon="0.068302">
        <ele>2079.2</ele>
        <time>2014-05-04T12:02:05Z</time>
      </trkpt>
      <trkpt lat="42.575018" lon="0.068406">
        <ele>2078.0</ele>
        <time>2014-05-04T12:02:17Z</time>
      </trkpt>
      <trkpt lat="42.574995" lon="0.068521">
        <ele>2076.9</ele>
        <time>2014-05-04T12:02:31Z</time>
      </trkpt>
      <trkpt lat="42.574959" lon="0.068645">
        <ele>2075.1</ele>
        <time>2014-05-04T12:02:45Z</time>
      </trkpt>
      <trkpt lat="42.574923" lon="0.068770">
        <ele>2073.6</ele>
        <time>2014-05-04T12:02:59Z</time>
      </trkpt>
      <trkpt lat="42.574900" lon="0.068886">
        <ele>2072.2</ele>
        <time>2014-05-04T12:03:12Z</time>
      </trkpt>
      <trkpt lat="42.574857" lon="0.069007">
        <ele>2071.0</ele>
        <time>2014-05-04T12:03:26Z</time>
      </trkpt>
      <trkpt lat="42.574824" lon="0.069119">
        <ele>2069.3</ele>
        <time>2014-05-04T12:03:41Z</time>
      </trkpt>
      <trkpt lat="42.574782" lon="0.069232">
        <ele>2066.9</ele>
        <time>2014-05-04T12:03:58Z</time>
      </trkpt>
      <trkpt lat="42.574720" lon="0.069329">
        <ele>2064.8</ele>
        <time>2014-05-04T12:04:09Z</time>
      </trkpt>
      <trkpt lat="42.574657" lon="0.069408">
        <ele>2063.2</ele>
        <time>2014-05-04T12:04:21Z</time>
      </trkpt>
      <trkpt lat="42.574566" lon="0.069446">
        <ele>2061.6</ele>
        <time>2014-05-04T12:04:34Z</time>
      </trkpt>
      <trkpt lat="42.574481" lon="0.069482">
        <ele>2059.1</ele>
        <time>2014-05-04T12:04:51Z</time>
      </trkpt>
      <trkpt lat="42.574419" lon="0.069553">
        <ele>2056.0</ele>
        <time>2014-05-04T12:05:16Z</time>
      </trkpt>
      <trkpt lat="42.574397" lon="0.069657">
        <ele>2053.2</ele>
        <time>2014-05-04T12:05:35Z</time>
      </trkpt>
      <trkpt lat="42.574303" lon="0.069674">
        <ele>2050.8</ele>
        <time>2014-05-04T12:05:46Z</time>
      </trkpt>
      <trkpt lat="42.574215" lon="0.069698">
        <ele>2049.4</ele>
        <time>2014-05-04T12:05:59Z</time>
      </trkpt>
      <trkpt lat="42.574126" lon="0.069763">
        <ele>2049.2</ele>
        <time>2014-05-04T12:06:12Z</time>
      </trkpt>
      <trkpt lat="42.574055" lon="0.069844">
        <ele>2049.4</ele>
        <time>2014-05-04T12:06:22Z</time>
      </trkpt>
      <trkpt lat="42.574024" lon="0.069951">
        <ele>2048.6</ele>
        <time>2014-05-04T12:06:32Z</time>
      </trkpt>
      <trkpt lat="42.573946" lon="0.070008">
        <ele>2047.3</ele>
        <time>2014-05-04T12:06:41Z</time>
      </trkpt>
      <trkpt lat="42.573857" lon="0.070039">
        <ele>2047.2</ele>
        <time>2014-05-04T12:06:51Z</time>
      </trkpt>
      <trkpt lat="42.573767" lon="0.070060">
        <ele>2047.2</ele>
        <time>2014-05-04T12:07:01Z</time>
      </trkpt>
      <trkpt lat="42.573682" lon="0.070112">
        <ele>2046.2</ele>
        <time>2014-05-04T12:07:12Z</time>
      </trkpt>
      <trkpt lat="42.573604" lon="0.070191">
        <ele>2045.1</ele>
        <time>2014-05-04T12:07:22Z</time>
      </trkpt>
      <trkpt lat="42.573506" lon="0.070234">
        <ele>2043.8</ele>
        <time>2014-05-04T12:07:33Z</time>
      </trkpt>
      <trkpt lat="42.573419" lon="0.070292">
        <ele>2042.8</ele>
        <time>2014-05-04T12:07:43Z</time>
      </trkpt>
      <trkpt lat="42.573332" lon="0.070347">
        <ele>2041.8</ele>
        <time>2014-05-04T12:07:53Z</time>
      </trkpt>
      <trkpt lat="42.573266" lon="0.070424">
        <ele>2040.9</ele>
        <time>2014-05-04T12:08:03Z</time>
      </trkpt>
      <trkpt lat="42.573180" lon="0.070461">
        <ele>2039.7</ele>
        <time>2014-05-04T12:08:13Z</time>
      </trkpt>
      <trkpt lat="42.573091" lon="0.070516">
        <ele>2038.9</ele>
        <time>2014-05-04T12:08:22Z</time>
      </trkpt>
      <trkpt lat="42.573046" lon="0.070600">
        <ele>2038.8</ele>
        <time>2014-05-04T12:08:35Z</time>
      </trkpt>
      <trkpt lat="42.572993" lon="0.070694">
        <ele>2038.8</ele>
        <time>2014-05-04T12:09:25Z</time>
      </trkpt>
      <trkpt lat="42.572998" lon="0.070813">
        <ele>2038.2</ele>
        <time>2014-05-04T12:09:41Z</time>
      </trkpt>
      <trkpt lat="42.573012" lon="0.070928">
        <ele>2037.7</ele>
        <time>2014-05-04T12:09:55Z</time>
      </trkpt>
      <trkpt lat="42.573056" lon="0.071016">
        <ele>2034.7</ele>
        <time>2014-05-04T12:10:12Z</time>
      </trkpt>
      <trkpt lat="42.573052" lon="0.071150">
        <ele>2031.3</ele>
        <time>2014-05-04T12:10:25Z</time>
      </trkpt>
      <trkpt lat="42.573026" lon="0.071284">
        <ele>2029.0</ele>
        <time>2014-05-04T12:10:33Z</time>
      </trkpt>
      <trkpt lat="42.573012" lon="0.071411">
        <ele>2027.5</ele>
        <time>2014-05-04T12:10:42Z</time>
      </trkpt>
      <trkpt lat="42.572981" lon="0.071536">
        <ele>2025.7</ele>
        <time>2014-05-04T12:10:52Z</time>
      </trkpt>
      <trkpt lat="42.572915" lon="0.071633">
        <ele>2024.3</ele>
        <time>2014-05-04T12:11:01Z</time>
      </trkpt>
      <trkpt lat="42.572827" lon="0.071676">
        <ele>2023.5</ele>
        <time>2014-05-04T12:11:12Z</time>
      </trkpt>
      <trkpt lat="42.572741" lon="0.071746">
        <ele>2021.3</ele>
        <time>2014-05-04T12:11:21Z</time>
      </trkpt>
      <trkpt lat="42.572646" lon="0.071810">
        <ele>2020.2</ele>
        <time>2014-05-04T12:11:30Z</time>
      </trkpt>
      <trkpt lat="42.572558" lon="0.071870">
        <ele>2019.9</ele>
        <time>2014-05-04T12:11:38Z</time>
      </trkpt>
      <trkpt lat="42.572472" lon="0.071937">
        <ele>2019.5</ele>
        <time>2014-05-04T12:11:47Z</time>
      </trkpt>
      <trkpt lat="42.572398" lon="0.072020">
        <ele>2019.6</ele>
        <time>2014-05-04T12:11:57Z</time>
      </trkpt>
      <trkpt lat="42.572321" lon="0.072072">
        <ele>2019.7</ele>
        <time>2014-05-04T12:12:07Z</time>
      </trkpt>
      <trkpt lat="42.572227" lon="0.072120">
        <ele>2019.7</ele>
        <time>2014-05-04T12:12:17Z</time>
      </trkpt>
      <trkpt lat="42.572182" lon="0.072210">
        <ele>2019.4</ele>
        <time>2014-05-04T12:12:29Z</time>
      </trkpt>
      <trkpt lat="42.572113" lon="0.072215">
        <ele>2017.2</ele>
        <time>2014-05-04T12:12:43Z</time>
      </trkpt>
      <trkpt lat="42.572034" lon="0.072264">
        <ele>2014.8</ele>
        <time>2014-05-04T12:12:51Z</time>
      </trkpt>
      <trkpt lat="42.571941" lon="0.072302">
        <ele>2011.4</ele>
        <time>2014-05-04T12:13:00Z</time>
      </trkpt>
      <trkpt lat="42.571844" lon="0.072330">
        <ele>2009.7</ele>
        <time>2014-05-04T12:13:08Z</time>
      </trkpt>
      <trkpt lat="42.571744" lon="0.072335">
        <ele>2009.2</ele>
        <time>2014-05-04T12:13:16Z</time>
      </trkpt>
      <trkpt lat="42.571646" lon="0.072294">
        <ele>2010.5</ele>
        <time>2014-05-04T12:13:25Z</time>
      </trkpt>
      <trkpt lat="42.571569" lon="0.072240">
        <ele>2012.4</ele>
        <time>2014-05-04T12:13:36Z</time>
      </trkpt>
      <trkpt lat="42.571508" lon="0.072348">
        <ele>2013.2</ele>
        <time>2014-05-04T12:13:48Z</time>
      </trkpt>
      <trkpt lat="42.571483" lon="0.072459">
        <ele>2013.9</ele>
        <time>2014-05-04T12:14:02Z</time>
      </trkpt>
      <trkpt lat="42.571472" lon="0.072589">
        <ele>2013.9</ele>
        <time>2014-05-04T12:14:11Z</time>
      </trkpt>
      <trkpt lat="42.571410" lon="0.072664">
        <ele>2013.8</ele>
        <time>2014-05-04T12:14:20Z</time>
      </trkpt>
      <trkpt lat="42.571349" lon="0.072761">
        <ele>2013.6</ele>
        <time>2014-05-04T12:14:30Z</time>
      </trkpt>
      <trkpt lat="42.571271" lon="0.072831">
        <ele>2012.8</ele>
        <time>2014-05-04T12:14:40Z</time>
      </trkpt>
      <trkpt lat="42.571181" lon="0.072882">
        <ele>2012.0</ele>
        <time>2014-05-04T12:14:49Z</time>
      </trkpt>
      <trkpt lat="42.571100" lon="0.072941">
        <ele>2011.7</ele>
        <time>2014-05-04T12:14:57Z</time>
      </trkpt>
      <trkpt lat="42.571020" lon="0.073012">
        <ele>2011.9</ele>
        <time>2014-05-04T12:15:07Z</time>
      </trkpt>
      <trkpt lat="42.570926" lon="0.073045">
        <ele>2013.1</ele>
        <time>2014-05-04T12:15:18Z</time>
      </trkpt>
      <trkpt lat="42.570835" lon="0.072997">
        <ele>2014.2</ele>
        <time>2014-05-04T12:15:30Z</time>
      </trkpt>
      <trkpt lat="42.570742" lon="0.072976">
        <ele>2015.4</ele>
        <time>2014-05-04T12:15:41Z</time>
      </trkpt>
      <trkpt lat="42.570634" lon="0.072968">
        <ele>2016.3</ele>
        <time>2014-05-04T12:15:51Z</time>
      </trkpt>
      <trkpt lat="42.570584" lon="0.073030">
        <ele>2015.8</ele>
        <time>2014-05-04T12:16:06Z</time>
      </trkpt>
      <trkpt lat="42.570496" lon="0.073050">
        <ele>2014.7</ele>
        <time>2014-05-04T12:16:18Z</time>
      </trkpt>
      <trkpt lat="42.570403" lon="0.073112">
        <ele>2013.2</ele>
        <time>2014-05-04T12:16:28Z</time>
      </trkpt>
      <trkpt lat="42.570306" lon="0.073140">
        <ele>2013.9</ele>
        <time>2014-05-04T12:16:38Z</time>
      </trkpt>
      <trkpt lat="42.570213" lon="0.073154">
        <ele>2015.8</ele>
        <time>2014-05-04T12:16:51Z</time>
      </trkpt>
      <trkpt lat="42.570116" lon="0.073175">
        <ele>2017.7</ele>
        <time>2014-05-04T12:17:04Z</time>
      </trkpt>
      <trkpt lat="42.570015" lon="0.073153">
        <ele>2019.0</ele>
        <time>2014-05-04T12:17:16Z</time>
      </trkpt>
      <trkpt lat="42.569921" lon="0.073126">
        <ele>2022.1</ele>
        <time>2014-05-04T12:17:36Z</time>
      </trkpt>
      <trkpt lat="42.569835" lon="0.073051">
        <ele>2025.1</ele>
        <time>2014-05-04T12:17:52Z</time>
      </trkpt>
      <trkpt lat="42.569723" lon="0.073035">
        <ele>2026.6</ele>
        <time>2014-05-04T12:18:07Z</time>
      </trkpt>
      <trkpt lat="42.569642" lon="0.072977">
        <ele>2029.0</ele>
        <time>2014-05-04T12:18:23Z</time>
      </trkpt>
      <trkpt lat="42.569559" lon="0.072930">
        <ele>2031.6</ele>
        <time>2014-05-04T12:18:38Z</time>
      </trkpt>
      <trkpt lat="42.569463" lon="0.072897">
        <ele>2033.8</ele>
        <time>2014-05-04T12:18:52Z</time>
      </trkpt>
      <trkpt lat="42.569361" lon="0.072896">
        <ele>2035.8</ele>
        <time>2014-05-04T12:19:06Z</time>
      </trkpt>
      <trkpt lat="42.569259" lon="0.072875">
        <ele>2037.9</ele>
        <time>2014-05-04T12:19:21Z</time>
      </trkpt>
      <trkpt lat="42.569155" lon="0.072842">
        <ele>2040.5</ele>
        <time>2014-05-04T12:19:36Z</time>
      </trkpt>
      <trkpt lat="42.569061" lon="0.072837">
        <ele>2041.5</ele>
        <time>2014-05-04T12:19:47Z</time>
      </trkpt>
      <trkpt lat="42.568967" lon="0.072805">
        <ele>2041.8</ele>
        <time>2014-05-04T12:19:57Z</time>
      </trkpt>
      <trkpt lat="42.568876" lon="0.072746">
        <ele>2042.0</ele>
        <time>2014-05-04T12:20:08Z</time>
      </trkpt>
      <trkpt lat="42.568777" lon="0.072736">
        <ele>2041.4</ele>
        <time>2014-05-04T12:20:18Z</time>
      </trkpt>
      <trkpt lat="42.568692" lon="0.072729">
        <ele>2040.9</ele>
        <time>2014-05-04T12:20:27Z</time>
      </trkpt>
      <trkpt lat="42.568596" lon="0.072737">
        <ele>2040.2</ele>
        <time>2014-05-04T12:20:37Z</time>
      </trkpt>
      <trkpt lat="42.568501" lon="0.072723">
        <ele>2040.4</ele>
        <time>2014-05-04T12:20:50Z</time>
      </trkpt>
      <trkpt lat="42.568399" lon="0.072717">
        <ele>2040.7</ele>
        <time>2014-05-04T12:21:01Z</time>
      </trkpt>
      <trkpt lat="42.568307" lon="0.072712">
        <ele>2041.3</ele>
        <time>2014-05-04T12:21:11Z</time>
      </trkpt>
      <trkpt lat="42.568213" lon="0.072705">
        <ele>2041.6</ele>
        <time>2014-05-04T12:21:21Z</time>
      </trkpt>
      <trkpt lat="42.568108" lon="0.072684">
        <ele>2041.7</ele>
        <time>2014-05-04T12:21:31Z</time>
      </trkpt>
      <trkpt lat="42.568010" lon="0.072655">
        <ele>2041.4</ele>
        <time>2014-05-04T12:21:41Z</time>
      </trkpt>
      <trkpt lat="42.567916" lon="0.072614">
        <ele>2041.5</ele>
        <time>2014-05-04T12:21:52Z</time>
      </trkpt>
      <trkpt lat="42.567824" lon="0.072552">
        <ele>2041.2</ele>
        <time>2014-05-04T12:22:04Z</time>
      </trkpt>
      <trkpt lat="42.567739" lon="0.072506">
        <ele>2040.1</ele>
        <time>2014-05-04T12:22:17Z</time>
      </trkpt>
      <trkpt lat="42.567656" lon="0.072461">
        <ele>2038.6</ele>
        <time>2014-05-04T12:23:05Z</time>
      </trkpt>
      <trkpt lat="42.567561" lon="0.072462">
        <ele>2038.0</ele>
        <time>2014-05-04T12:23:16Z</time>
      </trkpt>
      <trkpt lat="42.567464" lon="0.072494">
        <ele>2036.8</ele>
        <time>2014-05-04T12:23:25Z</time>
      </trkpt>
      <trkpt lat="42.567379" lon="0.072538">
        <ele>2035.5</ele>
        <time>2014-05-04T12:23:35Z</time>
      </trkpt>
      <trkpt lat="42.567449" lon="0.072744">
        <ele>2053.8</ele>
        <time>2014-05-04T12:23:46Z</time>
      </trkpt>
      <trkpt lat="42.567322" lon="0.073002">
        <ele>2049.9</ele>
        <time>2014-05-04T12:24:00Z</time>
      </trkpt>
      <trkpt lat="42.567297" lon="0.073431">
        <ele>2044.8</ele>
        <time>2014-05-04T12:24:54Z</time>
      </trkpt>
      <trkpt lat="42.567299" lon="0.073666">
        <ele>2042.4</ele>
        <time>2014-05-04T12:35:25Z</time>
      </trkpt>
      <trkpt lat="42.567316" lon="0.073861">
        <ele>2040.3</ele>
        <time>2014-05-04T12:38:53Z</time>
      </trkpt>
      <trkpt lat="42.567344" lon="0.074140">
        <ele>2037.4</ele>
        <time>2014-05-04T12:39:04Z</time>
      </trkpt>
      <trkpt lat="42.567414" lon="0.074497">
        <ele>2032.3</ele>
        <time>2014-05-04T12:39:13Z</time>
      </trkpt>
      <trkpt lat="42.567433" lon="0.074661">
        <ele>2029.8</ele>
        <time>2014-05-04T12:39:32Z</time>
      </trkpt>
      <trkpt lat="42.567394" lon="0.074776">
        <ele>2002.2</ele>
        <time>2014-05-04T12:39:49Z</time>
      </trkpt>
      <trkpt lat="42.567354" lon="0.074882">
        <ele>1996.6</ele>
        <time>2014-05-04T12:40:28Z</time>
      </trkpt>
      <trkpt lat="42.567288" lon="0.074908">
        <ele>1993.0</ele>
        <time>2014-05-04T12:40:57Z</time>
      </trkpt>
      <trkpt lat="42.567296" lon="0.075047">
        <ele>1989.2</ele>
        <time>2014-05-04T12:41:18Z</time>
      </trkpt>
      <trkpt lat="42.567256" lon="0.075113">
        <ele>1983.8</ele>
        <time>2014-05-04T12:41:47Z</time>
      </trkpt>
      <trkpt lat="42.567197" lon="0.075143">
        <ele>1980.1</ele>
        <time>2014-05-04T12:42:22Z</time>
      </trkpt>
      <trkpt lat="42.567147" lon="0.075151">
        <ele>1976.0</ele>
        <time>2014-05-04T12:43:06Z</time>
      </trkpt>
      <trkpt lat="42.567070" lon="0.075130">
        <ele>1971.2</ele>
        <time>2014-05-04T12:43:27Z</time>
      </trkpt>
      <trkpt lat="42.567043" lon="0.075148">
        <ele>1967.1</ele>
        <time>2014-05-04T12:43:51Z</time>
      </trkpt>
      <trkpt lat="42.567078" lon="0.075266">
        <ele>1965.3</ele>
        <time>2014-05-04T12:44:05Z</time>
      </trkpt>
      <trkpt lat="42.567056" lon="0.075368">
        <ele>1959.7</ele>
        <time>2014-05-04T12:44:36Z</time>
      </trkpt>
      <trkpt lat="42.566977" lon="0.075443">
        <ele>1956.7</ele>
        <time>2014-05-04T12:44:56Z</time>
      </trkpt>
      <trkpt lat="42.566899" lon="0.075389">
        <ele>1951.3</ele>
        <time>2014-05-04T12:45:29Z</time>
      </trkpt>
      <trkpt lat="42.566849" lon="0.075273">
        <ele>1950.7</ele>
        <time>2014-05-04T12:45:48Z</time>
      </trkpt>
      <trkpt lat="42.566783" lon="0.075153">
        <ele>1951.9</ele>
        <time>2014-05-04T12:46:03Z</time>
      </trkpt>
      <trkpt lat="42.566742" lon="0.075013">
        <ele>1954.2</ele>
        <time>2014-05-04T12:46:19Z</time>
      </trkpt>
      <trkpt lat="42.566717" lon="0.074874">
        <ele>1955.8</ele>
        <time>2014-05-04T12:46:35Z</time>
      </trkpt>
      <trkpt lat="42.566638" lon="0.074766">
        <ele>1956.9</ele>
        <time>2014-05-04T12:46:51Z</time>
      </trkpt>
      <trkpt lat="42.566595" lon="0.074639">
        <ele>1958.4</ele>
        <time>2014-05-04T12:47:05Z</time>
      </trkpt>
      <trkpt lat="42.566538" lon="0.074497">
        <ele>1959.1</ele>
        <time>2014-05-04T12:47:19Z</time>
      </trkpt>
      <trkpt lat="42.566488" lon="0.074370">
        <ele>1959.4</ele>
        <time>2014-05-04T12:47:32Z</time>
      </trkpt>
      <trkpt lat="42.566416" lon="0.074281">
        <ele>1959.8</ele>
        <time>2014-05-04T12:47:45Z</time>
      </trkpt>
      <trkpt lat="42.566353" lon="0.074182">
        <ele>1958.7</ele>
        <time>2014-05-04T12:47:59Z</time>
      </trkpt>
      <trkpt lat="42.566321" lon="0.074056">
        <ele>1959.0</ele>
        <time>2014-05-04T12:48:13Z</time>
      </trkpt>
      <trkpt lat="42.566266" lon="0.073926">
        <ele>1959.8</ele>
        <time>2014-05-04T12:48:27Z</time>
      </trkpt>
      <trkpt lat="42.566178" lon="0.073824">
        <ele>1960.2</ele>
        <time>2014-05-04T12:48:41Z</time>
      </trkpt>
      <trkpt lat="42.566097" lon="0.073737">
        <ele>1960.2</ele>
        <time>2014-05-04T12:48:56Z</time>
      </trkpt>
      <trkpt lat="42.566033" lon="0.073653">
        <ele>1960.6</ele>
        <time>2014-05-04T12:49:33Z</time>
      </trkpt>
      <trkpt lat="42.565965" lon="0.073563">
        <ele>1960.2</ele>
        <time>2014-05-04T12:49:46Z</time>
      </trkpt>
      <trkpt lat="42.565866" lon="0.073529">
        <ele>1961.1</ele>
        <time>2014-05-04T12:50:00Z</time>
      </trkpt>
      <trkpt lat="42.565762" lon="0.073551">
        <ele>1960.7</ele>
        <time>2014-05-04T12:50:15Z</time>
      </trkpt>
      <trkpt lat="42.565656" lon="0.073588">
        <ele>1960.6</ele>
        <time>2014-05-04T12:50:33Z</time>
      </trkpt>
      <trkpt lat="42.565566" lon="0.073628">
        <ele>1960.5</ele>
        <time>2014-05-04T12:50:46Z</time>
      </trkpt>
      <trkpt lat="42.565474" lon="0.073658">
        <ele>1960.1</ele>
        <time>2014-05-04T12:50:59Z</time>
      </trkpt>
      <trkpt lat="42.565386" lon="0.073672">
        <ele>1959.3</ele>
        <time>2014-05-04T12:51:13Z</time>
      </trkpt>
      <trkpt lat="42.565287" lon="0.073657">
        <ele>1958.7</ele>
        <time>2014-05-04T12:51:33Z</time>
      </trkpt>
      <trkpt lat="42.565186" lon="0.073680">
        <ele>1956.9</ele>
        <time>2014-05-04T12:51:45Z</time>
      </trkpt>
      <trkpt lat="42.565117" lon="0.073609">
        <ele>1956.2</ele>
        <time>2014-05-04T12:51:55Z</time>
      </trkpt>
      <trkpt lat="42.565041" lon="0.073553">
        <ele>1956.7</ele>
        <time>2014-05-04T12:52:08Z</time>
      </trkpt>
      <trkpt lat="42.564976" lon="0.073497">
        <ele>1953.7</ele>
        <time>2014-05-04T12:52:20Z</time>
      </trkpt>
      <trkpt lat="42.564897" lon="0.073533">
        <ele>1946.8</ele>
        <time>2014-05-04T12:52:57Z</time>
      </trkpt>
      <trkpt lat="42.564849" lon="0.073486">
        <ele>1943.3</ele>
        <time>2014-05-04T12:53:31Z</time>
      </trkpt>
      <trkpt lat="42.564769" lon="0.073431">
        <ele>1939.9</ele>
        <time>2014-05-04T12:56:15Z</time>
      </trkpt>
      <trkpt lat="42.564718" lon="0.073519">
        <ele>1937.0</ele>
        <time>2014-05-04T12:56:35Z</time>
      </trkpt>
      <trkpt lat="42.564705" lon="0.073569">
        <ele>1935.2</ele>
        <time>2014-05-04T12:57:19Z</time>
      </trkpt>
      <trkpt lat="42.564614" lon="0.073617">
        <ele>1933.0</ele>
        <time>2014-05-04T12:57:30Z</time>
      </trkpt>
      <trkpt lat="42.564573" lon="0.073557">
        <ele>1927.7</ele>
        <time>2014-05-04T12:57:56Z</time>
      </trkpt>
      <trkpt lat="42.564534" lon="0.073483">
        <ele>1923.4</ele>
        <time>2014-05-04T12:58:26Z</time>
      </trkpt>
      <trkpt lat="42.564484" lon="0.073502">
        <ele>1920.9</ele>
        <time>2014-05-04T13:02:36Z</time>
      </trkpt>
      <trkpt lat="42.564467" lon="0.073392">
        <ele>1917.5</ele>
        <time>2014-05-04T13:03:01Z</time>
      </trkpt>
      <trkpt lat="42.564458" lon="0.073310">
        <ele>1913.3</ele>
        <time>2014-05-04T13:03:25Z</time>
      </trkpt>
      <trkpt lat="42.564459" lon="0.073252">
        <ele>1909.1</ele>
        <time>2014-05-04T13:03:52Z</time>
      </trkpt>
      <trkpt lat="42.564449" lon="0.073218">
        <ele>1906.0</ele>
        <time>2014-05-04T13:04:30Z</time>
      </trkpt>
      <trkpt lat="42.564443" lon="0.073131">
        <ele>1902.5</ele>
        <time>2014-05-04T13:05:05Z</time>
      </trkpt>
      <trkpt lat="42.564428" lon="0.073066">
        <ele>1897.3</ele>
        <time>2014-05-04T13:06:48Z</time>
      </trkpt>
      <trkpt lat="42.564389" lon="0.072997">
        <ele>1894.2</ele>
        <time>2014-05-04T13:07:06Z</time>
      </trkpt>
      <trkpt lat="42.564385" lon="0.072913">
        <ele>1887.7</ele>
        <time>2014-05-04T13:07:41Z</time>
      </trkpt>
      <trkpt lat="42.564384" lon="0.072847">
        <ele>1881.9</ele>
        <time>2014-05-04T13:08:26Z</time>
      </trkpt>
      <trkpt lat="42.564450" lon="0.072768">
        <ele>1879.5</ele>
        <time>2014-05-04T13:08:50Z</time>
      </trkpt>
      <trkpt lat="42.564506" lon="0.072705">
        <ele>1879.4</ele>
        <time>2014-05-04T13:09:06Z</time>
      </trkpt>
      <trkpt lat="42.564478" lon="0.072684">
        <ele>1876.1</ele>
        <time>2014-05-04T13:09:34Z</time>
      </trkpt>
      <trkpt lat="42.564442" lon="0.072634">
        <ele>1872.7</ele>
        <time>2014-05-04T13:09:58Z</time>
      </trkpt>
      <trkpt lat="42.564425" lon="0.072616">
        <ele>1870.3</ele>
        <time>2014-05-04T13:10:49Z</time>
      </trkpt>
      <trkpt lat="42.564446" lon="0.072551">
        <ele>1869.1</ele>
        <time>2014-05-04T13:11:17Z</time>
      </trkpt>
      <trkpt lat="42.564394" lon="0.072539">
        <ele>1864.2</ele>
        <time>2014-05-04T13:11:44Z</time>
      </trkpt>
      <trkpt lat="42.564383" lon="0.072473">
        <ele>1861.4</ele>
        <time>2014-05-04T13:12:05Z</time>
      </trkpt>
      <trkpt lat="42.564335" lon="0.072401">
        <ele>1857.2</ele>
        <time>2014-05-04T13:12:22Z</time>
      </trkpt>
      <trkpt lat="42.564301" lon="0.072343">
        <ele>1852.4</ele>
        <time>2014-05-04T13:12:42Z</time>
      </trkpt>
      <trkpt lat="42.564284" lon="0.072236">
        <ele>1848.9</ele>
        <time>2014-05-04T13:12:57Z</time>
      </trkpt>
      <trkpt lat="42.564200" lon="0.072135">
        <ele>1844.7</ele>
        <time>2014-05-04T13:13:19Z</time>
      </trkpt>
      <trkpt lat="42.564147" lon="0.072058">
        <ele>1841.2</ele>
        <time>2014-05-04T13:13:30Z</time>
      </trkpt>
      <trkpt lat="42.564099" lon="0.071938">
        <ele>1837.4</ele>
        <time>2014-05-04T13:13:43Z</time>
      </trkpt>
      <trkpt lat="42.564079" lon="0.071771">
        <ele>1824.7</ele>
        <time>2014-05-04T13:16:07Z</time>
      </trkpt>
      <trkpt lat="42.564035" lon="0.071666">
        <ele>1820.7</ele>
        <time>2014-05-04T13:16:28Z</time>
      </trkpt>
      <trkpt lat="42.563994" lon="0.071589">
        <ele>1816.1</ele>
        <time>2014-05-04T13:17:03Z</time>
      </trkpt>
      <trkpt lat="42.563945" lon="0.071522">
        <ele>1811.3</ele>
        <time>2014-05-04T13:17:45Z</time>
      </trkpt>
      <trkpt lat="42.563890" lon="0.071418">
        <ele>1808.7</ele>
        <time>2014-05-04T13:18:01Z</time>
      </trkpt>
      <trkpt lat="42.563881" lon="0.071328">
        <ele>1805.3</ele>
        <time>2014-05-04T13:18:19Z</time>
      </trkpt>
      <trkpt lat="42.563855" lon="0.071231">
        <ele>1801.2</ele>
        <time>2014-05-04T13:18:44Z</time>
      </trkpt>
      <trkpt lat="42.563875" lon="0.071111">
        <ele>1797.0</ele>
        <time>2014-05-04T13:19:03Z</time>
      </trkpt>
      <trkpt lat="42.563884" lon="0.071032">
        <ele>1793.2</ele>
        <time>2014-05-04T13:19:37Z</time>
      </trkpt>
      <trkpt lat="42.563948" lon="0.071032">
        <ele>1790.6</ele>
        <time>2014-05-04T13:19:57Z</time>
      </trkpt>
      <trkpt lat="42.563992" lon="0.070962">
        <ele>1787.2</ele>
        <time>2014-05-04T13:20:16Z</time>
      </trkpt>
      <trkpt lat="42.564015" lon="0.070903">
        <ele>1782.6</ele>
        <time>2014-05-04T13:20:40Z</time>
      </trkpt>
      <trkpt lat="42.564104" lon="0.070873">
        <ele>1779.2</ele>
        <time>2014-05-04T13:20:58Z</time>
      </trkpt>
      <trkpt lat="42.564095" lon="0.070776">
        <ele>1775.3</ele>
        <time>2014-05-04T13:21:15Z</time>
      </trkpt>
      <trkpt lat="42.564136" lon="0.070738">
        <ele>1769.8</ele>
        <time>2014-05-04T13:21:39Z</time>
      </trkpt>
      <trkpt lat="42.564159" lon="0.070655">
        <ele>1764.8</ele>
        <time>2014-05-04T13:22:04Z</time>
      </trkpt>
      <trkpt lat="42.564173" lon="0.070636">
        <ele>1762.5</ele>
        <time>2014-05-04T13:22:52Z</time>
      </trkpt>
      <trkpt lat="42.564153" lon="0.070527">
        <ele>1760.3</ele>
        <time>2014-05-04T13:23:12Z</time>
      </trkpt>
      <trkpt lat="42.564125" lon="0.070420">
        <ele>1755.4</ele>
        <time>2014-05-04T13:23:31Z</time>
      </trkpt>
      <trkpt lat="42.564160" lon="0.070332">
        <ele>1749.8</ele>
        <time>2014-05-04T13:23:54Z</time>
      </trkpt>
      <trkpt lat="42.564137" lon="0.070219">
        <ele>1743.3</ele>
        <time>2014-05-04T13:24:19Z</time>
      </trkpt>
      <trkpt lat="42.564157" lon="0.070109">
        <ele>1739.2</ele>
        <time>2014-05-04T13:24:45Z</time>
      </trkpt>
      <trkpt lat="42.564113" lon="0.070029">
        <ele>1735.1</ele>
        <time>2014-05-04T13:25:07Z</time>
      </trkpt>
      <trkpt lat="42.564127" lon="0.069986">
        <ele>1730.6</ele>
        <time>2014-05-04T13:25:42Z</time>
      </trkpt>
      <trkpt lat="42.564161" lon="0.069876">
        <ele>1728.5</ele>
        <time>2014-05-04T13:26:02Z</time>
      </trkpt>
      <trkpt lat="42.564170" lon="0.069781">
        <ele>1725.6</ele>
        <time>2014-05-04T13:26:13Z</time>
      </trkpt>
      <trkpt lat="42.564141" lon="0.069742">
        <ele>1720.4</ele>
        <time>2014-05-04T13:26:30Z</time>
      </trkpt>
      <trkpt lat="42.564124" lon="0.069648">
        <ele>1715.9</ele>
        <time>2014-05-04T13:26:46Z</time>
      </trkpt>
      <trkpt lat="42.564104" lon="0.069516">
        <ele>1711.6</ele>
        <time>2014-05-04T13:26:58Z</time>
      </trkpt>
      <trkpt lat="42.564072" lon="0.069410">
        <ele>1707.7</ele>
        <time>2014-05-04T13:27:06Z</time>
      </trkpt>
      <trkpt lat="42.564057" lon="0.069331">
        <ele>1703.4</ele>
        <time>2014-05-04T13:27:14Z</time>
      </trkpt>
      <trkpt lat="42.564068" lon="0.069222">
        <ele>1694.8</ele>
        <time>2014-05-04T13:27:31Z</time>
      </trkpt>
      <trkpt lat="42.564064" lon="0.069135">
        <ele>1690.9</ele>
        <time>2014-05-04T13:28:09Z</time>
      </trkpt>
      <trkpt lat="42.564021" lon="0.069069">
        <ele>1688.9</ele>
        <time>2014-05-04T13:28:21Z</time>
      </trkpt>
      <trkpt lat="42.563999" lon="0.068983">
        <ele>1684.6</ele>
        <time>2014-05-04T13:28:33Z</time>
      </trkpt>
      <trkpt lat="42.563993" lon="0.068863">
        <ele>1678.6</ele>
        <time>2014-05-04T13:28:49Z</time>
      </trkpt>
      <trkpt lat="42.563936" lon="0.068795">
        <ele>1670.6</ele>
        <time>2014-05-04T13:33:56Z</time>
      </trkpt>
      <trkpt lat="42.563861" lon="0.068748">
        <ele>1669.9</ele>
        <time>2014-05-04T13:34:46Z</time>
      </trkpt>
      <trkpt lat="42.563801" lon="0.068652">
        <ele>1667.9</ele>
        <time>2014-05-04T13:34:57Z</time>
      </trkpt>
      <trkpt lat="42.563743" lon="0.068577">
        <ele>1666.3</ele>
        <time>2014-05-04T13:35:08Z</time>
      </trkpt>
      <trkpt lat="42.563671" lon="0.068489">
        <ele>1663.1</ele>
        <time>2014-05-04T13:35:20Z</time>
      </trkpt>
      <trkpt lat="42.563587" lon="0.068402">
        <ele>1659.3</ele>
        <time>2014-05-04T13:35:34Z</time>
      </trkpt>
      <trkpt lat="42.563474" lon="0.068349">
        <ele>1655.8</ele>
        <time>2014-05-04T13:35:49Z</time>
      </trkpt>
      <trkpt lat="42.563361" lon="0.068271">
        <ele>1652.9</ele>
        <time>2014-05-04T13:36:06Z</time>
      </trkpt>
      <trkpt lat="42.563274" lon="0.068148">
        <ele>1649.2</ele>
        <time>2014-05-04T13:36:29Z</time>
      </trkpt>
      <trkpt lat="42.563224" lon="0.068103">
        <ele>1647.4</ele>
        <time>2014-05-04T13:37:01Z</time>
      </trkpt>
      <trkpt lat="42.563117" lon="0.068166">
        <ele>1646.6</ele>
        <time>2014-05-04T13:37:17Z</time>
      </trkpt>
      <trkpt lat="42.562989" lon="0.068233">
        <ele>1645.3</ele>
        <time>2014-05-04T13:37:32Z</time>
      </trkpt>
      <trkpt lat="42.562892" lon="0.068351">
        <ele>1645.5</ele>
        <time>2014-05-04T13:37:45Z</time>
      </trkpt>
      <trkpt lat="42.562784" lon="0.068472">
        <ele>1644.9</ele>
        <time>2014-05-04T13:37:59Z</time>
      </trkpt>
      <trkpt lat="42.562673" lon="0.068594">
        <ele>1645.2</ele>
        <time>2014-05-04T13:38:16Z</time>
      </trkpt>
      <trkpt lat="42.562608" lon="0.068707">
        <ele>1645.6</ele>
        <time>2014-05-04T13:38:36Z</time>
      </trkpt>
      <trkpt lat="42.562492" lon="0.068808">
        <ele>1646.2</ele>
        <time>2014-05-04T13:38:55Z</time>
      </trkpt>
      <trkpt lat="42.562418" lon="0.068971">
        <ele>1647.0</ele>
        <time>2014-05-04T13:39:10Z</time>
      </trkpt>
      <trkpt lat="42.562318" lon="0.069073">
        <ele>1647.2</ele>
        <time>2014-05-04T13:39:24Z</time>
      </trkpt>
      <trkpt lat="42.562279" lon="0.069240">
        <ele>1646.8</ele>
        <time>2014-05-04T13:39:37Z</time>
      </trkpt>
      <trkpt lat="42.562200" lon="0.069365">
        <ele>1645.8</ele>
        <time>2014-05-04T13:39:49Z</time>
      </trkpt>
      <trkpt lat="42.562122" lon="0.069493">
        <ele>1645.4</ele>
        <time>2014-05-04T13:40:02Z</time>
      </trkpt>
      <trkpt lat="42.562031" lon="0.069596">
        <ele>1644.6</ele>
        <time>2014-05-04T13:40:14Z</time>
      </trkpt>
      <trkpt lat="42.561933" lon="0.069676">
        <ele>1644.4</ele>
        <time>2014-05-04T13:40:26Z</time>
      </trkpt>
      <trkpt lat="42.561827" lon="0.069757">
        <ele>1643.3</ele>
        <time>2014-05-04T13:40:39Z</time>
      </trkpt>
      <trkpt lat="42.561770" lon="0.069887">
        <ele>1642.3</ele>
        <time>2014-05-04T13:40:52Z</time>
      </trkpt>
      <trkpt lat="42.561682" lon="0.070011">
        <ele>1642.1</ele>
        <time>2014-05-04T13:41:05Z</time>
      </trkpt>
      <trkpt lat="42.561626" lon="0.070148">
        <ele>1642.4</ele>
        <time>2014-05-04T13:41:16Z</time>
      </trkpt>
      <trkpt lat="42.561533" lon="0.070245">
        <ele>1642.3</ele>
        <time>2014-05-04T13:41:27Z</time>
      </trkpt>
      <trkpt lat="42.561483" lon="0.070390">
        <ele>1642.9</ele>
        <time>2014-05-04T13:41:40Z</time>
      </trkpt>
      <trkpt lat="42.561476" lon="0.070559">
        <ele>1643.5</ele>
        <time>2014-05-04T13:41:55Z</time>
      </trkpt>
      <trkpt lat="42.561398" lon="0.070715">
        <ele>1644.3</ele>
        <time>2014-05-04T13:42:13Z</time>
      </trkpt>
      <trkpt lat="42.561342" lon="0.070843">
        <ele>1645.9</ele>
        <time>2014-05-04T13:42:27Z</time>
      </trkpt>
      <trkpt lat="42.561366" lon="0.071014">
        <ele>1647.6</ele>
        <time>2014-05-04T13:42:44Z</time>
      </trkpt>
      <trkpt lat="42.561410" lon="0.071154">
        <ele>1648.8</ele>
        <time>2014-05-04T13:42:58Z</time>
      </trkpt>
      <trkpt lat="42.561445" lon="0.071281">
        <ele>1650.1</ele>
        <time>2014-05-04T13:43:13Z</time>
      </trkpt>
      <trkpt lat="42.561438" lon="0.071461">
        <ele>1652.0</ele>
        <time>2014-05-04T13:43:31Z</time>
      </trkpt>
      <trkpt lat="42.561423" lon="0.071625">
        <ele>1654.9</ele>
        <time>2014-05-04T13:43:52Z</time>
      </trkpt>
      <trkpt lat="42.561411" lon="0.071771">
        <ele>1657.4</ele>
        <time>2014-05-04T13:44:09Z</time>
      </trkpt>
      <trkpt lat="42.561473" lon="0.071991">
        <ele>1659.0</ele>
        <time>2014-05-04T13:44:25Z</time>
      </trkpt>
      <trkpt lat="42.561457" lon="0.072184">
        <ele>1659.0</ele>
        <time>2014-05-04T13:44:38Z</time>
      </trkpt>
      <trkpt lat="42.561456" lon="0.072352">
        <ele>1659.6</ele>
        <time>2014-05-04T13:44:52Z</time>
      </trkpt>
      <trkpt lat="42.561440" lon="0.072505">
        <ele>1660.5</ele>
        <time>2014-05-04T13:45:06Z</time>
      </trkpt>
      <trkpt lat="42.561425" lon="0.072646">
        <ele>1661.0</ele>
        <time>2014-05-04T13:45:19Z</time>
      </trkpt>
      <trkpt lat="42.561380" lon="0.072764">
        <ele>1661.6</ele>
        <time>2014-05-04T13:45:38Z</time>
      </trkpt>
      <trkpt lat="42.561336" lon="0.072904">
        <ele>1660.9</ele>
        <time>2014-05-04T13:45:53Z</time>
      </trkpt>
      <trkpt lat="42.561345" lon="0.073089">
        <ele>1660.9</ele>
        <time>2014-05-04T13:46:09Z</time>
      </trkpt>
      <trkpt lat="42.561301" lon="0.073211">
        <ele>1661.7</ele>
        <time>2014-05-04T13:46:24Z</time>
      </trkpt>
      <trkpt lat="42.561208" lon="0.073344">
        <ele>1661.8</ele>
        <time>2014-05-04T13:46:42Z</time>
      </trkpt>
      <trkpt lat="42.561107" lon="0.073431">
        <ele>1661.0</ele>
        <time>2014-05-04T13:46:57Z</time>
      </trkpt>
      <trkpt lat="42.561001" lon="0.073554">
        <ele>1658.8</ele>
        <time>2014-05-04T13:47:17Z</time>
      </trkpt>
      <trkpt lat="42.560867" lon="0.073587">
        <ele>1658.7</ele>
        <time>2014-05-04T13:47:33Z</time>
      </trkpt>
      <trkpt lat="42.560813" lon="0.073609">
        <ele>1658.1</ele>
        <time>2014-05-04T13:48:09Z</time>
      </trkpt>
      <trkpt lat="42.560689" lon="0.073623">
        <ele>1658.7</ele>
        <time>2014-05-04T13:48:25Z</time>
      </trkpt>
      <trkpt lat="42.560579" lon="0.073679">
        <ele>1658.7</ele>
        <time>2014-05-04T13:48:38Z</time>
      </trkpt>
      <trkpt lat="42.560498" lon="0.073793">
        <ele>1657.5</ele>
        <time>2014-05-04T13:48:52Z</time>
      </trkpt>
      <trkpt lat="42.560417" lon="0.073910">
        <ele>1656.9</ele>
        <time>2014-05-04T13:49:06Z</time>
      </trkpt>
      <trkpt lat="42.560337" lon="0.074046">
        <ele>1657.0</ele>
        <time>2014-05-04T13:49:21Z</time>
      </trkpt>
      <trkpt lat="42.560265" lon="0.074146">
        <ele>1656.1</ele>
        <time>2014-05-04T13:49:35Z</time>
      </trkpt>
      <trkpt lat="42.560174" lon="0.074262">
        <ele>1656.8</ele>
        <time>2014-05-04T13:49:50Z</time>
      </trkpt>
      <trkpt lat="42.560075" lon="0.074361">
        <ele>1656.8</ele>
        <time>2014-05-04T13:50:05Z</time>
      </trkpt>
      <trkpt lat="42.559981" lon="0.074460">
        <ele>1656.9</ele>
        <time>2014-05-04T13:50:17Z</time>
      </trkpt>
      <trkpt lat="42.559888" lon="0.074569">
        <ele>1657.5</ele>
        <time>2014-05-04T13:50:29Z</time>
      </trkpt>
      <trkpt lat="42.559825" lon="0.074686">
        <ele>1657.1</ele>
        <time>2014-05-04T13:50:41Z</time>
      </trkpt>
      <trkpt lat="42.559731" lon="0.074771">
        <ele>1657.3</ele>
        <time>2014-05-04T13:50:54Z</time>
      </trkpt>
      <trkpt lat="42.559638" lon="0.074828">
        <ele>1656.6</ele>
        <time>2014-05-04T13:51:09Z</time>
      </trkpt>
      <trkpt lat="42.559502" lon="0.074829">
        <ele>1656.1</ele>
        <time>2014-05-04T13:51:22Z</time>
      </trkpt>
      <trkpt lat="42.559406" lon="0.074859">
        <ele>1655.7</ele>
        <time>2014-05-04T13:51:35Z</time>
      </trkpt>
      <trkpt lat="42.559283" lon="0.074904">
        <ele>1655.1</ele>
        <time>2014-05-04T13:51:50Z</time>
      </trkpt>
      <trkpt lat="42.559158" lon="0.074925">
        <ele>1654.4</ele>
        <time>2014-05-04T13:52:03Z</time>
      </trkpt>
      <trkpt lat="42.559081" lon="0.075014">
        <ele>1654.2</ele>
        <time>2014-05-04T13:52:14Z</time>
      </trkpt>
      <trkpt lat="42.559024" lon="0.075126">
        <ele>1654.1</ele>
        <time>2014-05-04T13:52:25Z</time>
      </trkpt>
      <trkpt lat="42.558977" lon="0.075263">
        <ele>1652.9</ele>
        <time>2014-05-04T13:52:37Z</time>
      </trkpt>
      <trkpt lat="42.558934" lon="0.075396">
        <ele>1651.7</ele>
        <time>2014-05-04T13:52:49Z</time>
      </trkpt>
      <trkpt lat="42.558867" lon="0.075534">
        <ele>1652.4</ele>
        <time>2014-05-04T13:53:02Z</time>
      </trkpt>
      <trkpt lat="42.558842" lon="0.075692">
        <ele>1652.0</ele>
        <time>2014-05-04T13:53:14Z</time>
      </trkpt>
      <trkpt lat="42.558841" lon="0.075853">
        <ele>1651.7</ele>
        <time>2014-05-04T13:53:26Z</time>
      </trkpt>
      <trkpt lat="42.558788" lon="0.075999">
        <ele>1651.4</ele>
        <time>2014-05-04T13:53:38Z</time>
      </trkpt>
      <trkpt lat="42.558727" lon="0.076118">
        <ele>1651.8</ele>
        <time>2014-05-04T13:53:49Z</time>
      </trkpt>
      <trkpt lat="42.558709" lon="0.076294">
        <ele>1652.1</ele>
        <time>2014-05-04T13:54:00Z</time>
      </trkpt>
      <trkpt lat="42.558701" lon="0.076421">
        <ele>1651.7</ele>
        <time>2014-05-04T13:54:12Z</time>
      </trkpt>
      <trkpt lat="42.558698" lon="0.076565">
        <ele>1651.2</ele>
        <time>2014-05-04T13:54:27Z</time>
      </trkpt>
      <trkpt lat="42.558693" lon="0.076721">
        <ele>1650.0</ele>
        <time>2014-05-04T13:54:41Z</time>
      </trkpt>
      <trkpt lat="42.558679" lon="0.076880">
        <ele>1649.1</ele>
        <time>2014-05-04T13:54:54Z</time>
      </trkpt>
      <trkpt lat="42.558659" lon="0.077047">
        <ele>1648.9</ele>
        <time>2014-05-04T13:55:05Z</time>
      </trkpt>
      <trkpt lat="42.558629" lon="0.077216">
        <ele>1648.2</ele>
        <time>2014-05-04T13:55:17Z</time>
      </trkpt>
      <trkpt lat="42.558578" lon="0.077348">
        <ele>1647.2</ele>
        <time>2014-05-04T13:55:30Z</time>
      </trkpt>
      <trkpt lat="42.558543" lon="0.077462">
        <ele>1646.4</ele>
        <time>2014-05-04T13:55:48Z</time>
      </trkpt>
      <trkpt lat="42.558466" lon="0.077580">
        <ele>1646.2</ele>
        <time>2014-05-04T13:56:02Z</time>
      </trkpt>
      <trkpt lat="42.558431" lon="0.077702">
        <ele>1645.6</ele>
        <time>2014-05-04T13:56:11Z</time>
      </trkpt>
      <trkpt lat="42.558386" lon="0.077819">
        <ele>1644.2</ele>
        <time>2014-05-04T13:56:25Z</time>
      </trkpt>
      <trkpt lat="42.558353" lon="0.077959">
        <ele>1642.1</ele>
        <time>2014-05-04T13:56:36Z</time>
      </trkpt>
      <trkpt lat="42.558310" lon="0.078084">
        <ele>1641.1</ele>
        <time>2014-05-04T13:56:48Z</time>
      </trkpt>
      <trkpt lat="42.558284" lon="0.078207">
        <ele>1639.8</ele>
        <time>2014-05-04T13:56:59Z</time>
      </trkpt>
      <trkpt lat="42.558264" lon="0.078335">
        <ele>1637.8</ele>
        <time>2014-05-04T13:57:47Z</time>
      </trkpt>
      <trkpt lat="42.558254" lon="0.078483">
        <ele>1636.9</ele>
        <time>2014-05-04T13:58:01Z</time>
      </trkpt>
      <trkpt lat="42.558236" lon="0.078621">
        <ele>1635.3</ele>
        <time>2014-05-04T13:58:34Z</time>
      </trkpt>
      <trkpt lat="42.558222" lon="0.078735">
        <ele>1633.8</ele>
        <time>2014-05-04T13:58:45Z</time>
      </trkpt>
      <trkpt lat="42.558143" lon="0.078846">
        <ele>1636.8</ele>
        <time>2014-05-04T13:58:56Z</time>
      </trkpt>
      <trkpt lat="42.558046" lon="0.078980">
        <ele>1634.6</ele>
        <time>2014-05-04T13:59:12Z</time>
      </trkpt>
      <trkpt lat="42.557904" lon="0.079132">
        <ele>1633.8</ele>
        <time>2014-05-04T13:59:23Z</time>
      </trkpt>
      <trkpt lat="42.557838" lon="0.079177">
        <ele>1634.5</ele>
        <time>2014-05-04T14:02:52Z</time>
      </trkpt>
      <trkpt lat="42.557715" lon="0.079268">
        <ele>1617.4</ele>
        <time>2014-05-04T14:03:03Z</time>
      </trkpt>
      <trkpt lat="42.557619" lon="0.079292">
        <ele>1614.3</ele>
        <time>2014-05-04T14:03:15Z</time>
      </trkpt>
      <trkpt lat="42.557537" lon="0.079363">
        <ele>1611.4</ele>
        <time>2014-05-04T14:03:27Z</time>
      </trkpt>
      <trkpt lat="42.557447" lon="0.079440">
        <ele>1609.2</ele>
        <time>2014-05-04T14:03:38Z</time>
      </trkpt>
      <trkpt lat="42.557375" lon="0.079529">
        <ele>1607.1</ele>
        <time>2014-05-04T14:03:48Z</time>
      </trkpt>
      <trkpt lat="42.557307" lon="0.079624">
        <ele>1604.5</ele>
        <time>2014-05-04T14:03:59Z</time>
      </trkpt>
      <trkpt lat="42.557254" lon="0.079725">
        <ele>1602.3</ele>
        <time>2014-05-04T14:04:10Z</time>
      </trkpt>
      <trkpt lat="42.557191" lon="0.079832">
        <ele>1600.3</ele>
        <time>2014-05-04T14:04:22Z</time>
      </trkpt>
      <trkpt lat="42.557128" lon="0.079936">
        <ele>1598.5</ele>
        <time>2014-05-04T14:04:33Z</time>
      </trkpt>
      <trkpt lat="42.557045" lon="0.080034">
        <ele>1595.9</ele>
        <time>2014-05-04T14:04:47Z</time>
      </trkpt>
      <trkpt lat="42.556967" lon="0.080108">
        <ele>1594.1</ele>
        <time>2014-05-04T14:04:59Z</time>
      </trkpt>
      <trkpt lat="42.556873" lon="0.080143">
        <ele>1592.2</ele>
        <time>2014-05-04T14:05:10Z</time>
      </trkpt>
      <trkpt lat="42.556786" lon="0.080155">
        <ele>1591.5</ele>
        <time>2014-05-04T14:05:27Z</time>
      </trkpt>
      <trkpt lat="42.556814" lon="0.080023">
        <ele>1588.7</ele>
        <time>2014-05-04T14:05:57Z</time>
      </trkpt>
      <trkpt lat="42.556903" lon="0.079942">
        <ele>1584.7</ele>
        <time>2014-05-04T14:06:15Z</time>
      </trkpt>
      <trkpt lat="42.556974" lon="0.079775">
        <ele>1580.3</ele>
        <time>2014-05-04T14:06:32Z</time>
      </trkpt>
      <trkpt lat="42.556932" lon="0.079733">
        <ele>1575.2</ele>
        <time>2014-05-04T14:06:52Z</time>
      </trkpt>
      <trkpt lat="42.556870" lon="0.079679">
        <ele>1570.0</ele>
        <time>2014-05-04T14:07:13Z</time>
      </trkpt>
      <trkpt lat="42.556877" lon="0.079542">
        <ele>1565.7</ele>
        <time>2014-05-04T14:07:33Z</time>
      </trkpt>
      <trkpt lat="42.556828" lon="0.079445">
        <ele>1560.7</ele>
        <time>2014-05-04T14:07:54Z</time>
      </trkpt>
      <trkpt lat="42.556915" lon="0.079391">
        <ele>1555.2</ele>
        <time>2014-05-04T14:08:20Z</time>
      </trkpt>
      <trkpt lat="42.556987" lon="0.079353">
        <ele>1553.9</ele>
        <time>2014-05-04T14:08:42Z</time>
      </trkpt>
      <trkpt lat="42.557011" lon="0.079234">
        <ele>1551.1</ele>
        <time>2014-05-04T14:08:57Z</time>
      </trkpt>
      <trkpt lat="42.556973" lon="0.079190">
        <ele>1547.7</ele>
        <time>2014-05-04T14:09:14Z</time>
      </trkpt>
      <trkpt lat="42.556918" lon="0.079178">
        <ele>1545.1</ele>
        <time>2014-05-04T14:10:14Z</time>
      </trkpt>
      <trkpt lat="42.556960" lon="0.079115">
        <ele>1541.4</ele>
        <time>2014-05-04T14:10:45Z</time>
      </trkpt>
      <trkpt lat="42.557028" lon="0.079051">
        <ele>1538.7</ele>
        <time>2014-05-04T14:11:05Z</time>
      </trkpt>
      <trkpt lat="42.557051" lon="0.078969">
        <ele>1531.0</ele>
        <time>2014-05-04T14:12:13Z</time>
      </trkpt>
      <trkpt lat="42.557025" lon="0.078841">
        <ele>1526.7</ele>
        <time>2014-05-04T14:12:30Z</time>
      </trkpt>
      <trkpt lat="42.557063" lon="0.078778">
        <ele>1525.6</ele>
        <time>2014-05-04T14:12:45Z</time>
      </trkpt>
      <trkpt lat="42.557065" lon="0.078651">
        <ele>1524.7</ele>
        <time>2014-05-04T14:13:00Z</time>
      </trkpt>
      <trkpt lat="42.557016" lon="0.078528">
        <ele>1520.8</ele>
        <time>2014-05-04T14:13:17Z</time>
      </trkpt>
      <trkpt lat="42.556942" lon="0.078430">
        <ele>1516.9</ele>
        <time>2014-05-04T14:13:29Z</time>
      </trkpt>
      <trkpt lat="42.556902" lon="0.078292">
        <ele>1513.8</ele>
        <time>2014-05-04T14:13:42Z</time>
      </trkpt>
      <trkpt lat="42.556897" lon="0.078250">
        <ele>1513.3</ele>
        <time>2014-05-04T14:14:00Z</time>
      </trkpt>
      <trkpt lat="42.556963" lon="0.078276">
        <ele>1514.1</ele>
        <time>2014-05-04T14:14:29Z</time>
      </trkpt>
      <trkpt lat="42.556974" lon="0.078342">
        <ele>1514.4</ele>
        <time>2014-05-04T14:15:03Z</time>
      </trkpt>
      <trkpt lat="42.557056" lon="0.078327">
        <ele>1515.3</ele>
        <time>2014-05-04T14:15:34Z</time>
      </trkpt>
      <trkpt lat="42.557158" lon="0.078307">
        <ele>1516.6</ele>
        <time>2014-05-04T14:16:00Z</time>
      </trkpt>
      <trkpt lat="42.557253" lon="0.078256">
        <ele>1519.3</ele>
        <time>2014-05-04T14:16:18Z</time>
      </trkpt>
      <trkpt lat="42.557353" lon="0.078148">
        <ele>1521.2</ele>
        <time>2014-05-04T14:16:36Z</time>
      </trkpt>
      <trkpt lat="42.557421" lon="0.078010">
        <ele>1522.8</ele>
        <time>2014-05-04T14:16:49Z</time>
      </trkpt>
      <trkpt lat="42.557456" lon="0.077883">
        <ele>1522.4</ele>
        <time>2014-05-04T14:16:59Z</time>
      </trkpt>
      <trkpt lat="42.557507" lon="0.077742">
        <ele>1522.8</ele>
        <time>2014-05-04T14:17:11Z</time>
      </trkpt>
      <trkpt lat="42.557553" lon="0.077605">
        <ele>1523.7</ele>
        <time>2014-05-04T14:17:22Z</time>
      </trkpt>
      <trkpt lat="42.557658" lon="0.077509">
        <ele>1524.3</ele>
        <time>2014-05-04T14:17:35Z</time>
      </trkpt>
      <trkpt lat="42.557749" lon="0.077415">
        <ele>1524.5</ele>
        <time>2014-05-04T14:17:45Z</time>
      </trkpt>
      <trkpt lat="42.557850" lon="0.077332">
        <ele>1525.4</ele>
        <time>2014-05-04T14:17:57Z</time>
      </trkpt>
      <trkpt lat="42.557935" lon="0.077224">
        <ele>1525.1</ele>
        <time>2014-05-04T14:18:09Z</time>
      </trkpt>
      <trkpt lat="42.557978" lon="0.077093">
        <ele>1524.5</ele>
        <time>2014-05-04T14:18:19Z</time>
      </trkpt>
      <trkpt lat="42.558026" lon="0.076960">
        <ele>1525.2</ele>
        <time>2014-05-04T14:18:31Z</time>
      </trkpt>
      <trkpt lat="42.558088" lon="0.076841">
        <ele>1525.1</ele>
        <time>2014-05-04T14:18:42Z</time>
      </trkpt>
      <trkpt lat="42.558190" lon="0.076736">
        <ele>1523.8</ele>
        <time>2014-05-04T14:18:55Z</time>
      </trkpt>
      <trkpt lat="42.558208" lon="0.076578">
        <ele>1521.8</ele>
        <time>2014-05-04T14:19:08Z</time>
      </trkpt>
      <trkpt lat="42.558177" lon="0.076446">
        <ele>1521.3</ele>
        <time>2014-05-04T14:19:20Z</time>
      </trkpt>
      <trkpt lat="42.558133" lon="0.076313">
        <ele>1521.6</ele>
        <time>2014-05-04T14:19:29Z</time>
      </trkpt>
      <trkpt lat="42.558105" lon="0.076168">
        <ele>1522.1</ele>
        <time>2014-05-04T14:19:38Z</time>
      </trkpt>
      <trkpt lat="42.558121" lon="0.076033">
        <ele>1523.4</ele>
        <time>2014-05-04T14:19:51Z</time>
      </trkpt>
      <trkpt lat="42.558144" lon="0.075899">
        <ele>1524.9</ele>
        <time>2014-05-04T14:20:02Z</time>
      </trkpt>
      <trkpt lat="42.558211" lon="0.075804">
        <ele>1524.8</ele>
        <time>2014-05-04T14:20:12Z</time>
      </trkpt>
      <trkpt lat="42.558297" lon="0.075721">
        <ele>1525.1</ele>
        <time>2014-05-04T14:20:23Z</time>
      </trkpt>
      <trkpt lat="42.558465" lon="0.075734">
        <ele>1524.3</ele>
        <time>2014-05-04T14:20:40Z</time>
      </trkpt>
      <trkpt lat="42.558557" lon="0.075640">
        <ele>1524.5</ele>
        <time>2014-05-04T14:20:52Z</time>
      </trkpt>
      <trkpt lat="42.558581" lon="0.075511">
        <ele>1524.8</ele>
        <time>2014-05-04T14:21:03Z</time>
      </trkpt>
      <trkpt lat="42.558577" lon="0.075362">
        <ele>1525.3</ele>
        <time>2014-05-04T14:21:15Z</time>
      </trkpt>
      <trkpt lat="42.558559" lon="0.075218">
        <ele>1524.6</ele>
        <time>2014-05-04T14:21:24Z</time>
      </trkpt>
      <trkpt lat="42.558529" lon="0.075084">
        <ele>1523.6</ele>
        <time>2014-05-04T14:21:35Z</time>
      </trkpt>
      <trkpt lat="42.558528" lon="0.074956">
        <ele>1523.8</ele>
        <time>2014-05-04T14:21:44Z</time>
      </trkpt>
      <trkpt lat="42.558494" lon="0.074852">
        <ele>1523.2</ele>
        <time>2014-05-04T14:21:53Z</time>
      </trkpt>
      <trkpt lat="42.558456" lon="0.074744">
        <ele>1522.4</ele>
        <time>2014-05-04T14:22:04Z</time>
      </trkpt>
      <trkpt lat="42.558406" lon="0.074627">
        <ele>1523.4</ele>
        <time>2014-05-04T14:22:14Z</time>
      </trkpt>
      <trkpt lat="42.558368" lon="0.074509">
        <ele>1523.6</ele>
        <time>2014-05-04T14:22:25Z</time>
      </trkpt>
      <trkpt lat="42.558352" lon="0.074384">
        <ele>1524.0</ele>
        <time>2014-05-04T14:22:34Z</time>
      </trkpt>
      <trkpt lat="42.558352" lon="0.074257">
        <ele>1524.4</ele>
        <time>2014-05-04T14:22:44Z</time>
      </trkpt>
      <trkpt lat="42.558323" lon="0.074132">
        <ele>1524.1</ele>
        <time>2014-05-04T14:22:52Z</time>
      </trkpt>
      <trkpt lat="42.558334" lon="0.074018">
        <ele>1523.4</ele>
        <time>2014-05-04T14:23:00Z</time>
      </trkpt>
      <trkpt lat="42.558342" lon="0.073892">
        <ele>1523.1</ele>
        <time>2014-05-04T14:23:08Z</time>
      </trkpt>
      <trkpt lat="42.558346" lon="0.073768">
        <ele>1522.8</ele>
        <time>2014-05-04T14:23:16Z</time>
      </trkpt>
      <trkpt lat="42.558364" lon="0.073650">
        <ele>1522.4</ele>
        <time>2014-05-04T14:23:23Z</time>
      </trkpt>
      <trkpt lat="42.558454" lon="0.073606">
        <ele>1522.2</ele>
        <time>2014-05-04T14:23:33Z</time>
      </trkpt>
      <trkpt lat="42.558551" lon="0.073619">
        <ele>1522.1</ele>
        <time>2014-05-04T14:23:44Z</time>
      </trkpt>
      <trkpt lat="42.558677" lon="0.073729">
        <ele>1520.7</ele>
        <time>2014-05-04T14:23:56Z</time>
      </trkpt>
      <trkpt lat="42.558771" lon="0.073804">
        <ele>1520.1</ele>
        <time>2014-05-04T14:24:06Z</time>
      </trkpt>
      <trkpt lat="42.558886" lon="0.073887">
        <ele>1519.4</ele>
        <time>2014-05-04T14:24:19Z</time>
      </trkpt>
      <trkpt lat="42.558998" lon="0.073871">
        <ele>1519.2</ele>
        <time>2014-05-04T14:24:30Z</time>
      </trkpt>
      <trkpt lat="42.559111" lon="0.073825">
        <ele>1519.0</ele>
        <time>2014-05-04T14:24:41Z</time>
      </trkpt>
      <trkpt lat="42.559230" lon="0.073730">
        <ele>1518.4</ele>
        <time>2014-05-04T14:24:54Z</time>
      </trkpt>
      <trkpt lat="42.559293" lon="0.073600">
        <ele>1517.9</ele>
        <time>2014-05-04T14:25:06Z</time>
      </trkpt>
      <trkpt lat="42.559263" lon="0.073419">
        <ele>1516.0</ele>
        <time>2014-05-04T14:25:18Z</time>
      </trkpt>
      <trkpt lat="42.559235" lon="0.073282">
        <ele>1513.9</ele>
        <time>2014-05-04T14:25:27Z</time>
      </trkpt>
      <trkpt lat="42.559257" lon="0.073139">
        <ele>1511.8</ele>
        <time>2014-05-04T14:25:37Z</time>
      </trkpt>
      <trkpt lat="42.559338" lon="0.073089">
        <ele>1510.1</ele>
        <time>2014-05-04T14:26:05Z</time>
      </trkpt>
      <trkpt lat="42.559441" lon="0.073068">
        <ele>1510.0</ele>
        <time>2014-05-04T14:26:14Z</time>
      </trkpt>
      <trkpt lat="42.559545" lon="0.072976">
        <ele>1508.7</ele>
        <time>2014-05-04T14:26:24Z</time>
      </trkpt>
      <trkpt lat="42.559602" lon="0.072800">
        <ele>1506.0</ele>
        <time>2014-05-04T14:26:33Z</time>
      </trkpt>
      <trkpt lat="42.559626" lon="0.072599">
        <ele>1505.2</ele>
        <time>2014-05-04T14:26:42Z</time>
      </trkpt>
      <trkpt lat="42.559663" lon="0.072461">
        <ele>1505.7</ele>
        <time>2014-05-04T14:26:49Z</time>
      </trkpt>
      <trkpt lat="42.559720" lon="0.072298">
        <ele>1506.0</ele>
        <time>2014-05-04T14:27:00Z</time>
      </trkpt>
      <trkpt lat="42.559834" lon="0.072269">
        <ele>1504.8</ele>
        <time>2014-05-04T14:27:13Z</time>
      </trkpt>
      <trkpt lat="42.559981" lon="0.072247">
        <ele>1504.8</ele>
        <time>2014-05-04T14:27:23Z</time>
      </trkpt>
      <trkpt lat="42.560088" lon="0.072220">
        <ele>1504.9</ele>
        <time>2014-05-04T14:27:35Z</time>
      </trkpt>
      <trkpt lat="42.560242" lon="0.072086">
        <ele>1505.5</ele>
        <time>2014-05-04T14:27:48Z</time>
      </trkpt>
      <trkpt lat="42.560277" lon="0.071958">
        <ele>1504.8</ele>
        <time>2014-05-04T14:27:59Z</time>
      </trkpt>
      <trkpt lat="42.560250" lon="0.071792">
        <ele>1503.5</ele>
        <time>2014-05-04T14:28:08Z</time>
      </trkpt>
      <trkpt lat="42.560219" lon="0.071643">
        <ele>1501.1</ele>
        <time>2014-05-04T14:28:17Z</time>
      </trkpt>
      <trkpt lat="42.560140" lon="0.071476">
        <ele>1498.9</ele>
        <time>2014-05-04T14:28:30Z</time>
      </trkpt>
      <trkpt lat="42.560057" lon="0.071369">
        <ele>1496.8</ele>
        <time>2014-05-04T14:28:44Z</time>
      </trkpt>
      <trkpt lat="42.559968" lon="0.071296">
        <ele>1496.5</ele>
        <time>2014-05-04T14:28:53Z</time>
      </trkpt>
      <trkpt lat="42.559944" lon="0.071186">
        <ele>1496.6</ele>
        <time>2014-05-04T14:29:04Z</time>
      </trkpt>
      <trkpt lat="42.559896" lon="0.071105">
        <ele>1494.7</ele>
        <time>2014-05-04T14:29:14Z</time>
      </trkpt>
      <trkpt lat="42.559779" lon="0.071047">
        <ele>1492.2</ele>
        <time>2014-05-04T14:29:25Z</time>
      </trkpt>
      <trkpt lat="42.559704" lon="0.070983">
        <ele>1489.8</ele>
        <time>2014-05-04T14:29:35Z</time>
      </trkpt>
      <trkpt lat="42.559625" lon="0.070914">
        <ele>1488.1</ele>
        <time>2014-05-04T14:29:44Z</time>
      </trkpt>
      <trkpt lat="42.559521" lon="0.070835">
        <ele>1486.2</ele>
        <time>2014-05-04T14:29:53Z</time>
      </trkpt>
      <trkpt lat="42.559481" lon="0.070736">
        <ele>1484.4</ele>
        <time>2014-05-04T14:30:02Z</time>
      </trkpt>
      <trkpt lat="42.559439" lon="0.070628">
        <ele>1482.8</ele>
        <time>2014-05-04T14:30:10Z</time>
      </trkpt>
      <trkpt lat="42.559445" lon="0.070533">
        <ele>1480.5</ele>
        <time>2014-05-04T14:30:19Z</time>
      </trkpt>
      <trkpt lat="42.559497" lon="0.070412">
        <ele>1478.3</ele>
        <time>2014-05-04T14:30:29Z</time>
      </trkpt>
      <trkpt lat="42.559537" lon="0.070286">
        <ele>1475.7</ele>
        <time>2014-05-04T14:30:40Z</time>
      </trkpt>
      <trkpt lat="42.559578" lon="0.070142">
        <ele>1473.4</ele>
        <time>2014-05-04T14:30:52Z</time>
      </trkpt>
      <trkpt lat="42.559595" lon="0.069998">
        <ele>1470.8</ele>
        <time>2014-05-04T14:31:03Z</time>
      </trkpt>
      <trkpt lat="42.559587" lon="0.069852">
        <ele>1469.0</ele>
        <time>2014-05-04T14:31:13Z</time>
      </trkpt>
      <trkpt lat="42.559581" lon="0.069723">
        <ele>1466.6</ele>
        <time>2014-05-04T14:31:24Z</time>
      </trkpt>
      <trkpt lat="42.559518" lon="0.069624">
        <ele>1463.3</ele>
        <time>2014-05-04T14:31:37Z</time>
      </trkpt>
      <trkpt lat="42.559482" lon="0.069501">
        <ele>1459.9</ele>
        <time>2014-05-04T14:31:48Z</time>
      </trkpt>
      <trkpt lat="42.559465" lon="0.069358">
        <ele>1456.3</ele>
        <time>2014-05-04T14:32:00Z</time>
      </trkpt>
      <trkpt lat="42.559471" lon="0.069218">
        <ele>1453.7</ele>
        <time>2014-05-04T14:32:11Z</time>
      </trkpt>
      <trkpt lat="42.559488" lon="0.069129">
        <ele>1451.5</ele>
        <time>2014-05-04T14:32:21Z</time>
      </trkpt>
      <trkpt lat="42.559583" lon="0.069087">
        <ele>1449.0</ele>
        <time>2014-05-04T14:32:33Z</time>
      </trkpt>
      <trkpt lat="42.559686" lon="0.069100">
        <ele>1446.6</ele>
        <time>2014-05-04T14:32:47Z</time>
      </trkpt>
      <trkpt lat="42.559811" lon="0.069047">
        <ele>1444.1</ele>
        <time>2014-05-04T14:33:00Z</time>
      </trkpt>
      <trkpt lat="42.559926" lon="0.069022">
        <ele>1443.1</ele>
        <time>2014-05-04T14:33:10Z</time>
      </trkpt>
      <trkpt lat="42.560010" lon="0.069014">
        <ele>1442.7</ele>
        <time>2014-05-04T14:33:21Z</time>
      </trkpt>
      <trkpt lat="42.560129" lon="0.068941">
        <ele>1441.6</ele>
        <time>2014-05-04T14:33:32Z</time>
      </trkpt>
      <trkpt lat="42.560217" lon="0.068827">
        <ele>1442.6</ele>
        <time>2014-05-04T14:33:44Z</time>
      </trkpt>
      <trkpt lat="42.560264" lon="0.068631">
        <ele>1442.1</ele>
        <time>2014-05-04T14:34:00Z</time>
      </trkpt>
      <trkpt lat="42.560259" lon="0.068478">
        <ele>1439.7</ele>
        <time>2014-05-04T14:34:13Z</time>
      </trkpt>
      <trkpt lat="42.560276" lon="0.068326">
        <ele>1437.6</ele>
        <time>2014-05-04T14:34:25Z</time>
      </trkpt>
      <trkpt lat="42.560255" lon="0.068159">
        <ele>1436.6</ele>
        <time>2014-05-04T14:34:36Z</time>
      </trkpt>
      <trkpt lat="42.560229" lon="0.068013">
        <ele>1438.1</ele>
        <time>2014-05-04T14:34:50Z</time>
      </trkpt>
      <trkpt lat="42.560256" lon="0.067877">
        <ele>1436.1</ele>
        <time>2014-05-04T14:35:02Z</time>
      </trkpt>
      <trkpt lat="42.560283" lon="0.067742">
        <ele>1433.4</ele>
        <time>2014-05-04T14:35:12Z</time>
      </trkpt>
      <trkpt lat="42.560314" lon="0.067605">
        <ele>1430.2</ele>
        <time>2014-05-04T14:35:23Z</time>
      </trkpt>
      <trkpt lat="42.560375" lon="0.067483">
        <ele>1428.0</ele>
        <time>2014-05-04T14:35:35Z</time>
      </trkpt>
      <trkpt lat="42.560402" lon="0.067323">
        <ele>1424.9</ele>
        <time>2014-05-04T14:35:48Z</time>
      </trkpt>
      <trkpt lat="42.560379" lon="0.067240">
        <ele>1420.6</ele>
        <time>2014-05-04T14:36:09Z</time>
      </trkpt>
      <trkpt lat="42.560397" lon="0.067095">
        <ele>1418.0</ele>
        <time>2014-05-04T14:36:23Z</time>
      </trkpt>
      <trkpt lat="42.560390" lon="0.066953">
        <ele>1414.5</ele>
        <time>2014-05-04T14:36:35Z</time>
      </trkpt>
      <trkpt lat="42.560300" lon="0.066847">
        <ele>1412.7</ele>
        <time>2014-05-04T14:36:46Z</time>
      </trkpt>
      <trkpt lat="42.560228" lon="0.066766">
        <ele>1408.4</ele>
        <time>2014-05-04T14:37:00Z</time>
      </trkpt>
      <trkpt lat="42.560204" lon="0.066663">
        <ele>1405.2</ele>
        <time>2014-05-04T14:37:14Z</time>
      </trkpt>
      <trkpt lat="42.560190" lon="0.066559">
        <ele>1400.9</ele>
        <time>2014-05-04T14:37:31Z</time>
      </trkpt>
      <trkpt lat="42.560229" lon="0.066425">
        <ele>1397.2</ele>
        <time>2014-05-04T14:37:48Z</time>
      </trkpt>
      <trkpt lat="42.560241" lon="0.066309">
        <ele>1393.1</ele>
        <time>2014-05-04T14:38:08Z</time>
      </trkpt>
      <trkpt lat="42.560259" lon="0.066176">
        <ele>1390.1</ele>
        <time>2014-05-04T14:38:24Z</time>
      </trkpt>
      <trkpt lat="42.560280" lon="0.066035">
        <ele>1386.3</ele>
        <time>2014-05-04T14:38:41Z</time>
      </trkpt>
      <trkpt lat="42.560244" lon="0.065938">
        <ele>1382.8</ele>
        <time>2014-05-04T14:38:57Z</time>
      </trkpt>
      <trkpt lat="42.560321" lon="0.065841">
        <ele>1379.5</ele>
        <time>2014-05-04T14:39:11Z</time>
      </trkpt>
      <trkpt lat="42.560405" lon="0.065727">
        <ele>1377.7</ele>
        <time>2014-05-04T14:39:24Z</time>
      </trkpt>
      <trkpt lat="42.560472" lon="0.065583">
        <ele>1376.6</ele>
        <time>2014-05-04T14:39:38Z</time>
      </trkpt>
      <trkpt lat="42.560532" lon="0.065447">
        <ele>1374.9</ele>
        <time>2014-05-04T14:39:53Z</time>
      </trkpt>
      <trkpt lat="42.560565" lon="0.065304">
        <ele>1373.0</ele>
        <time>2014-05-04T14:40:06Z</time>
      </trkpt>
      <trkpt lat="42.560610" lon="0.065244">
        <ele>1373.5</ele>
        <time>2014-05-04T14:40:40Z</time>
      </trkpt>
      <trkpt lat="42.560579" lon="0.065092">
        <ele>1374.0</ele>
        <time>2014-05-04T14:41:20Z</time>
      </trkpt>
      <trkpt lat="42.560547" lon="0.064963">
        <ele>1371.1</ele>
        <time>2014-05-04T14:41:34Z</time>
      </trkpt>
      <trkpt lat="42.560478" lon="0.064940">
        <ele>1368.1</ele>
        <time>2014-05-04T14:41:49Z</time>
      </trkpt>
      <trkpt lat="42.560453" lon="0.064804">
        <ele>1364.8</ele>
        <time>2014-05-04T14:42:03Z</time>
      </trkpt>
      <trkpt lat="42.560425" lon="0.064672">
        <ele>1363.2</ele>
        <time>2014-05-04T14:42:15Z</time>
      </trkpt>
      <trkpt lat="42.560390" lon="0.064564">
        <ele>1362.7</ele>
        <time>2014-05-04T14:42:28Z</time>
      </trkpt>
      <trkpt lat="42.560442" lon="0.064437">
        <ele>1362.3</ele>
        <time>2014-05-04T14:42:41Z</time>
      </trkpt>
      <trkpt lat="42.560439" lon="0.064292">
        <ele>1362.1</ele>
        <time>2014-05-04T14:42:53Z</time>
      </trkpt>
      <trkpt lat="42.560488" lon="0.064177">
        <ele>1361.4</ele>
        <time>2014-05-04T14:43:03Z</time>
      </trkpt>
      <trkpt lat="42.560570" lon="0.064084">
        <ele>1360.9</ele>
        <time>2014-05-04T14:43:16Z</time>
      </trkpt>
      <trkpt lat="42.560652" lon="0.063936">
        <ele>1358.8</ele>
        <time>2014-05-04T14:43:29Z</time>
      </trkpt>
      <trkpt lat="42.560708" lon="0.063803">
        <ele>1357.0</ele>
        <time>2014-05-04T14:43:42Z</time>
      </trkpt>
      <trkpt lat="42.560738" lon="0.063638">
        <ele>1353.2</ele>
        <time>2014-05-04T14:43:57Z</time>
      </trkpt>
      <trkpt lat="42.560739" lon="0.063460">
        <ele>1349.3</ele>
        <time>2014-05-04T14:44:12Z</time>
      </trkpt>
      <trkpt lat="42.560763" lon="0.063309">
        <ele>1346.2</ele>
        <time>2014-05-04T14:44:24Z</time>
      </trkpt>
      <trkpt lat="42.560771" lon="0.063158">
        <ele>1345.0</ele>
        <time>2014-05-04T14:44:34Z</time>
      </trkpt>
      <trkpt lat="42.560779" lon="0.063031">
        <ele>1343.1</ele>
        <time>2014-05-04T14:44:44Z</time>
      </trkpt>
      <trkpt lat="42.560784" lon="0.062889">
        <ele>1341.2</ele>
        <time>2014-05-04T14:44:56Z</time>
      </trkpt>
      <trkpt lat="42.560791" lon="0.062767">
        <ele>1338.1</ele>
        <time>2014-05-04T14:45:33Z</time>
      </trkpt>
      <trkpt lat="42.560760" lon="0.062624">
        <ele>1336.8</ele>
        <time>2014-05-04T14:45:45Z</time>
      </trkpt>
      <trkpt lat="42.560732" lon="0.062473">
        <ele>1334.1</ele>
        <time>2014-05-04T14:45:57Z</time>
      </trkpt>
      <trkpt lat="42.560772" lon="0.062347">
        <ele>1330.6</ele>
        <time>2014-05-04T14:46:10Z</time>
      </trkpt>
      <trkpt lat="42.560834" lon="0.062191">
        <ele>1326.2</ele>
        <time>2014-05-04T14:46:22Z</time>
      </trkpt>
      <trkpt lat="42.560840" lon="0.062124">
        <ele>1321.7</ele>
        <time>2014-05-04T14:46:38Z</time>
      </trkpt>
      <trkpt lat="42.560942" lon="0.062163">
        <ele>1318.3</ele>
        <time>2014-05-04T14:46:51Z</time>
      </trkpt>
      <trkpt lat="42.561026" lon="0.062060">
        <ele>1314.4</ele>
        <time>2014-05-04T14:47:08Z</time>
      </trkpt>
      <trkpt lat="42.561041" lon="0.061959">
        <ele>1310.3</ele>
        <time>2014-05-04T14:47:25Z</time>
      </trkpt>
      <trkpt lat="42.561138" lon="0.061894">
        <ele>1305.4</ele>
        <time>2014-05-04T14:47:45Z</time>
      </trkpt>
      <trkpt lat="42.561116" lon="0.061740">
        <ele>1301.4</ele>
        <time>2014-05-04T14:47:59Z</time>
      </trkpt>
      <trkpt lat="42.561130" lon="0.061622">
        <ele>1298.4</ele>
        <time>2014-05-04T14:48:12Z</time>
      </trkpt>
      <trkpt lat="42.561176" lon="0.061612">
        <ele>1290.5</ele>
        <time>2014-05-04T14:48:54Z</time>
      </trkpt>
      <trkpt lat="42.561311" lon="0.061703">
        <ele>1286.2</ele>
        <time>2014-05-04T14:49:12Z</time>
      </trkpt>
      <trkpt lat="42.561382" lon="0.061776">
        <ele>1282.7</ele>
        <time>2014-05-04T14:49:25Z</time>
      </trkpt>
      <trkpt lat="42.561454" lon="0.061839">
        <ele>1278.6</ele>
        <time>2014-05-04T14:49:45Z</time>
      </trkpt>
      <trkpt lat="42.561533" lon="0.061858">
        <ele>1274.1</ele>
        <time>2014-05-04T14:50:06Z</time>
      </trkpt>
      <trkpt lat="42.561644" lon="0.061769">
        <ele>1269.1</ele>
        <time>2014-05-04T14:50:29Z</time>
      </trkpt>
      <trkpt lat="42.561734" lon="0.061747">
        <ele>1265.4</ele>
        <time>2014-05-04T14:50:49Z</time>
      </trkpt>
      <trkpt lat="42.561763" lon="0.061700">
        <ele>1262.4</ele>
        <time>2014-05-04T14:51:08Z</time>
      </trkpt>
      <trkpt lat="42.561778" lon="0.061658">
        <ele>1257.5</ele>
        <time>2014-05-04T14:51:40Z</time>
      </trkpt>
      <trkpt lat="42.561725" lon="0.061569">
        <ele>1253.5</ele>
        <time>2014-05-04T14:52:00Z</time>
      </trkpt>
      <trkpt lat="42.561727" lon="0.061486">
        <ele>1248.8</ele>
        <time>2014-05-04T14:52:28Z</time>
      </trkpt>
      <trkpt lat="42.561679" lon="0.061393">
        <ele>1244.4</ele>
        <time>2014-05-04T14:52:51Z</time>
      </trkpt>
      <trkpt lat="42.561736" lon="0.061245">
        <ele>1240.8</ele>
        <time>2014-05-04T14:53:11Z</time>
      </trkpt>
      <trkpt lat="42.561781" lon="0.061137">
        <ele>1237.6</ele>
        <time>2014-05-04T14:53:32Z</time>
      </trkpt>
      <trkpt lat="42.561826" lon="0.061008">
        <ele>1232.7</ele>
        <time>2014-05-04T14:53:51Z</time>
      </trkpt>
      <trkpt lat="42.561850" lon="0.060949">
        <ele>1229.2</ele>
        <time>2014-05-04T14:54:12Z</time>
      </trkpt>
      <trkpt lat="42.561797" lon="0.060868">
        <ele>1225.4</ele>
        <time>2014-05-04T14:54:33Z</time>
      </trkpt>
      <trkpt lat="42.561778" lon="0.060776">
        <ele>1222.3</ele>
        <time>2014-05-04T14:54:51Z</time>
      </trkpt>
      <trkpt lat="42.561744" lon="0.060715">
        <ele>1219.6</ele>
        <time>2014-05-04T14:55:09Z</time>
      </trkpt>
      <trkpt lat="42.561663" lon="0.060671">
        <ele>1218.1</ele>
        <time>2014-05-04T14:55:25Z</time>
      </trkpt>
      <trkpt lat="42.561608" lon="0.060595">
        <ele>1217.2</ele>
        <time>2014-05-04T14:55:39Z</time>
      </trkpt>
      <trkpt lat="42.561594" lon="0.060443">
        <ele>1213.9</ele>
        <time>2014-05-04T14:55:59Z</time>
      </trkpt>
      <trkpt lat="42.561601" lon="0.060320">
        <ele>1210.2</ele>
        <time>2014-05-04T14:56:14Z</time>
      </trkpt>
      <trkpt lat="42.561627" lon="0.060223">
        <ele>1205.4</ele>
        <time>2014-05-04T14:56:36Z</time>
      </trkpt>
      <trkpt lat="42.561615" lon="0.060154">
        <ele>1203.8</ele>
        <time>2014-05-04T14:56:57Z</time>
      </trkpt>
      <trkpt lat="42.561574" lon="0.060112">
        <ele>1199.3</ele>
        <time>2014-05-04T14:57:22Z</time>
      </trkpt>
      <trkpt lat="42.561496" lon="0.060033">
        <ele>1197.7</ele>
        <time>2014-05-04T14:57:44Z</time>
      </trkpt>
      <trkpt lat="42.561482" lon="0.059950">
        <ele>1193.7</ele>
        <time>2014-05-04T14:58:04Z</time>
      </trkpt>
      <trkpt lat="42.561533" lon="0.059873">
        <ele>1188.3</ele>
        <time>2014-05-04T14:58:23Z</time>
      </trkpt>
      <trkpt lat="42.561535" lon="0.059777">
        <ele>1183.7</ele>
        <time>2014-05-04T14:58:42Z</time>
      </trkpt>
      <trkpt lat="42.561501" lon="0.059764">
        <ele>1181.0</ele>
        <time>2014-05-04T14:59:14Z</time>
      </trkpt>
      <trkpt lat="42.561512" lon="0.059635">
        <ele>1177.0</ele>
        <time>2014-05-04T14:59:56Z</time>
      </trkpt>
      <trkpt lat="42.561553" lon="0.059540">
        <ele>1173.3</ele>
        <time>2014-05-04T15:00:20Z</time>
      </trkpt>
      <trkpt lat="42.561514" lon="0.059502">
        <ele>1166.1</ele>
        <time>2014-05-04T15:01:43Z</time>
      </trkpt>
      <trkpt lat="42.561480" lon="0.059391">
        <ele>1162.1</ele>
        <time>2014-05-04T15:02:00Z</time>
      </trkpt>
      <trkpt lat="42.561432" lon="0.059269">
        <ele>1158.5</ele>
        <time>2014-05-04T15:02:18Z</time>
      </trkpt>
      <trkpt lat="42.561438" lon="0.059177">
        <ele>1156.3</ele>
        <time>2014-05-04T15:02:39Z</time>
      </trkpt>
      <trkpt lat="42.561419" lon="0.059042">
        <ele>1154.3</ele>
        <time>2014-05-04T15:02:53Z</time>
      </trkpt>
      <trkpt lat="42.561349" lon="0.058941">
        <ele>1151.4</ele>
        <time>2014-05-04T15:03:10Z</time>
      </trkpt>
      <trkpt lat="42.561295" lon="0.058856">
        <ele>1148.2</ele>
        <time>2014-05-04T15:03:28Z</time>
      </trkpt>
      <trkpt lat="42.561307" lon="0.058782">
        <ele>1143.2</ele>
        <time>2014-05-04T15:03:53Z</time>
      </trkpt>
      <trkpt lat="42.561328" lon="0.058649">
        <ele>1139.7</ele>
        <time>2014-05-04T15:04:24Z</time>
      </trkpt>
      <trkpt lat="42.561328" lon="0.058552">
        <ele>1138.7</ele>
        <time>2014-05-04T15:04:58Z</time>
      </trkpt>
      <trkpt lat="42.561340" lon="0.058418">
        <ele>1137.4</ele>
        <time>2014-05-04T15:05:09Z</time>
      </trkpt>
      <trkpt lat="42.561358" lon="0.058289">
        <ele>1136.4</ele>
        <time>2014-05-04T15:05:22Z</time>
      </trkpt>
      <trkpt lat="42.561343" lon="0.058120">
        <ele>1133.6</ele>
        <time>2014-05-04T15:05:35Z</time>
      </trkpt>
      <trkpt lat="42.561358" lon="0.057982">
        <ele>1132.1</ele>
        <time>2014-05-04T15:05:46Z</time>
      </trkpt>
      <trkpt lat="42.561345" lon="0.057822">
        <ele>1129.3</ele>
        <time>2014-05-04T15:06:00Z</time>
      </trkpt>
      <trkpt lat="42.561339" lon="0.057686">
        <ele>1127.1</ele>
        <time>2014-05-04T15:06:11Z</time>
      </trkpt>
      <trkpt lat="42.561401" lon="0.057537">
        <ele>1126.2</ele>
        <time>2014-05-04T15:06:22Z</time>
      </trkpt>
      <trkpt lat="42.561434" lon="0.057397">
        <ele>1125.2</ele>
        <time>2014-05-04T15:06:33Z</time>
      </trkpt>
      <trkpt lat="42.561469" lon="0.057281">
        <ele>1123.4</ele>
        <time>2014-05-04T15:06:44Z</time>
      </trkpt>
      <trkpt lat="42.561458" lon="0.057141">
        <ele>1120.5</ele>
        <time>2014-05-04T15:06:56Z</time>
      </trkpt>
      <trkpt lat="42.561473" lon="0.057022">
        <ele>1117.4</ele>
        <time>2014-05-04T15:07:08Z</time>
      </trkpt>
      <trkpt lat="42.561428" lon="0.056957">
        <ele>1114.0</ele>
        <time>2014-05-04T15:07:24Z</time>
      </trkpt>
      <trkpt lat="42.561420" lon="0.056829">
        <ele>1110.9</ele>
        <time>2014-05-04T15:07:39Z</time>
      </trkpt>
      <trkpt lat="42.561351" lon="0.056817">
        <ele>1108.1</ele>
        <time>2014-05-04T15:07:52Z</time>
      </trkpt>
      <trkpt lat="42.561263" lon="0.056791">
        <ele>1105.5</ele>
        <time>2014-05-04T15:08:04Z</time>
      </trkpt>
      <trkpt lat="42.561181" lon="0.056826">
        <ele>1102.2</ele>
        <time>2014-05-04T15:08:17Z</time>
      </trkpt>
      <trkpt lat="42.561106" lon="0.056928">
        <ele>1098.4</ele>
        <time>2014-05-04T15:08:34Z</time>
      </trkpt>
      <trkpt lat="42.561066" lon="0.056800">
        <ele>1095.6</ele>
        <time>2014-05-04T15:08:52Z</time>
      </trkpt>
      <trkpt lat="42.561007" lon="0.056694">
        <ele>1092.3</ele>
        <time>2014-05-04T15:09:10Z</time>
      </trkpt>
      <trkpt lat="42.560972" lon="0.056543">
        <ele>1089.1</ele>
        <time>2014-05-04T15:09:23Z</time>
      </trkpt>
      <trkpt lat="42.560925" lon="0.056498">
        <ele>1085.4</ele>
        <time>2014-05-04T15:09:42Z</time>
      </trkpt>
      <trkpt lat="42.560794" lon="0.056459">
        <ele>1081.6</ele>
        <time>2014-05-04T15:10:01Z</time>
      </trkpt>
      <trkpt lat="42.560691" lon="0.056400">
        <ele>1078.5</ele>
        <time>2014-05-04T15:10:17Z</time>
      </trkpt>
      <trkpt lat="42.560607" lon="0.056312">
        <ele>1076.0</ele>
        <time>2014-05-04T15:10:29Z</time>
      </trkpt>
      <trkpt lat="42.560530" lon="0.056248">
        <ele>1073.4</ele>
        <time>2014-05-04T15:10:42Z</time>
      </trkpt>
      <trkpt lat="42.560447" lon="0.056257">
        <ele>1070.1</ele>
        <time>2014-05-04T15:10:59Z</time>
      </trkpt>
      <trkpt lat="42.560372" lon="0.056156">
        <ele>1067.2</ele>
        <time>2014-05-04T15:11:12Z</time>
      </trkpt>
      <trkpt lat="42.560312" lon="0.056058">
        <ele>1064.3</ele>
        <time>2014-05-04T15:11:30Z</time>
      </trkpt>
      <trkpt lat="42.560258" lon="0.055974">
        <ele>1061.6</ele>
        <time>2014-05-04T15:11:44Z</time>
      </trkpt>
      <trkpt lat="42.560216" lon="0.055879">
        <ele>1059.3</ele>
        <time>2014-05-04T15:11:56Z</time>
      </trkpt>
      <trkpt lat="42.560224" lon="0.055742">
        <ele>1057.5</ele>
        <time>2014-05-04T15:12:06Z</time>
      </trkpt>
      <trkpt lat="42.560276" lon="0.055620">
        <ele>1056.4</ele>
        <time>2014-05-04T15:12:17Z</time>
      </trkpt>
      <trkpt lat="42.560346" lon="0.055523">
        <ele>1054.5</ele>
        <time>2014-05-04T15:12:30Z</time>
      </trkpt>
      <trkpt lat="42.560413" lon="0.055394">
        <ele>1052.7</ele>
        <time>2014-05-04T15:12:40Z</time>
      </trkpt>
      <trkpt lat="42.560466" lon="0.055288">
        <ele>1051.6</ele>
        <time>2014-05-04T15:12:51Z</time>
      </trkpt>
      <trkpt lat="42.560469" lon="0.055144">
        <ele>1050.7</ele>
        <time>2014-05-04T15:13:02Z</time>
      </trkpt>
      <trkpt lat="42.560497" lon="0.055027">
        <ele>1048.8</ele>
        <time>2014-05-04T15:13:12Z</time>
      </trkpt>
      <trkpt lat="42.560477" lon="0.054877">
        <ele>1047.2</ele>
        <time>2014-05-04T15:13:23Z</time>
      </trkpt>
      <trkpt lat="42.560501" lon="0.054748">
        <ele>1045.7</ele>
        <time>2014-05-04T15:13:33Z</time>
      </trkpt>
      <trkpt lat="42.560439" lon="0.054676">
        <ele>1044.2</ele>
        <time>2014-05-04T15:13:45Z</time>
      </trkpt>
      <trkpt lat="42.560356" lon="0.054630">
        <ele>1041.9</ele>
        <time>2014-05-04T15:14:00Z</time>
      </trkpt>
      <trkpt lat="42.560274" lon="0.054545">
        <ele>1039.5</ele>
        <time>2014-05-04T15:14:12Z</time>
      </trkpt>
      <trkpt lat="42.560205" lon="0.054479">
        <ele>1038.0</ele>
        <time>2014-05-04T15:14:23Z</time>
      </trkpt>
      <trkpt lat="42.560136" lon="0.054390">
        <ele>1036.7</ele>
        <time>2014-05-04T15:14:34Z</time>
      </trkpt>
      <trkpt lat="42.560070" lon="0.054320">
        <ele>1035.9</ele>
        <time>2014-05-04T15:14:45Z</time>
      </trkpt>
      <trkpt lat="42.560010" lon="0.054227">
        <ele>1035.1</ele>
        <time>2014-05-04T15:14:55Z</time>
      </trkpt>
      <trkpt lat="42.559960" lon="0.054115">
        <ele>1034.1</ele>
        <time>2014-05-04T15:15:08Z</time>
      </trkpt>
      <trkpt lat="42.559907" lon="0.053998">
        <ele>1033.0</ele>
        <time>2014-05-04T15:15:19Z</time>
      </trkpt>
      <trkpt lat="42.559873" lon="0.053880">
        <ele>1032.1</ele>
        <time>2014-05-04T15:15:29Z</time>
      </trkpt>
      <trkpt lat="42.559864" lon="0.053746">
        <ele>1030.8</ele>
        <time>2014-05-04T15:15:40Z</time>
      </trkpt>
      <trkpt lat="42.559845" lon="0.053630">
        <ele>1029.9</ele>
        <time>2014-05-04T15:15:50Z</time>
      </trkpt>
      <trkpt lat="42.559811" lon="0.053517">
        <ele>1028.0</ele>
        <time>2014-05-04T15:16:03Z</time>
      </trkpt>
      <trkpt lat="42.559747" lon="0.053415">
        <ele>1026.5</ele>
        <time>2014-05-04T15:16:34Z</time>
      </trkpt>
      <trkpt lat="42.559716" lon="0.053294">
        <ele>1023.7</ele>
        <time>2014-05-04T15:16:51Z</time>
      </trkpt>
      <trkpt lat="42.559718" lon="0.053177">
        <ele>1020.5</ele>
        <time>2014-05-04T15:17:05Z</time>
      </trkpt>
      <trkpt lat="42.559729" lon="0.053044">
        <ele>1018.9</ele>
        <time>2014-05-04T15:17:20Z</time>
      </trkpt>
      <trkpt lat="42.559740" lon="0.052921">
        <ele>1018.3</ele>
        <time>2014-05-04T15:17:29Z</time>
      </trkpt>
      <trkpt lat="42.559754" lon="0.052789">
        <ele>1017.0</ele>
        <time>2014-05-04T15:17:39Z</time>
      </trkpt>
      <trkpt lat="42.559710" lon="0.052722">
        <ele>1014.8</ele>
        <time>2014-05-04T15:17:53Z</time>
      </trkpt>
      <trkpt lat="42.559636" lon="0.052742">
        <ele>1013.4</ele>
        <time>2014-05-04T15:18:06Z</time>
      </trkpt>
      <trkpt lat="42.559619" lon="0.052643">
        <ele>1011.6</ele>
        <time>2014-05-04T15:18:19Z</time>
      </trkpt>
      <trkpt lat="42.559658" lon="0.052535">
        <ele>1009.7</ele>
        <time>2014-05-04T15:18:37Z</time>
      </trkpt>
      <trkpt lat="42.559668" lon="0.052420">
        <ele>1008.1</ele>
        <time>2014-05-04T15:18:48Z</time>
      </trkpt>
      <trkpt lat="42.559675" lon="0.052299">
        <ele>1006.1</ele>
        <time>2014-05-04T15:19:01Z</time>
      </trkpt>
      <trkpt lat="42.559705" lon="0.052164">
        <ele>1004.6</ele>
        <time>2014-05-04T15:19:16Z</time>
      </trkpt>
      <trkpt lat="42.559657" lon="0.052107">
        <ele>1002.3</ele>
        <time>2014-05-04T15:19:26Z</time>
      </trkpt>
      <trkpt lat="42.559569" lon="0.052171">
        <ele>1000.4</ele>
        <time>2014-05-04T15:19:36Z</time>
      </trkpt>
      <trkpt lat="42.559542" lon="0.052097">
        <ele>999.0</ele>
        <time>2014-05-04T15:19:46Z</time>
      </trkpt>
      <trkpt lat="42.559603" lon="0.052013">
        <ele>996.8</ele>
        <time>2014-05-04T15:20:01Z</time>
      </trkpt>
      <trkpt lat="42.559658" lon="0.051893">
        <ele>994.5</ele>
        <time>2014-05-04T15:20:17Z</time>
      </trkpt>
      <trkpt lat="42.559730" lon="0.051817">
        <ele>992.4</ele>
        <time>2014-05-04T15:20:31Z</time>
      </trkpt>
      <trkpt lat="42.559707" lon="0.051749">
        <ele>990.0</ele>
        <time>2014-05-04T15:20:46Z</time>
      </trkpt>
      <trkpt lat="42.559804" lon="0.051690">
        <ele>988.2</ele>
        <time>2014-05-04T15:20:59Z</time>
      </trkpt>
      <trkpt lat="42.559731" lon="0.051655">
        <ele>985.6</ele>
        <time>2014-05-04T15:21:14Z</time>
      </trkpt>
      <trkpt lat="42.559629" lon="0.051726">
        <ele>983.4</ele>
        <time>2014-05-04T15:21:30Z</time>
      </trkpt>
      <trkpt lat="42.559528" lon="0.051763">
        <ele>981.8</ele>
        <time>2014-05-04T15:21:42Z</time>
      </trkpt>
      <trkpt lat="42.559430" lon="0.051780">
        <ele>980.6</ele>
        <time>2014-05-04T15:21:57Z</time>
      </trkpt>
      <trkpt lat="42.559344" lon="0.051831">
        <ele>979.4</ele>
        <time>2014-05-04T15:22:09Z</time>
      </trkpt>
      <trkpt lat="42.559289" lon="0.051959">
        <ele>978.6</ele>
        <time>2014-05-04T15:22:21Z</time>
      </trkpt>
      <trkpt lat="42.559213" lon="0.052076">
        <ele>977.6</ele>
        <time>2014-05-04T15:22:33Z</time>
      </trkpt>
      <trkpt lat="42.559135" lon="0.052186">
        <ele>976.2</ele>
        <time>2014-05-04T15:22:46Z</time>
      </trkpt>
      <trkpt lat="42.559064" lon="0.052261">
        <ele>973.5</ele>
        <time>2014-05-04T15:23:07Z</time>
      </trkpt>
      <trkpt lat="42.558996" lon="0.052347">
        <ele>972.0</ele>
        <time>2014-05-04T15:23:22Z</time>
      </trkpt>
      <trkpt lat="42.558949" lon="0.052474">
        <ele>970.6</ele>
        <time>2014-05-04T15:23:35Z</time>
      </trkpt>
      <trkpt lat="42.558890" lon="0.052366">
        <ele>968.1</ele>
        <time>2014-05-04T15:23:50Z</time>
      </trkpt>
      <trkpt lat="42.558828" lon="0.052263">
        <ele>966.4</ele>
        <time>2014-05-04T15:24:03Z</time>
      </trkpt>
      <trkpt lat="42.558783" lon="0.052127">
        <ele>965.1</ele>
        <time>2014-05-04T15:24:16Z</time>
      </trkpt>
      <trkpt lat="42.558802" lon="0.052002">
        <ele>963.7</ele>
        <time>2014-05-04T15:24:29Z</time>
      </trkpt>
      <trkpt lat="42.558825" lon="0.051899">
        <ele>962.2</ele>
        <time>2014-05-04T15:24:42Z</time>
      </trkpt>
      <trkpt lat="42.558721" lon="0.051908">
        <ele>960.4</ele>
        <time>2014-05-04T15:24:56Z</time>
      </trkpt>
      <trkpt lat="42.558657" lon="0.051890">
        <ele>958.2</ele>
        <time>2014-05-04T15:25:13Z</time>
      </trkpt>
      <trkpt lat="42.558556" lon="0.051907">
        <ele>955.7</ele>
        <time>2014-05-04T15:25:28Z</time>
      </trkpt>
      <trkpt lat="42.558499" lon="0.051979">
        <ele>954.2</ele>
        <time>2014-05-04T15:25:58Z</time>
      </trkpt>
      <trkpt lat="42.558510" lon="0.052016">
        <ele>953.8</ele>
        <time>2014-05-04T15:27:01Z</time>
      </trkpt>
      <trkpt lat="42.558511" lon="0.051995">
        <ele>953.5</ele>
        <time>2014-05-04T15:28:03Z</time>
      </trkpt>
      <trkpt lat="42.558493" lon="0.052103">
        <ele>953.0</ele>
        <time>2014-05-04T15:28:38Z</time>
      </trkpt>
      <trkpt lat="42.558437" lon="0.052195">
        <ele>951.2</ele>
        <time>2014-05-04T15:29:07Z</time>
      </trkpt>
      <trkpt lat="42.558367" lon="0.052241">
        <ele>950.8</ele>
        <time>2014-05-04T15:29:18Z</time>
      </trkpt>
      <trkpt lat="42.558300" lon="0.052330">
        <ele>950.3</ele>
        <time>2014-05-04T15:29:45Z</time>
      </trkpt>
      <trkpt lat="42.558212" lon="0.052357">
        <ele>950.4</ele>
        <time>2014-05-04T15:30:16Z</time>
      </trkpt>
      <trkpt lat="42.558115" lon="0.052342">
        <ele>950.3</ele>
        <time>2014-05-04T15:30:25Z</time>
      </trkpt>
      <trkpt lat="42.558057" lon="0.052260">
        <ele>950.3</ele>
        <time>2014-05-04T15:30:37Z</time>
      </trkpt>
      <trkpt lat="42.558054" lon="0.052140">
        <ele>953.1</ele>
        <time>2014-05-04T15:30:54Z</time>
      </trkpt>
      <trkpt lat="42.558090" lon="0.052005">
        <ele>953.6</ele>
        <time>2014-05-04T15:31:08Z</time>
      </trkpt>
      <trkpt lat="42.558104" lon="0.051886">
        <ele>955.3</ele>
        <time>2014-05-04T15:31:28Z</time>
      </trkpt>
      <trkpt lat="42.558084" lon="0.051832">
        <ele>958.1</ele>
        <time>2014-05-04T15:31:45Z</time>
      </trkpt>
      <trkpt lat="42.558101" lon="0.051676">
        <ele>959.0</ele>
        <time>2014-05-04T15:32:00Z</time>
      </trkpt>
      <trkpt lat="42.558119" lon="0.051541">
        <ele>958.6</ele>
        <time>2014-05-04T15:32:12Z</time>
      </trkpt>
      <trkpt lat="42.558142" lon="0.051412">
        <ele>959.7</ele>
        <time>2014-05-04T15:32:23Z</time>
      </trkpt>
      <trkpt lat="42.558279" lon="0.051333">
        <ele>961.4</ele>
        <time>2014-05-04T15:32:38Z</time>
      </trkpt>
      <trkpt lat="42.558378" lon="0.051259">
        <ele>961.7</ele>
        <time>2014-05-04T15:32:51Z</time>
      </trkpt>
      <trkpt lat="42.558494" lon="0.051172">
        <ele>962.5</ele>
        <time>2014-05-04T15:33:05Z</time>
      </trkpt>
      <trkpt lat="42.558601" lon="0.051048">
        <ele>963.6</ele>
        <time>2014-05-04T15:33:20Z</time>
      </trkpt>
      <trkpt lat="42.558656" lon="0.050887">
        <ele>964.3</ele>
        <time>2014-05-04T15:33:34Z</time>
      </trkpt>
      <trkpt lat="42.558737" lon="0.050750">
        <ele>965.8</ele>
        <time>2014-05-04T15:33:48Z</time>
      </trkpt>
      <trkpt lat="42.558790" lon="0.050579">
        <ele>967.8</ele>
        <time>2014-05-04T15:34:04Z</time>
      </trkpt>
      <trkpt lat="42.558808" lon="0.050431">
        <ele>970.0</ele>
        <time>2014-05-04T15:34:17Z</time>
      </trkpt>
    </trkseg>
  </trk>
</gpx>

